<?xml version="1.0" encoding="UTF-8" standalone="no" ?>
<gpx xmlns="http://www.topografix.com/GPX/1/1" xmlns:xsi="http://www.w3.org/2001/XMLSchema-instance" xsi:schemaLocation="http://www.topografix.com/GPX/1/1 http://www.topografix.com/GPX/1/1/gpx.xsd" version="1.1" creator="VisuGPX - https://www.visugpx.com">
  <metadata>
    <name>secteur Saverne - Dabo - Petite Pierre</name>
  </metadata>
  <trk>
    <name><![CDATA[secteur Saverne - Dabo - Petite Pierre_29]]></name>
    <trkseg>
      <trkpt lat="48.71855" lon="7.30401">
        <ele>273.7</ele>
        <time>2020-05-10T13:56:06Z</time>
      </trkpt>
      <trkpt lat="48.71855" lon="7.30401">
        <ele>273.7</ele>
        <time>2020-05-10T13:56:06Z</time>
      </trkpt>
      <trkpt lat="48.71855" lon="7.30401">
        <ele>273.7</ele>
        <time>2020-05-10T13:56:06Z</time>
      </trkpt>
      <trkpt lat="48.71855" lon="7.30401">
        <ele>273.7</ele>
        <time>2020-05-10T13:56:06Z</time>
      </trkpt>
      <trkpt lat="48.71855" lon="7.30401">
        <ele>273.7</ele>
        <time>2020-05-10T13:56:06Z</time>
      </trkpt>
      <trkpt lat="48.71855" lon="7.30401">
        <ele>273.7</ele>
        <time>2020-05-10T13:56:06Z</time>
      </trkpt>
      <trkpt lat="48.71855" lon="7.30401">
        <ele>273.7</ele>
        <time>2020-05-10T13:56:06Z</time>
      </trkpt>
      <trkpt lat="48.71855" lon="7.30396">
        <ele>273.8</ele>
        <time>2020-05-10T13:56:08Z</time>
      </trkpt>
      <trkpt lat="48.71854" lon="7.30394">
        <ele>273.8</ele>
        <time>2020-05-10T13:56:09Z</time>
      </trkpt>
      <trkpt lat="48.71853" lon="7.30393">
        <ele>273.9</ele>
        <time>2020-05-10T13:56:10Z</time>
      </trkpt>
      <trkpt lat="48.71848" lon="7.30391">
        <ele>274</ele>
        <time>2020-05-10T13:56:12Z</time>
      </trkpt>
      <trkpt lat="48.71842" lon="7.30394">
        <ele>273.8</ele>
        <time>2020-05-10T13:56:14Z</time>
      </trkpt>
      <trkpt lat="48.71836" lon="7.30402">
        <ele>273.7</ele>
        <time>2020-05-10T13:56:16Z</time>
      </trkpt>
      <trkpt lat="48.71832" lon="7.30408">
        <ele>273.5</ele>
        <time>2020-05-10T13:56:18Z</time>
      </trkpt>
      <trkpt lat="48.71831" lon="7.30413">
        <ele>273.5</ele>
        <time>2020-05-10T13:56:19Z</time>
      </trkpt>
      <trkpt lat="48.71829" lon="7.30419">
        <ele>273.4</ele>
        <time>2020-05-10T13:56:20Z</time>
      </trkpt>
      <trkpt lat="48.7183" lon="7.3043">
        <ele>273.3</ele>
        <time>2020-05-10T13:56:22Z</time>
      </trkpt>
      <trkpt lat="48.71831" lon="7.30435">
        <ele>273.2</ele>
        <time>2020-05-10T13:56:23Z</time>
      </trkpt>
      <trkpt lat="48.71832" lon="7.30446">
        <ele>273.1</ele>
        <time>2020-05-10T13:56:25Z</time>
      </trkpt>
      <trkpt lat="48.71833" lon="7.30451">
        <ele>279.6</ele>
        <time>2020-05-10T13:56:26Z</time>
      </trkpt>
      <trkpt lat="48.71835" lon="7.30462">
        <ele>284.9</ele>
        <time>2020-05-10T13:56:28Z</time>
      </trkpt>
      <trkpt lat="48.71835" lon="7.30472">
        <ele>291.4</ele>
        <time>2020-05-10T13:56:30Z</time>
      </trkpt>
      <trkpt lat="48.71835" lon="7.30477">
        <ele>291</ele>
        <time>2020-05-10T13:56:31Z</time>
      </trkpt>
      <trkpt lat="48.71838" lon="7.30488">
        <ele>290.1</ele>
        <time>2020-05-10T13:56:33Z</time>
      </trkpt>
      <trkpt lat="48.7184" lon="7.30498">
        <ele>289.4</ele>
        <time>2020-05-10T13:56:35Z</time>
      </trkpt>
      <trkpt lat="48.71841" lon="7.30503">
        <ele>289</ele>
        <time>2020-05-10T13:56:36Z</time>
      </trkpt>
      <trkpt lat="48.71842" lon="7.30513">
        <ele>288.3</ele>
        <time>2020-05-10T13:56:38Z</time>
      </trkpt>
      <trkpt lat="48.71843" lon="7.30523">
        <ele>287.5</ele>
        <time>2020-05-10T13:56:40Z</time>
      </trkpt>
      <trkpt lat="48.71844" lon="7.30532">
        <ele>286.8</ele>
        <time>2020-05-10T13:56:42Z</time>
      </trkpt>
      <trkpt lat="48.71845" lon="7.30541">
        <ele>286.2</ele>
        <time>2020-05-10T13:56:44Z</time>
      </trkpt>
      <trkpt lat="48.71846" lon="7.30545">
        <ele>285.8</ele>
        <time>2020-05-10T13:56:45Z</time>
      </trkpt>
      <trkpt lat="48.71846" lon="7.3055">
        <ele>285.5</ele>
        <time>2020-05-10T13:56:47Z</time>
      </trkpt>
      <trkpt lat="48.71847" lon="7.3055">
        <ele>285.5</ele>
        <time>2020-05-10T13:56:48Z</time>
      </trkpt>
      <trkpt lat="48.71846" lon="7.30549">
        <ele>285.4</ele>
        <time>2020-05-10T13:56:50Z</time>
      </trkpt>
      <trkpt lat="48.71846" lon="7.30547">
        <ele>285.2</ele>
        <time>2020-05-10T13:56:52Z</time>
      </trkpt>
      <trkpt lat="48.71846" lon="7.30547">
        <ele>285.2</ele>
        <time>2020-05-10T13:56:54Z</time>
      </trkpt>
      <trkpt lat="48.71846" lon="7.30547">
        <ele>285.2</ele>
        <time>2020-05-10T13:56:55Z</time>
      </trkpt>
      <trkpt lat="48.71846" lon="7.30548">
        <ele>285.1</ele>
        <time>2020-05-10T13:56:57Z</time>
      </trkpt>
      <trkpt lat="48.71845" lon="7.30548">
        <ele>285.1</ele>
        <time>2020-05-10T13:56:58Z</time>
      </trkpt>
      <trkpt lat="48.71845" lon="7.30548">
        <ele>285.1</ele>
        <time>2020-05-10T13:56:59Z</time>
      </trkpt>
      <trkpt lat="48.71845" lon="7.30549">
        <ele>285</ele>
        <time>2020-05-10T13:57:01Z</time>
      </trkpt>
      <trkpt lat="48.71845" lon="7.3055">
        <ele>284.9</ele>
        <time>2020-05-10T13:57:03Z</time>
      </trkpt>
      <trkpt lat="48.71845" lon="7.3055">
        <ele>284.9</ele>
        <time>2020-05-10T13:57:04Z</time>
      </trkpt>
      <trkpt lat="48.71845" lon="7.3055">
        <ele>284.9</ele>
        <time>2020-05-10T13:57:06Z</time>
      </trkpt>
      <trkpt lat="48.71845" lon="7.3055">
        <ele>284.9</ele>
        <time>2020-05-10T13:57:07Z</time>
      </trkpt>
      <trkpt lat="48.71845" lon="7.3055">
        <ele>284.9</ele>
        <time>2020-05-10T13:57:08Z</time>
      </trkpt>
      <trkpt lat="48.71845" lon="7.30549">
        <ele>284.8</ele>
        <time>2020-05-10T13:57:09Z</time>
      </trkpt>
      <trkpt lat="48.71846" lon="7.30549">
        <ele>284.8</ele>
        <time>2020-05-10T13:57:10Z</time>
      </trkpt>
      <trkpt lat="48.71846" lon="7.30549">
        <ele>284.8</ele>
        <time>2020-05-10T13:57:11Z</time>
      </trkpt>
      <trkpt lat="48.71845" lon="7.3055">
        <ele>284.7</ele>
        <time>2020-05-10T13:57:13Z</time>
      </trkpt>
      <trkpt lat="48.71845" lon="7.3055">
        <ele>284.6</ele>
        <time>2020-05-10T13:57:15Z</time>
      </trkpt>
      <trkpt lat="48.71845" lon="7.3055">
        <ele>284.6</ele>
        <time>2020-05-10T13:57:16Z</time>
      </trkpt>
      <trkpt lat="48.71845" lon="7.3055">
        <ele>284.6</ele>
        <time>2020-05-10T13:57:18Z</time>
      </trkpt>
      <trkpt lat="48.71845" lon="7.3055">
        <ele>284.6</ele>
        <time>2020-05-10T13:57:19Z</time>
      </trkpt>
      <trkpt lat="48.71845" lon="7.3055">
        <ele>284.6</ele>
        <time>2020-05-10T13:57:20Z</time>
      </trkpt>
      <trkpt lat="48.71843" lon="7.30554">
        <ele>284.3</ele>
        <time>2020-05-10T13:57:24Z</time>
      </trkpt>
      <trkpt lat="48.71842" lon="7.30559">
        <ele>284</ele>
        <time>2020-05-10T13:57:26Z</time>
      </trkpt>
      <trkpt lat="48.71843" lon="7.3057">
        <ele>283.2</ele>
        <time>2020-05-10T13:57:28Z</time>
      </trkpt>
      <trkpt lat="48.71844" lon="7.30576">
        <ele>282.8</ele>
        <time>2020-05-10T13:57:29Z</time>
      </trkpt>
      <trkpt lat="48.71845" lon="7.30589">
        <ele>281.9</ele>
        <time>2020-05-10T13:57:31Z</time>
      </trkpt>
      <trkpt lat="48.71846" lon="7.30595">
        <ele>281.4</ele>
        <time>2020-05-10T13:57:32Z</time>
      </trkpt>
      <trkpt lat="48.71846" lon="7.30601">
        <ele>281</ele>
        <time>2020-05-10T13:57:33Z</time>
      </trkpt>
      <trkpt lat="48.71847" lon="7.30613">
        <ele>280.1</ele>
        <time>2020-05-10T13:57:35Z</time>
      </trkpt>
      <trkpt lat="48.71848" lon="7.30625">
        <ele>279.2</ele>
        <time>2020-05-10T13:57:37Z</time>
      </trkpt>
      <trkpt lat="48.71848" lon="7.30636">
        <ele>278.3</ele>
        <time>2020-05-10T13:57:39Z</time>
      </trkpt>
      <trkpt lat="48.71848" lon="7.30647">
        <ele>277.3</ele>
        <time>2020-05-10T13:57:41Z</time>
      </trkpt>
      <trkpt lat="48.71847" lon="7.30659">
        <ele>278</ele>
        <time>2020-05-10T13:57:43Z</time>
      </trkpt>
      <trkpt lat="48.71846" lon="7.3067">
        <ele>278.6</ele>
        <time>2020-05-10T13:57:45Z</time>
      </trkpt>
      <trkpt lat="48.71846" lon="7.3068">
        <ele>279.2</ele>
        <time>2020-05-10T13:57:47Z</time>
      </trkpt>
      <trkpt lat="48.71845" lon="7.3069">
        <ele>279.8</ele>
        <time>2020-05-10T13:57:49Z</time>
      </trkpt>
      <trkpt lat="48.71844" lon="7.30701">
        <ele>280.4</ele>
        <time>2020-05-10T13:57:51Z</time>
      </trkpt>
      <trkpt lat="48.71843" lon="7.30712">
        <ele>281.1</ele>
        <time>2020-05-10T13:57:53Z</time>
      </trkpt>
      <trkpt lat="48.71842" lon="7.30723">
        <ele>281.6</ele>
        <time>2020-05-10T13:57:55Z</time>
      </trkpt>
      <trkpt lat="48.7184" lon="7.30733">
        <ele>282.1</ele>
        <time>2020-05-10T13:57:57Z</time>
      </trkpt>
      <trkpt lat="48.71838" lon="7.30738">
        <ele>282.4</ele>
        <time>2020-05-10T13:57:58Z</time>
      </trkpt>
      <trkpt lat="48.71836" lon="7.30744">
        <ele>282.7</ele>
        <time>2020-05-10T13:58:00Z</time>
      </trkpt>
      <trkpt lat="48.71833" lon="7.30756">
        <ele>283.3</ele>
        <time>2020-05-10T13:58:01Z</time>
      </trkpt>
      <trkpt lat="48.7183" lon="7.30761">
        <ele>283.6</ele>
        <time>2020-05-10T13:58:02Z</time>
      </trkpt>
      <trkpt lat="48.71827" lon="7.30771">
        <ele>284.1</ele>
        <time>2020-05-10T13:58:04Z</time>
      </trkpt>
      <trkpt lat="48.71823" lon="7.30781">
        <ele>284.6</ele>
        <time>2020-05-10T13:58:06Z</time>
      </trkpt>
      <trkpt lat="48.71818" lon="7.3079">
        <ele>285.1</ele>
        <time>2020-05-10T13:58:08Z</time>
      </trkpt>
      <trkpt lat="48.71816" lon="7.30795">
        <ele>285.3</ele>
        <time>2020-05-10T13:58:09Z</time>
      </trkpt>
      <trkpt lat="48.7181" lon="7.30803">
        <ele>286.9</ele>
        <time>2020-05-10T13:58:11Z</time>
      </trkpt>
      <trkpt lat="48.71804" lon="7.30811">
        <ele>288.5</ele>
        <time>2020-05-10T13:58:13Z</time>
      </trkpt>
      <trkpt lat="48.71802" lon="7.30816">
        <ele>289.4</ele>
        <time>2020-05-10T13:58:14Z</time>
      </trkpt>
      <trkpt lat="48.718" lon="7.30819">
        <ele>290.1</ele>
        <time>2020-05-10T13:58:15Z</time>
      </trkpt>
      <trkpt lat="48.71797" lon="7.30825">
        <ele>290.8</ele>
        <time>2020-05-10T13:58:17Z</time>
      </trkpt>
      <trkpt lat="48.71794" lon="7.30828">
        <ele>291.3</ele>
        <time>2020-05-10T13:58:18Z</time>
      </trkpt>
      <trkpt lat="48.71792" lon="7.30832">
        <ele>291.8</ele>
        <time>2020-05-10T13:58:19Z</time>
      </trkpt>
      <trkpt lat="48.71787" lon="7.30841">
        <ele>292.6</ele>
        <time>2020-05-10T13:58:21Z</time>
      </trkpt>
      <trkpt lat="48.71781" lon="7.30851">
        <ele>292.5</ele>
        <time>2020-05-10T13:58:23Z</time>
      </trkpt>
      <trkpt lat="48.71778" lon="7.30857">
        <ele>294.1</ele>
        <time>2020-05-10T13:58:24Z</time>
      </trkpt>
      <trkpt lat="48.71775" lon="7.30861">
        <ele>293.5</ele>
        <time>2020-05-10T13:58:25Z</time>
      </trkpt>
      <trkpt lat="48.71772" lon="7.3087">
        <ele>293.5</ele>
        <time>2020-05-10T13:58:27Z</time>
      </trkpt>
      <trkpt lat="48.71771" lon="7.3088">
        <ele>292.3</ele>
        <time>2020-05-10T13:58:29Z</time>
      </trkpt>
      <trkpt lat="48.71769" lon="7.30885">
        <ele>292.8</ele>
        <time>2020-05-10T13:58:30Z</time>
      </trkpt>
      <trkpt lat="48.71766" lon="7.30896">
        <ele>292.2</ele>
        <time>2020-05-10T13:58:32Z</time>
      </trkpt>
      <trkpt lat="48.71761" lon="7.30906">
        <ele>292.1</ele>
        <time>2020-05-10T13:58:34Z</time>
      </trkpt>
      <trkpt lat="48.7176" lon="7.30912">
        <ele>292.4</ele>
        <time>2020-05-10T13:58:35Z</time>
      </trkpt>
      <trkpt lat="48.71756" lon="7.30922">
        <ele>291.6</ele>
        <time>2020-05-10T13:58:37Z</time>
      </trkpt>
      <trkpt lat="48.71752" lon="7.30931">
        <ele>292.6</ele>
        <time>2020-05-10T13:58:39Z</time>
      </trkpt>
      <trkpt lat="48.71751" lon="7.30942">
        <ele>291.9</ele>
        <time>2020-05-10T13:58:41Z</time>
      </trkpt>
      <trkpt lat="48.7175" lon="7.30947">
        <ele>292.4</ele>
        <time>2020-05-10T13:58:42Z</time>
      </trkpt>
      <trkpt lat="48.71749" lon="7.30952">
        <ele>292.1</ele>
        <time>2020-05-10T13:58:43Z</time>
      </trkpt>
      <trkpt lat="48.71747" lon="7.30961">
        <ele>291.5</ele>
        <time>2020-05-10T13:58:45Z</time>
      </trkpt>
      <trkpt lat="48.71746" lon="7.30966">
        <ele>292.3</ele>
        <time>2020-05-10T13:58:46Z</time>
      </trkpt>
      <trkpt lat="48.71745" lon="7.30976">
        <ele>291.7</ele>
        <time>2020-05-10T13:58:48Z</time>
      </trkpt>
      <trkpt lat="48.71744" lon="7.3098">
        <ele>292.4</ele>
        <time>2020-05-10T13:58:49Z</time>
      </trkpt>
      <trkpt lat="48.71741" lon="7.30991">
        <ele>292.6</ele>
        <time>2020-05-10T13:58:51Z</time>
      </trkpt>
      <trkpt lat="48.71739" lon="7.30998">
        <ele>292.4</ele>
        <time>2020-05-10T13:58:52Z</time>
      </trkpt>
      <trkpt lat="48.71738" lon="7.31003">
        <ele>292.9</ele>
        <time>2020-05-10T13:58:53Z</time>
      </trkpt>
      <trkpt lat="48.71737" lon="7.31008">
        <ele>292.7</ele>
        <time>2020-05-10T13:58:54Z</time>
      </trkpt>
      <trkpt lat="48.71735" lon="7.31019">
        <ele>293</ele>
        <time>2020-05-10T13:58:56Z</time>
      </trkpt>
      <trkpt lat="48.71733" lon="7.31031">
        <ele>292.1</ele>
        <time>2020-05-10T13:58:58Z</time>
      </trkpt>
      <trkpt lat="48.71733" lon="7.31036">
        <ele>292.5</ele>
        <time>2020-05-10T13:58:59Z</time>
      </trkpt>
      <trkpt lat="48.71731" lon="7.31045">
        <ele>291.9</ele>
        <time>2020-05-10T13:59:01Z</time>
      </trkpt>
      <trkpt lat="48.71731" lon="7.31049">
        <ele>291.6</ele>
        <time>2020-05-10T13:59:02Z</time>
      </trkpt>
      <trkpt lat="48.7173" lon="7.31054">
        <ele>291.3</ele>
        <time>2020-05-10T13:59:03Z</time>
      </trkpt>
      <trkpt lat="48.71729" lon="7.31064">
        <ele>290.9</ele>
        <time>2020-05-10T13:59:05Z</time>
      </trkpt>
      <trkpt lat="48.71728" lon="7.31069">
        <ele>290.5</ele>
        <time>2020-05-10T13:59:06Z</time>
      </trkpt>
      <trkpt lat="48.71725" lon="7.31077">
        <ele>290.3</ele>
        <time>2020-05-10T13:59:08Z</time>
      </trkpt>
      <trkpt lat="48.71722" lon="7.31087">
        <ele>290</ele>
        <time>2020-05-10T13:59:10Z</time>
      </trkpt>
      <trkpt lat="48.71721" lon="7.31092">
        <ele>290.1</ele>
        <time>2020-05-10T13:59:11Z</time>
      </trkpt>
      <trkpt lat="48.71719" lon="7.31097">
        <ele>289.7</ele>
        <time>2020-05-10T13:59:12Z</time>
      </trkpt>
      <trkpt lat="48.71715" lon="7.31106">
        <ele>289.7</ele>
        <time>2020-05-10T13:59:14Z</time>
      </trkpt>
      <trkpt lat="48.71711" lon="7.31109">
        <ele>289.6</ele>
        <time>2020-05-10T13:59:15Z</time>
      </trkpt>
      <trkpt lat="48.71708" lon="7.31112">
        <ele>289.5</ele>
        <time>2020-05-10T13:59:16Z</time>
      </trkpt>
      <trkpt lat="48.71702" lon="7.31115">
        <ele>289.7</ele>
        <time>2020-05-10T13:59:18Z</time>
      </trkpt>
      <trkpt lat="48.71694" lon="7.31115">
        <ele>290.4</ele>
        <time>2020-05-10T13:59:20Z</time>
      </trkpt>
      <trkpt lat="48.7169" lon="7.31113">
        <ele>291.5</ele>
        <time>2020-05-10T13:59:22Z</time>
      </trkpt>
      <trkpt lat="48.71684" lon="7.31108">
        <ele>292.5</ele>
        <time>2020-05-10T13:59:23Z</time>
      </trkpt>
      <trkpt lat="48.7168" lon="7.31102">
        <ele>293.4</ele>
        <time>2020-05-10T13:59:25Z</time>
      </trkpt>
      <trkpt lat="48.71677" lon="7.31099">
        <ele>294.2</ele>
        <time>2020-05-10T13:59:26Z</time>
      </trkpt>
      <trkpt lat="48.71672" lon="7.31091">
        <ele>296.1</ele>
        <time>2020-05-10T13:59:28Z</time>
      </trkpt>
      <trkpt lat="48.71669" lon="7.31089">
        <ele>297.1</ele>
        <time>2020-05-10T13:59:29Z</time>
      </trkpt>
      <trkpt lat="48.71663" lon="7.31082">
        <ele>298.4</ele>
        <time>2020-05-10T13:59:31Z</time>
      </trkpt>
      <trkpt lat="48.71658" lon="7.31076">
        <ele>299.6</ele>
        <time>2020-05-10T13:59:33Z</time>
      </trkpt>
      <trkpt lat="48.71654" lon="7.31075">
        <ele>299.7</ele>
        <time>2020-05-10T13:59:34Z</time>
      </trkpt>
      <trkpt lat="48.71647" lon="7.31072">
        <ele>300</ele>
        <time>2020-05-10T13:59:36Z</time>
      </trkpt>
      <trkpt lat="48.71639" lon="7.31068">
        <ele>300.3</ele>
        <time>2020-05-10T13:59:38Z</time>
      </trkpt>
      <trkpt lat="48.71637" lon="7.31066">
        <ele>300.4</ele>
        <time>2020-05-10T13:59:39Z</time>
      </trkpt>
      <trkpt lat="48.71635" lon="7.31062">
        <ele>300.6</ele>
        <time>2020-05-10T13:59:40Z</time>
      </trkpt>
      <trkpt lat="48.71632" lon="7.31058">
        <ele>300.8</ele>
        <time>2020-05-10T13:59:41Z</time>
      </trkpt>
      <trkpt lat="48.71631" lon="7.31056">
        <ele>300.9</ele>
        <time>2020-05-10T13:59:42Z</time>
      </trkpt>
      <trkpt lat="48.71626" lon="7.31051">
        <ele>301.2</ele>
        <time>2020-05-10T13:59:44Z</time>
      </trkpt>
      <trkpt lat="48.71623" lon="7.31047">
        <ele>301.4</ele>
        <time>2020-05-10T13:59:45Z</time>
      </trkpt>
      <trkpt lat="48.71618" lon="7.31041">
        <ele>301.7</ele>
        <time>2020-05-10T13:59:47Z</time>
      </trkpt>
      <trkpt lat="48.71614" lon="7.31037">
        <ele>302</ele>
        <time>2020-05-10T13:59:49Z</time>
      </trkpt>
      <trkpt lat="48.71608" lon="7.31031">
        <ele>302.3</ele>
        <time>2020-05-10T13:59:51Z</time>
      </trkpt>
      <trkpt lat="48.71606" lon="7.31027">
        <ele>302.4</ele>
        <time>2020-05-10T13:59:52Z</time>
      </trkpt>
      <trkpt lat="48.71604" lon="7.31023">
        <ele>302.6</ele>
        <time>2020-05-10T13:59:53Z</time>
      </trkpt>
      <trkpt lat="48.716" lon="7.31015">
        <ele>303</ele>
        <time>2020-05-10T13:59:55Z</time>
      </trkpt>
      <trkpt lat="48.71595" lon="7.31009">
        <ele>303.3</ele>
        <time>2020-05-10T13:59:57Z</time>
      </trkpt>
      <trkpt lat="48.71591" lon="7.31006">
        <ele>303.5</ele>
        <time>2020-05-10T13:59:59Z</time>
      </trkpt>
      <trkpt lat="48.71587" lon="7.31001">
        <ele>303.8</ele>
        <time>2020-05-10T14:00:01Z</time>
      </trkpt>
      <trkpt lat="48.71584" lon="7.30999">
        <ele>304</ele>
        <time>2020-05-10T14:00:02Z</time>
      </trkpt>
      <trkpt lat="48.71578" lon="7.30996">
        <ele>304.3</ele>
        <time>2020-05-10T14:00:04Z</time>
      </trkpt>
      <trkpt lat="48.71572" lon="7.30992">
        <ele>304.6</ele>
        <time>2020-05-10T14:00:06Z</time>
      </trkpt>
      <trkpt lat="48.71568" lon="7.30989">
        <ele>304.8</ele>
        <time>2020-05-10T14:00:07Z</time>
      </trkpt>
      <trkpt lat="48.71565" lon="7.30986">
        <ele>305</ele>
        <time>2020-05-10T14:00:08Z</time>
      </trkpt>
      <trkpt lat="48.71559" lon="7.30982">
        <ele>305.3</ele>
        <time>2020-05-10T14:00:10Z</time>
      </trkpt>
      <trkpt lat="48.71556" lon="7.30979">
        <ele>305.4</ele>
        <time>2020-05-10T14:00:11Z</time>
      </trkpt>
      <trkpt lat="48.71553" lon="7.30976">
        <ele>305.6</ele>
        <time>2020-05-10T14:00:12Z</time>
      </trkpt>
      <trkpt lat="48.71546" lon="7.3097">
        <ele>305.9</ele>
        <time>2020-05-10T14:00:14Z</time>
      </trkpt>
      <trkpt lat="48.7154" lon="7.30966">
        <ele>306.2</ele>
        <time>2020-05-10T14:00:16Z</time>
      </trkpt>
      <trkpt lat="48.71534" lon="7.30963">
        <ele>306.5</ele>
        <time>2020-05-10T14:00:18Z</time>
      </trkpt>
      <trkpt lat="48.71532" lon="7.30961">
        <ele>306.6</ele>
        <time>2020-05-10T14:00:19Z</time>
      </trkpt>
      <trkpt lat="48.71525" lon="7.30955">
        <ele>306.9</ele>
        <time>2020-05-10T14:00:21Z</time>
      </trkpt>
      <trkpt lat="48.71522" lon="7.30952">
        <ele>307</ele>
        <time>2020-05-10T14:00:22Z</time>
      </trkpt>
      <trkpt lat="48.7152" lon="7.30948">
        <ele>307.2</ele>
        <time>2020-05-10T14:00:23Z</time>
      </trkpt>
      <trkpt lat="48.71518" lon="7.30947">
        <ele>307.2</ele>
        <time>2020-05-10T14:00:24Z</time>
      </trkpt>
      <trkpt lat="48.71513" lon="7.30939">
        <ele>307.5</ele>
        <time>2020-05-10T14:00:26Z</time>
      </trkpt>
      <trkpt lat="48.71507" lon="7.30933">
        <ele>307.8</ele>
        <time>2020-05-10T14:00:28Z</time>
      </trkpt>
      <trkpt lat="48.71503" lon="7.3093">
        <ele>307.9</ele>
        <time>2020-05-10T14:00:29Z</time>
      </trkpt>
      <trkpt lat="48.71498" lon="7.30925">
        <ele>308.2</ele>
        <time>2020-05-10T14:00:31Z</time>
      </trkpt>
      <trkpt lat="48.71496" lon="7.30922">
        <ele>308.3</ele>
        <time>2020-05-10T14:00:32Z</time>
      </trkpt>
      <trkpt lat="48.71491" lon="7.30917">
        <ele>308.7</ele>
        <time>2020-05-10T14:00:34Z</time>
      </trkpt>
      <trkpt lat="48.71488" lon="7.30914">
        <ele>308.9</ele>
        <time>2020-05-10T14:00:35Z</time>
      </trkpt>
      <trkpt lat="48.71487" lon="7.30912">
        <ele>309</ele>
        <time>2020-05-10T14:00:36Z</time>
      </trkpt>
      <trkpt lat="48.71482" lon="7.30906">
        <ele>309.3</ele>
        <time>2020-05-10T14:00:38Z</time>
      </trkpt>
      <trkpt lat="48.71479" lon="7.30904">
        <ele>309.5</ele>
        <time>2020-05-10T14:00:39Z</time>
      </trkpt>
      <trkpt lat="48.71475" lon="7.30899">
        <ele>309.7</ele>
        <time>2020-05-10T14:00:41Z</time>
      </trkpt>
      <trkpt lat="48.71473" lon="7.30895">
        <ele>309.9</ele>
        <time>2020-05-10T14:00:42Z</time>
      </trkpt>
      <trkpt lat="48.71468" lon="7.3089">
        <ele>310.1</ele>
        <time>2020-05-10T14:00:44Z</time>
      </trkpt>
      <trkpt lat="48.71464" lon="7.30887">
        <ele>310.3</ele>
        <time>2020-05-10T14:00:45Z</time>
      </trkpt>
      <trkpt lat="48.71461" lon="7.30885">
        <ele>310.4</ele>
        <time>2020-05-10T14:00:46Z</time>
      </trkpt>
      <trkpt lat="48.71455" lon="7.30878">
        <ele>310.8</ele>
        <time>2020-05-10T14:00:48Z</time>
      </trkpt>
      <trkpt lat="48.71449" lon="7.30873">
        <ele>311.1</ele>
        <time>2020-05-10T14:00:50Z</time>
      </trkpt>
      <trkpt lat="48.71446" lon="7.30869">
        <ele>311.3</ele>
        <time>2020-05-10T14:00:51Z</time>
      </trkpt>
      <trkpt lat="48.71443" lon="7.30866">
        <ele>311.4</ele>
        <time>2020-05-10T14:00:52Z</time>
      </trkpt>
      <trkpt lat="48.71438" lon="7.30861">
        <ele>311.7</ele>
        <time>2020-05-10T14:00:54Z</time>
      </trkpt>
      <trkpt lat="48.71432" lon="7.30854">
        <ele>312.1</ele>
        <time>2020-05-10T14:00:56Z</time>
      </trkpt>
      <trkpt lat="48.71429" lon="7.30851">
        <ele>312.2</ele>
        <time>2020-05-10T14:00:57Z</time>
      </trkpt>
      <trkpt lat="48.71423" lon="7.30843">
        <ele>312.5</ele>
        <time>2020-05-10T14:00:59Z</time>
      </trkpt>
      <trkpt lat="48.71419" lon="7.30836">
        <ele>312.7</ele>
        <time>2020-05-10T14:01:01Z</time>
      </trkpt>
      <trkpt lat="48.71415" lon="7.3083">
        <ele>312.9</ele>
        <time>2020-05-10T14:01:03Z</time>
      </trkpt>
      <trkpt lat="48.7141" lon="7.30824">
        <ele>313.2</ele>
        <time>2020-05-10T14:01:04Z</time>
      </trkpt>
      <trkpt lat="48.71405" lon="7.30817">
        <ele>313.5</ele>
        <time>2020-05-10T14:01:06Z</time>
      </trkpt>
      <trkpt lat="48.71403" lon="7.30814">
        <ele>313.7</ele>
        <time>2020-05-10T14:01:07Z</time>
      </trkpt>
      <trkpt lat="48.71396" lon="7.30808">
        <ele>314.1</ele>
        <time>2020-05-10T14:01:09Z</time>
      </trkpt>
      <trkpt lat="48.71391" lon="7.30802">
        <ele>314.3</ele>
        <time>2020-05-10T14:01:11Z</time>
      </trkpt>
      <trkpt lat="48.71385" lon="7.30795">
        <ele>314.7</ele>
        <time>2020-05-10T14:01:13Z</time>
      </trkpt>
      <trkpt lat="48.71382" lon="7.30791">
        <ele>314.8</ele>
        <time>2020-05-10T14:01:14Z</time>
      </trkpt>
      <trkpt lat="48.7138" lon="7.30787">
        <ele>315</ele>
        <time>2020-05-10T14:01:15Z</time>
      </trkpt>
      <trkpt lat="48.71379" lon="7.30784">
        <ele>315.1</ele>
        <time>2020-05-10T14:01:16Z</time>
      </trkpt>
      <trkpt lat="48.71372" lon="7.30778">
        <ele>315.3</ele>
        <time>2020-05-10T14:01:18Z</time>
      </trkpt>
      <trkpt lat="48.71369" lon="7.30775">
        <ele>315.5</ele>
        <time>2020-05-10T14:01:19Z</time>
      </trkpt>
      <trkpt lat="48.71363" lon="7.30768">
        <ele>315.8</ele>
        <time>2020-05-10T14:01:21Z</time>
      </trkpt>
      <trkpt lat="48.71357" lon="7.3076">
        <ele>316.1</ele>
        <time>2020-05-10T14:01:23Z</time>
      </trkpt>
      <trkpt lat="48.71352" lon="7.30753">
        <ele>316.5</ele>
        <time>2020-05-10T14:01:25Z</time>
      </trkpt>
      <trkpt lat="48.71349" lon="7.30751">
        <ele>316.7</ele>
        <time>2020-05-10T14:01:26Z</time>
      </trkpt>
      <trkpt lat="48.71342" lon="7.30744">
        <ele>317.1</ele>
        <time>2020-05-10T14:01:28Z</time>
      </trkpt>
      <trkpt lat="48.71337" lon="7.30739">
        <ele>317.4</ele>
        <time>2020-05-10T14:01:30Z</time>
      </trkpt>
      <trkpt lat="48.71331" lon="7.30731">
        <ele>317.8</ele>
        <time>2020-05-10T14:01:32Z</time>
      </trkpt>
      <trkpt lat="48.71325" lon="7.30723">
        <ele>318.3</ele>
        <time>2020-05-10T14:01:34Z</time>
      </trkpt>
      <trkpt lat="48.71322" lon="7.30719">
        <ele>318.5</ele>
        <time>2020-05-10T14:01:35Z</time>
      </trkpt>
      <trkpt lat="48.71319" lon="7.30715">
        <ele>318.7</ele>
        <time>2020-05-10T14:01:36Z</time>
      </trkpt>
      <trkpt lat="48.71316" lon="7.30712">
        <ele>318.9</ele>
        <time>2020-05-10T14:01:37Z</time>
      </trkpt>
      <trkpt lat="48.7131" lon="7.30705">
        <ele>319.3</ele>
        <time>2020-05-10T14:01:39Z</time>
      </trkpt>
      <trkpt lat="48.71308" lon="7.30701">
        <ele>319.5</ele>
        <time>2020-05-10T14:01:40Z</time>
      </trkpt>
      <trkpt lat="48.71304" lon="7.30697">
        <ele>319.7</ele>
        <time>2020-05-10T14:01:41Z</time>
      </trkpt>
      <trkpt lat="48.71298" lon="7.30691">
        <ele>320</ele>
        <time>2020-05-10T14:01:43Z</time>
      </trkpt>
      <trkpt lat="48.71295" lon="7.30689">
        <ele>320.2</ele>
        <time>2020-05-10T14:01:44Z</time>
      </trkpt>
      <trkpt lat="48.71289" lon="7.30684">
        <ele>320.5</ele>
        <time>2020-05-10T14:01:46Z</time>
      </trkpt>
      <trkpt lat="48.71283" lon="7.30679">
        <ele>320.9</ele>
        <time>2020-05-10T14:01:48Z</time>
      </trkpt>
      <trkpt lat="48.71276" lon="7.30675">
        <ele>321.4</ele>
        <time>2020-05-10T14:01:50Z</time>
      </trkpt>
      <trkpt lat="48.71273" lon="7.30673">
        <ele>321.6</ele>
        <time>2020-05-10T14:01:51Z</time>
      </trkpt>
      <trkpt lat="48.7127" lon="7.3067">
        <ele>321.8</ele>
        <time>2020-05-10T14:01:52Z</time>
      </trkpt>
      <trkpt lat="48.71263" lon="7.30666">
        <ele>322.3</ele>
        <time>2020-05-10T14:01:54Z</time>
      </trkpt>
      <trkpt lat="48.7126" lon="7.30663">
        <ele>322.5</ele>
        <time>2020-05-10T14:01:55Z</time>
      </trkpt>
      <trkpt lat="48.71254" lon="7.30655">
        <ele>322.8</ele>
        <time>2020-05-10T14:01:57Z</time>
      </trkpt>
      <trkpt lat="48.7125" lon="7.30649">
        <ele>323</ele>
        <time>2020-05-10T14:01:59Z</time>
      </trkpt>
      <trkpt lat="48.71248" lon="7.30645">
        <ele>323.1</ele>
        <time>2020-05-10T14:02:00Z</time>
      </trkpt>
      <trkpt lat="48.71245" lon="7.30637">
        <ele>323.4</ele>
        <time>2020-05-10T14:02:02Z</time>
      </trkpt>
      <trkpt lat="48.71243" lon="7.30633">
        <ele>323.5</ele>
        <time>2020-05-10T14:02:03Z</time>
      </trkpt>
      <trkpt lat="48.7124" lon="7.30623">
        <ele>323.9</ele>
        <time>2020-05-10T14:02:05Z</time>
      </trkpt>
      <trkpt lat="48.71237" lon="7.30616">
        <ele>324.1</ele>
        <time>2020-05-10T14:02:07Z</time>
      </trkpt>
      <trkpt lat="48.71233" lon="7.30607">
        <ele>324.4</ele>
        <time>2020-05-10T14:02:09Z</time>
      </trkpt>
      <trkpt lat="48.71228" lon="7.30599">
        <ele>324.7</ele>
        <time>2020-05-10T14:02:11Z</time>
      </trkpt>
      <trkpt lat="48.71226" lon="7.30595">
        <ele>324.9</ele>
        <time>2020-05-10T14:02:12Z</time>
      </trkpt>
      <trkpt lat="48.71223" lon="7.3059">
        <ele>325</ele>
        <time>2020-05-10T14:02:13Z</time>
      </trkpt>
      <trkpt lat="48.71219" lon="7.30583">
        <ele>325.3</ele>
        <time>2020-05-10T14:02:15Z</time>
      </trkpt>
      <trkpt lat="48.71215" lon="7.30575">
        <ele>325.5</ele>
        <time>2020-05-10T14:02:17Z</time>
      </trkpt>
      <trkpt lat="48.71214" lon="7.30571">
        <ele>325.7</ele>
        <time>2020-05-10T14:02:18Z</time>
      </trkpt>
      <trkpt lat="48.71212" lon="7.30561">
        <ele>326</ele>
        <time>2020-05-10T14:02:20Z</time>
      </trkpt>
      <trkpt lat="48.71211" lon="7.30558">
        <ele>326.1</ele>
        <time>2020-05-10T14:02:21Z</time>
      </trkpt>
      <trkpt lat="48.71211" lon="7.30557">
        <ele>326.1</ele>
        <time>2020-05-10T14:02:23Z</time>
      </trkpt>
      <trkpt lat="48.7121" lon="7.30558">
        <ele>326.2</ele>
        <time>2020-05-10T14:02:25Z</time>
      </trkpt>
      <trkpt lat="48.71209" lon="7.30559">
        <ele>326.2</ele>
        <time>2020-05-10T14:02:29Z</time>
      </trkpt>
      <trkpt lat="48.71209" lon="7.30559">
        <ele>326.2</ele>
        <time>2020-05-10T14:02:30Z</time>
      </trkpt>
      <trkpt lat="48.71208" lon="7.3056">
        <ele>326.3</ele>
        <time>2020-05-10T14:02:31Z</time>
      </trkpt>
      <trkpt lat="48.71208" lon="7.3056">
        <ele>326.3</ele>
        <time>2020-05-10T14:02:33Z</time>
      </trkpt>
      <trkpt lat="48.71208" lon="7.3056">
        <ele>326.3</ele>
        <time>2020-05-10T14:02:34Z</time>
      </trkpt>
      <trkpt lat="48.71208" lon="7.3056">
        <ele>326.3</ele>
        <time>2020-05-10T14:02:35Z</time>
      </trkpt>
      <trkpt lat="48.71208" lon="7.30559">
        <ele>326.3</ele>
        <time>2020-05-10T14:02:37Z</time>
      </trkpt>
      <trkpt lat="48.71208" lon="7.30559">
        <ele>326.4</ele>
        <time>2020-05-10T14:02:38Z</time>
      </trkpt>
      <trkpt lat="48.71208" lon="7.30558">
        <ele>326.4</ele>
        <time>2020-05-10T14:02:40Z</time>
      </trkpt>
      <trkpt lat="48.71208" lon="7.30558">
        <ele>326.4</ele>
        <time>2020-05-10T14:02:42Z</time>
      </trkpt>
      <trkpt lat="48.71208" lon="7.30558">
        <ele>326.4</ele>
        <time>2020-05-10T14:02:44Z</time>
      </trkpt>
      <trkpt lat="48.71208" lon="7.30554">
        <ele>326.5</ele>
        <time>2020-05-10T14:02:55Z</time>
      </trkpt>
      <trkpt lat="48.71207" lon="7.30543">
        <ele>326.8</ele>
        <time>2020-05-10T14:02:57Z</time>
      </trkpt>
      <trkpt lat="48.71206" lon="7.30537">
        <ele>327</ele>
        <time>2020-05-10T14:02:58Z</time>
      </trkpt>
      <trkpt lat="48.71205" lon="7.3053">
        <ele>327.2</ele>
        <time>2020-05-10T14:03:00Z</time>
      </trkpt>
      <trkpt lat="48.71204" lon="7.30526">
        <ele>327.3</ele>
        <time>2020-05-10T14:03:01Z</time>
      </trkpt>
      <trkpt lat="48.71198" lon="7.30515">
        <ele>327.7</ele>
        <time>2020-05-10T14:03:03Z</time>
      </trkpt>
      <trkpt lat="48.71194" lon="7.30507">
        <ele>328</ele>
        <time>2020-05-10T14:03:05Z</time>
      </trkpt>
      <trkpt lat="48.71191" lon="7.30495">
        <ele>328.4</ele>
        <time>2020-05-10T14:03:07Z</time>
      </trkpt>
      <trkpt lat="48.71187" lon="7.30484">
        <ele>328.8</ele>
        <time>2020-05-10T14:03:09Z</time>
      </trkpt>
      <trkpt lat="48.71185" lon="7.30479">
        <ele>328.9</ele>
        <time>2020-05-10T14:03:10Z</time>
      </trkpt>
      <trkpt lat="48.71185" lon="7.30473">
        <ele>329.1</ele>
        <time>2020-05-10T14:03:11Z</time>
      </trkpt>
      <trkpt lat="48.71183" lon="7.30461">
        <ele>329.4</ele>
        <time>2020-05-10T14:03:13Z</time>
      </trkpt>
      <trkpt lat="48.71182" lon="7.30452">
        <ele>329.6</ele>
        <time>2020-05-10T14:03:15Z</time>
      </trkpt>
      <trkpt lat="48.71181" lon="7.30449">
        <ele>329.7</ele>
        <time>2020-05-10T14:03:16Z</time>
      </trkpt>
      <trkpt lat="48.71179" lon="7.30441">
        <ele>330</ele>
        <time>2020-05-10T14:03:18Z</time>
      </trkpt>
      <trkpt lat="48.71179" lon="7.30436">
        <ele>330.1</ele>
        <time>2020-05-10T14:03:19Z</time>
      </trkpt>
      <trkpt lat="48.71178" lon="7.30428">
        <ele>330.4</ele>
        <time>2020-05-10T14:03:21Z</time>
      </trkpt>
      <trkpt lat="48.71178" lon="7.30422">
        <ele>330.6</ele>
        <time>2020-05-10T14:03:22Z</time>
      </trkpt>
      <trkpt lat="48.71178" lon="7.30412">
        <ele>331</ele>
        <time>2020-05-10T14:03:24Z</time>
      </trkpt>
      <trkpt lat="48.71177" lon="7.30398">
        <ele>331.3</ele>
        <time>2020-05-10T14:03:26Z</time>
      </trkpt>
      <trkpt lat="48.71177" lon="7.30392">
        <ele>331.5</ele>
        <time>2020-05-10T14:03:27Z</time>
      </trkpt>
      <trkpt lat="48.71178" lon="7.3038">
        <ele>331.8</ele>
        <time>2020-05-10T14:03:29Z</time>
      </trkpt>
      <trkpt lat="48.71178" lon="7.30372">
        <ele>332</ele>
        <time>2020-05-10T14:03:31Z</time>
      </trkpt>
      <trkpt lat="48.71178" lon="7.30361">
        <ele>332.2</ele>
        <time>2020-05-10T14:03:32Z</time>
      </trkpt>
      <trkpt lat="48.71178" lon="7.30356">
        <ele>332.3</ele>
        <time>2020-05-10T14:03:33Z</time>
      </trkpt>
      <trkpt lat="48.71175" lon="7.30349">
        <ele>332.6</ele>
        <time>2020-05-10T14:03:35Z</time>
      </trkpt>
      <trkpt lat="48.71174" lon="7.30344">
        <ele>332.7</ele>
        <time>2020-05-10T14:03:36Z</time>
      </trkpt>
      <trkpt lat="48.71175" lon="7.30338">
        <ele>332.9</ele>
        <time>2020-05-10T14:03:37Z</time>
      </trkpt>
      <trkpt lat="48.71174" lon="7.30326">
        <ele>333.3</ele>
        <time>2020-05-10T14:03:39Z</time>
      </trkpt>
      <trkpt lat="48.71175" lon="7.30314">
        <ele>333.6</ele>
        <time>2020-05-10T14:03:41Z</time>
      </trkpt>
      <trkpt lat="48.71175" lon="7.30306">
        <ele>333.8</ele>
        <time>2020-05-10T14:03:43Z</time>
      </trkpt>
      <trkpt lat="48.71175" lon="7.30297">
        <ele>334</ele>
        <time>2020-05-10T14:03:45Z</time>
      </trkpt>
      <trkpt lat="48.71176" lon="7.30289">
        <ele>334.1</ele>
        <time>2020-05-10T14:03:47Z</time>
      </trkpt>
      <trkpt lat="48.71177" lon="7.30286">
        <ele>334.2</ele>
        <time>2020-05-10T14:03:48Z</time>
      </trkpt>
      <trkpt lat="48.71179" lon="7.30277">
        <ele>334.2</ele>
        <time>2020-05-10T14:03:50Z</time>
      </trkpt>
      <trkpt lat="48.71179" lon="7.30272">
        <ele>334.3</ele>
        <time>2020-05-10T14:03:51Z</time>
      </trkpt>
      <trkpt lat="48.71178" lon="7.30264">
        <ele>334.3</ele>
        <time>2020-05-10T14:03:53Z</time>
      </trkpt>
      <trkpt lat="48.71177" lon="7.30262">
        <ele>334.3</ele>
        <time>2020-05-10T14:03:54Z</time>
      </trkpt>
      <trkpt lat="48.71175" lon="7.3026">
        <ele>334.3</ele>
        <time>2020-05-10T14:03:56Z</time>
      </trkpt>
      <trkpt lat="48.71174" lon="7.30259">
        <ele>334.4</ele>
        <time>2020-05-10T14:03:58Z</time>
      </trkpt>
      <trkpt lat="48.71173" lon="7.30259">
        <ele>334.4</ele>
        <time>2020-05-10T14:03:59Z</time>
      </trkpt>
      <trkpt lat="48.71173" lon="7.30258">
        <ele>334.4</ele>
        <time>2020-05-10T14:04:01Z</time>
      </trkpt>
      <trkpt lat="48.71173" lon="7.30256">
        <ele>334.4</ele>
        <time>2020-05-10T14:04:03Z</time>
      </trkpt>
      <trkpt lat="48.71174" lon="7.30254">
        <ele>334.4</ele>
        <time>2020-05-10T14:04:04Z</time>
      </trkpt>
      <trkpt lat="48.71177" lon="7.3025">
        <ele>334.4</ele>
        <time>2020-05-10T14:04:06Z</time>
      </trkpt>
      <trkpt lat="48.71177" lon="7.30246">
        <ele>334.5</ele>
        <time>2020-05-10T14:04:08Z</time>
      </trkpt>
      <trkpt lat="48.71177" lon="7.30244">
        <ele>334.5</ele>
        <time>2020-05-10T14:04:09Z</time>
      </trkpt>
      <trkpt lat="48.71176" lon="7.30242">
        <ele>334.5</ele>
        <time>2020-05-10T14:04:11Z</time>
      </trkpt>
      <trkpt lat="48.71175" lon="7.30242">
        <ele>334.5</ele>
        <time>2020-05-10T14:04:13Z</time>
      </trkpt>
      <trkpt lat="48.71175" lon="7.30242">
        <ele>334.5</ele>
        <time>2020-05-10T14:04:15Z</time>
      </trkpt>
      <trkpt lat="48.71175" lon="7.30242">
        <ele>334.5</ele>
        <time>2020-05-10T14:04:16Z</time>
      </trkpt>
      <trkpt lat="48.71175" lon="7.30243">
        <ele>334.5</ele>
        <time>2020-05-10T14:04:17Z</time>
      </trkpt>
      <trkpt lat="48.71175" lon="7.30242">
        <ele>334.5</ele>
        <time>2020-05-10T14:04:19Z</time>
      </trkpt>
      <trkpt lat="48.71175" lon="7.30242">
        <ele>334.5</ele>
        <time>2020-05-10T14:04:20Z</time>
      </trkpt>
      <trkpt lat="48.71175" lon="7.30242">
        <ele>334.5</ele>
        <time>2020-05-10T14:04:21Z</time>
      </trkpt>
      <trkpt lat="48.71176" lon="7.3024">
        <ele>334.5</ele>
        <time>2020-05-10T14:04:23Z</time>
      </trkpt>
      <trkpt lat="48.71177" lon="7.30238">
        <ele>334.5</ele>
        <time>2020-05-10T14:04:24Z</time>
      </trkpt>
      <trkpt lat="48.71178" lon="7.30234">
        <ele>334.6</ele>
        <time>2020-05-10T14:04:26Z</time>
      </trkpt>
      <trkpt lat="48.71179" lon="7.30233">
        <ele>334.6</ele>
        <time>2020-05-10T14:04:27Z</time>
      </trkpt>
      <trkpt lat="48.7118" lon="7.30229">
        <ele>334.6</ele>
        <time>2020-05-10T14:04:29Z</time>
      </trkpt>
      <trkpt lat="48.7118" lon="7.30227">
        <ele>334.6</ele>
        <time>2020-05-10T14:04:30Z</time>
      </trkpt>
      <trkpt lat="48.7118" lon="7.30223">
        <ele>334.6</ele>
        <time>2020-05-10T14:04:32Z</time>
      </trkpt>
      <trkpt lat="48.71179" lon="7.30221">
        <ele>334.6</ele>
        <time>2020-05-10T14:04:33Z</time>
      </trkpt>
      <trkpt lat="48.71178" lon="7.30219">
        <ele>334.6</ele>
        <time>2020-05-10T14:04:34Z</time>
      </trkpt>
      <trkpt lat="48.71178" lon="7.30216">
        <ele>334.6</ele>
        <time>2020-05-10T14:04:35Z</time>
      </trkpt>
      <trkpt lat="48.71178" lon="7.30213">
        <ele>334.6</ele>
        <time>2020-05-10T14:04:37Z</time>
      </trkpt>
      <trkpt lat="48.71179" lon="7.30211">
        <ele>334.6</ele>
        <time>2020-05-10T14:04:38Z</time>
      </trkpt>
      <trkpt lat="48.7118" lon="7.30205">
        <ele>334.6</ele>
        <time>2020-05-10T14:04:40Z</time>
      </trkpt>
      <trkpt lat="48.7118" lon="7.30202">
        <ele>334.6</ele>
        <time>2020-05-10T14:04:41Z</time>
      </trkpt>
      <trkpt lat="48.7118" lon="7.30198">
        <ele>334.6</ele>
        <time>2020-05-10T14:04:43Z</time>
      </trkpt>
      <trkpt lat="48.71181" lon="7.30196">
        <ele>334.6</ele>
        <time>2020-05-10T14:04:44Z</time>
      </trkpt>
      <trkpt lat="48.71181" lon="7.30194">
        <ele>334.6</ele>
        <time>2020-05-10T14:04:46Z</time>
      </trkpt>
      <trkpt lat="48.71181" lon="7.30192">
        <ele>334.6</ele>
        <time>2020-05-10T14:04:47Z</time>
      </trkpt>
      <trkpt lat="48.71182" lon="7.30188">
        <ele>334.6</ele>
        <time>2020-05-10T14:04:49Z</time>
      </trkpt>
      <trkpt lat="48.71182" lon="7.30183">
        <ele>334.7</ele>
        <time>2020-05-10T14:04:51Z</time>
      </trkpt>
      <trkpt lat="48.71182" lon="7.30181">
        <ele>334.7</ele>
        <time>2020-05-10T14:04:53Z</time>
      </trkpt>
      <trkpt lat="48.71183" lon="7.30177">
        <ele>334.7</ele>
        <time>2020-05-10T14:04:55Z</time>
      </trkpt>
      <trkpt lat="48.71184" lon="7.30175">
        <ele>334.7</ele>
        <time>2020-05-10T14:04:57Z</time>
      </trkpt>
      <trkpt lat="48.71184" lon="7.30173">
        <ele>334.7</ele>
        <time>2020-05-10T14:04:58Z</time>
      </trkpt>
      <trkpt lat="48.71185" lon="7.30169">
        <ele>334.7</ele>
        <time>2020-05-10T14:05:00Z</time>
      </trkpt>
      <trkpt lat="48.71186" lon="7.30168">
        <ele>334.7</ele>
        <time>2020-05-10T14:05:01Z</time>
      </trkpt>
      <trkpt lat="48.71187" lon="7.30163">
        <ele>334.7</ele>
        <time>2020-05-10T14:05:03Z</time>
      </trkpt>
      <trkpt lat="48.71188" lon="7.30159">
        <ele>334.7</ele>
        <time>2020-05-10T14:05:05Z</time>
      </trkpt>
      <trkpt lat="48.71189" lon="7.30154">
        <ele>334.8</ele>
        <time>2020-05-10T14:05:07Z</time>
      </trkpt>
      <trkpt lat="48.7119" lon="7.30148">
        <ele>334.8</ele>
        <time>2020-05-10T14:05:09Z</time>
      </trkpt>
      <trkpt lat="48.71191" lon="7.30143">
        <ele>334.8</ele>
        <time>2020-05-10T14:05:11Z</time>
      </trkpt>
      <trkpt lat="48.71191" lon="7.30141">
        <ele>334.8</ele>
        <time>2020-05-10T14:05:12Z</time>
      </trkpt>
      <trkpt lat="48.71191" lon="7.30138">
        <ele>334.9</ele>
        <time>2020-05-10T14:05:13Z</time>
      </trkpt>
      <trkpt lat="48.71193" lon="7.30135">
        <ele>334.9</ele>
        <time>2020-05-10T14:05:15Z</time>
      </trkpt>
      <trkpt lat="48.71193" lon="7.30133">
        <ele>335</ele>
        <time>2020-05-10T14:05:16Z</time>
      </trkpt>
      <trkpt lat="48.71194" lon="7.30129">
        <ele>335</ele>
        <time>2020-05-10T14:05:18Z</time>
      </trkpt>
      <trkpt lat="48.71193" lon="7.30126">
        <ele>335.1</ele>
        <time>2020-05-10T14:05:20Z</time>
      </trkpt>
      <trkpt lat="48.71193" lon="7.30124">
        <ele>335.2</ele>
        <time>2020-05-10T14:05:21Z</time>
      </trkpt>
      <trkpt lat="48.71191" lon="7.30119">
        <ele>335.3</ele>
        <time>2020-05-10T14:05:23Z</time>
      </trkpt>
      <trkpt lat="48.7119" lon="7.30114">
        <ele>335.5</ele>
        <time>2020-05-10T14:05:25Z</time>
      </trkpt>
      <trkpt lat="48.7119" lon="7.30109">
        <ele>335.6</ele>
        <time>2020-05-10T14:05:27Z</time>
      </trkpt>
      <trkpt lat="48.7119" lon="7.30108">
        <ele>335.7</ele>
        <time>2020-05-10T14:05:28Z</time>
      </trkpt>
      <trkpt lat="48.7119" lon="7.30107">
        <ele>335.7</ele>
        <time>2020-05-10T14:05:29Z</time>
      </trkpt>
      <trkpt lat="48.7119" lon="7.30103">
        <ele>335.9</ele>
        <time>2020-05-10T14:05:31Z</time>
      </trkpt>
      <trkpt lat="48.71189" lon="7.30102">
        <ele>335.9</ele>
        <time>2020-05-10T14:05:32Z</time>
      </trkpt>
      <trkpt lat="48.71189" lon="7.301">
        <ele>336</ele>
        <time>2020-05-10T14:05:33Z</time>
      </trkpt>
      <trkpt lat="48.71188" lon="7.30095">
        <ele>336.2</ele>
        <time>2020-05-10T14:05:35Z</time>
      </trkpt>
      <trkpt lat="48.71188" lon="7.30092">
        <ele>336.3</ele>
        <time>2020-05-10T14:05:37Z</time>
      </trkpt>
      <trkpt lat="48.71188" lon="7.30091">
        <ele>336.3</ele>
        <time>2020-05-10T14:05:38Z</time>
      </trkpt>
      <trkpt lat="48.71189" lon="7.3009">
        <ele>336.3</ele>
        <time>2020-05-10T14:05:39Z</time>
      </trkpt>
      <trkpt lat="48.71189" lon="7.30086">
        <ele>336.4</ele>
        <time>2020-05-10T14:05:41Z</time>
      </trkpt>
      <trkpt lat="48.7119" lon="7.30083">
        <ele>336.5</ele>
        <time>2020-05-10T14:05:42Z</time>
      </trkpt>
      <trkpt lat="48.7119" lon="7.3008">
        <ele>336.6</ele>
        <time>2020-05-10T14:05:44Z</time>
      </trkpt>
      <trkpt lat="48.71191" lon="7.30077">
        <ele>336.6</ele>
        <time>2020-05-10T14:05:46Z</time>
      </trkpt>
      <trkpt lat="48.71191" lon="7.30075">
        <ele>336.7</ele>
        <time>2020-05-10T14:05:47Z</time>
      </trkpt>
      <trkpt lat="48.71191" lon="7.30071">
        <ele>336.7</ele>
        <time>2020-05-10T14:05:49Z</time>
      </trkpt>
      <trkpt lat="48.71191" lon="7.3007">
        <ele>336.7</ele>
        <time>2020-05-10T14:05:50Z</time>
      </trkpt>
      <trkpt lat="48.71192" lon="7.30069">
        <ele>336.7</ele>
        <time>2020-05-10T14:05:51Z</time>
      </trkpt>
      <trkpt lat="48.71192" lon="7.30067">
        <ele>336.7</ele>
        <time>2020-05-10T14:05:52Z</time>
      </trkpt>
      <trkpt lat="48.71192" lon="7.30063">
        <ele>336.8</ele>
        <time>2020-05-10T14:05:54Z</time>
      </trkpt>
      <trkpt lat="48.71192" lon="7.3006">
        <ele>336.8</ele>
        <time>2020-05-10T14:05:56Z</time>
      </trkpt>
      <trkpt lat="48.71193" lon="7.30057">
        <ele>336.8</ele>
        <time>2020-05-10T14:05:58Z</time>
      </trkpt>
      <trkpt lat="48.71193" lon="7.30055">
        <ele>336.8</ele>
        <time>2020-05-10T14:05:59Z</time>
      </trkpt>
      <trkpt lat="48.71194" lon="7.30051">
        <ele>336.8</ele>
        <time>2020-05-10T14:06:01Z</time>
      </trkpt>
      <trkpt lat="48.71193" lon="7.30049">
        <ele>336.8</ele>
        <time>2020-05-10T14:06:02Z</time>
      </trkpt>
      <trkpt lat="48.71193" lon="7.30047">
        <ele>336.8</ele>
        <time>2020-05-10T14:06:03Z</time>
      </trkpt>
      <trkpt lat="48.71192" lon="7.30045">
        <ele>336.9</ele>
        <time>2020-05-10T14:06:04Z</time>
      </trkpt>
      <trkpt lat="48.71193" lon="7.3004">
        <ele>336.9</ele>
        <time>2020-05-10T14:06:06Z</time>
      </trkpt>
      <trkpt lat="48.71193" lon="7.30039">
        <ele>336.9</ele>
        <time>2020-05-10T14:06:07Z</time>
      </trkpt>
      <trkpt lat="48.71193" lon="7.30036">
        <ele>336.9</ele>
        <time>2020-05-10T14:06:09Z</time>
      </trkpt>
      <trkpt lat="48.71194" lon="7.30032">
        <ele>336.9</ele>
        <time>2020-05-10T14:06:11Z</time>
      </trkpt>
      <trkpt lat="48.71196" lon="7.30031">
        <ele>337</ele>
        <time>2020-05-10T14:06:13Z</time>
      </trkpt>
      <trkpt lat="48.71197" lon="7.3003">
        <ele>337</ele>
        <time>2020-05-10T14:06:14Z</time>
      </trkpt>
      <trkpt lat="48.71198" lon="7.30029">
        <ele>337</ele>
        <time>2020-05-10T14:06:15Z</time>
      </trkpt>
      <trkpt lat="48.71198" lon="7.30026">
        <ele>337.1</ele>
        <time>2020-05-10T14:06:17Z</time>
      </trkpt>
      <trkpt lat="48.71198" lon="7.30023">
        <ele>337.1</ele>
        <time>2020-05-10T14:06:18Z</time>
      </trkpt>
      <trkpt lat="48.71197" lon="7.3002">
        <ele>337.2</ele>
        <time>2020-05-10T14:06:20Z</time>
      </trkpt>
      <trkpt lat="48.71197" lon="7.30018">
        <ele>337.3</ele>
        <time>2020-05-10T14:06:21Z</time>
      </trkpt>
      <trkpt lat="48.71197" lon="7.30015">
        <ele>337.4</ele>
        <time>2020-05-10T14:06:23Z</time>
      </trkpt>
      <trkpt lat="48.71197" lon="7.30013">
        <ele>337.4</ele>
        <time>2020-05-10T14:06:24Z</time>
      </trkpt>
      <trkpt lat="48.71197" lon="7.30009">
        <ele>337.5</ele>
        <time>2020-05-10T14:06:26Z</time>
      </trkpt>
      <trkpt lat="48.71198" lon="7.30008">
        <ele>337.6</ele>
        <time>2020-05-10T14:06:27Z</time>
      </trkpt>
      <trkpt lat="48.71198" lon="7.30007">
        <ele>337.6</ele>
        <time>2020-05-10T14:06:28Z</time>
      </trkpt>
      <trkpt lat="48.71198" lon="7.30004">
        <ele>337.7</ele>
        <time>2020-05-10T14:06:30Z</time>
      </trkpt>
      <trkpt lat="48.71198" lon="7.30002">
        <ele>337.8</ele>
        <time>2020-05-10T14:06:32Z</time>
      </trkpt>
      <trkpt lat="48.71198" lon="7.29998">
        <ele>337.9</ele>
        <time>2020-05-10T14:06:34Z</time>
      </trkpt>
      <trkpt lat="48.71197" lon="7.29995">
        <ele>338</ele>
        <time>2020-05-10T14:06:36Z</time>
      </trkpt>
      <trkpt lat="48.71197" lon="7.29993">
        <ele>338.1</ele>
        <time>2020-05-10T14:06:38Z</time>
      </trkpt>
      <trkpt lat="48.71196" lon="7.2999">
        <ele>338.1</ele>
        <time>2020-05-10T14:06:40Z</time>
      </trkpt>
      <trkpt lat="48.71196" lon="7.29987">
        <ele>338.2</ele>
        <time>2020-05-10T14:06:42Z</time>
      </trkpt>
      <trkpt lat="48.71196" lon="7.2998">
        <ele>338.3</ele>
        <time>2020-05-10T14:06:44Z</time>
      </trkpt>
      <trkpt lat="48.71196" lon="7.29978">
        <ele>338.3</ele>
        <time>2020-05-10T14:06:46Z</time>
      </trkpt>
      <trkpt lat="48.71196" lon="7.29975">
        <ele>338.7</ele>
        <time>2020-05-10T14:06:47Z</time>
      </trkpt>
      <trkpt lat="48.71196" lon="7.29971">
        <ele>339</ele>
        <time>2020-05-10T14:06:49Z</time>
      </trkpt>
      <trkpt lat="48.71197" lon="7.29967">
        <ele>339.3</ele>
        <time>2020-05-10T14:06:51Z</time>
      </trkpt>
      <trkpt lat="48.71197" lon="7.29966">
        <ele>339.3</ele>
        <time>2020-05-10T14:06:52Z</time>
      </trkpt>
      <trkpt lat="48.71197" lon="7.29965">
        <ele>339.3</ele>
        <time>2020-05-10T14:06:53Z</time>
      </trkpt>
      <trkpt lat="48.71197" lon="7.29962">
        <ele>339.6</ele>
        <time>2020-05-10T14:06:55Z</time>
      </trkpt>
      <trkpt lat="48.71198" lon="7.2996">
        <ele>341.4</ele>
        <time>2020-05-10T14:06:57Z</time>
      </trkpt>
      <trkpt lat="48.71199" lon="7.29958">
        <ele>341.4</ele>
        <time>2020-05-10T14:06:58Z</time>
      </trkpt>
      <trkpt lat="48.71199" lon="7.29958">
        <ele>341.4</ele>
        <time>2020-05-10T14:06:59Z</time>
      </trkpt>
      <trkpt lat="48.71199" lon="7.29957">
        <ele>341.4</ele>
        <time>2020-05-10T14:07:00Z</time>
      </trkpt>
      <trkpt lat="48.71199" lon="7.29956">
        <ele>341.5</ele>
        <time>2020-05-10T14:07:01Z</time>
      </trkpt>
      <trkpt lat="48.712" lon="7.29952">
        <ele>341.6</ele>
        <time>2020-05-10T14:07:03Z</time>
      </trkpt>
      <trkpt lat="48.71201" lon="7.29948">
        <ele>343.3</ele>
        <time>2020-05-10T14:07:05Z</time>
      </trkpt>
      <trkpt lat="48.71201" lon="7.29947">
        <ele>343.4</ele>
        <time>2020-05-10T14:07:06Z</time>
      </trkpt>
      <trkpt lat="48.71204" lon="7.29943">
        <ele>345</ele>
        <time>2020-05-10T14:07:08Z</time>
      </trkpt>
      <trkpt lat="48.71205" lon="7.29941">
        <ele>345</ele>
        <time>2020-05-10T14:07:10Z</time>
      </trkpt>
      <trkpt lat="48.71205" lon="7.2994">
        <ele>345</ele>
        <time>2020-05-10T14:07:11Z</time>
      </trkpt>
      <trkpt lat="48.71206" lon="7.29937">
        <ele>345.1</ele>
        <time>2020-05-10T14:07:13Z</time>
      </trkpt>
      <trkpt lat="48.71206" lon="7.29933">
        <ele>345.3</ele>
        <time>2020-05-10T14:07:15Z</time>
      </trkpt>
      <trkpt lat="48.71205" lon="7.29932">
        <ele>345.3</ele>
        <time>2020-05-10T14:07:16Z</time>
      </trkpt>
      <trkpt lat="48.71205" lon="7.29926">
        <ele>345.4</ele>
        <time>2020-05-10T14:07:18Z</time>
      </trkpt>
      <trkpt lat="48.71207" lon="7.29922">
        <ele>347</ele>
        <time>2020-05-10T14:07:20Z</time>
      </trkpt>
      <trkpt lat="48.71207" lon="7.2992">
        <ele>347.1</ele>
        <time>2020-05-10T14:07:21Z</time>
      </trkpt>
      <trkpt lat="48.71208" lon="7.29916">
        <ele>347.3</ele>
        <time>2020-05-10T14:07:23Z</time>
      </trkpt>
      <trkpt lat="48.71208" lon="7.29915">
        <ele>347.3</ele>
        <time>2020-05-10T14:07:24Z</time>
      </trkpt>
      <trkpt lat="48.71209" lon="7.29912">
        <ele>347.5</ele>
        <time>2020-05-10T14:07:25Z</time>
      </trkpt>
      <trkpt lat="48.7121" lon="7.29908">
        <ele>349</ele>
        <time>2020-05-10T14:07:27Z</time>
      </trkpt>
      <trkpt lat="48.7121" lon="7.29906">
        <ele>349</ele>
        <time>2020-05-10T14:07:28Z</time>
      </trkpt>
      <trkpt lat="48.71211" lon="7.29902">
        <ele>349.2</ele>
        <time>2020-05-10T14:07:30Z</time>
      </trkpt>
      <trkpt lat="48.71211" lon="7.299">
        <ele>349.2</ele>
        <time>2020-05-10T14:07:31Z</time>
      </trkpt>
      <trkpt lat="48.7121" lon="7.29896">
        <ele>349.3</ele>
        <time>2020-05-10T14:07:33Z</time>
      </trkpt>
      <trkpt lat="48.7121" lon="7.29894">
        <ele>349.5</ele>
        <time>2020-05-10T14:07:34Z</time>
      </trkpt>
      <trkpt lat="48.7121" lon="7.29892">
        <ele>349.5</ele>
        <time>2020-05-10T14:07:36Z</time>
      </trkpt>
      <trkpt lat="48.7121" lon="7.29891">
        <ele>349.7</ele>
        <time>2020-05-10T14:07:37Z</time>
      </trkpt>
      <trkpt lat="48.7121" lon="7.29888">
        <ele>349.7</ele>
        <time>2020-05-10T14:07:39Z</time>
      </trkpt>
      <trkpt lat="48.7121" lon="7.29887">
        <ele>349.7</ele>
        <time>2020-05-10T14:07:40Z</time>
      </trkpt>
      <trkpt lat="48.7121" lon="7.29884">
        <ele>349.8</ele>
        <time>2020-05-10T14:07:42Z</time>
      </trkpt>
      <trkpt lat="48.7121" lon="7.29882">
        <ele>349.9</ele>
        <time>2020-05-10T14:07:43Z</time>
      </trkpt>
      <trkpt lat="48.71211" lon="7.29879">
        <ele>350</ele>
        <time>2020-05-10T14:07:45Z</time>
      </trkpt>
      <trkpt lat="48.71212" lon="7.29874">
        <ele>350.1</ele>
        <time>2020-05-10T14:07:47Z</time>
      </trkpt>
      <trkpt lat="48.71212" lon="7.29872">
        <ele>350.1</ele>
        <time>2020-05-10T14:07:48Z</time>
      </trkpt>
      <trkpt lat="48.71212" lon="7.29869">
        <ele>350.1</ele>
        <time>2020-05-10T14:07:50Z</time>
      </trkpt>
      <trkpt lat="48.71212" lon="7.29865">
        <ele>351.6</ele>
        <time>2020-05-10T14:07:52Z</time>
      </trkpt>
      <trkpt lat="48.71212" lon="7.29863">
        <ele>351.6</ele>
        <time>2020-05-10T14:07:53Z</time>
      </trkpt>
      <trkpt lat="48.71213" lon="7.29861">
        <ele>351.7</ele>
        <time>2020-05-10T14:07:55Z</time>
      </trkpt>
      <trkpt lat="48.71213" lon="7.29857">
        <ele>351.7</ele>
        <time>2020-05-10T14:07:57Z</time>
      </trkpt>
      <trkpt lat="48.71213" lon="7.29855">
        <ele>351.7</ele>
        <time>2020-05-10T14:07:58Z</time>
      </trkpt>
      <trkpt lat="48.71214" lon="7.29852">
        <ele>351.7</ele>
        <time>2020-05-10T14:08:00Z</time>
      </trkpt>
      <trkpt lat="48.71214" lon="7.2985">
        <ele>351.7</ele>
        <time>2020-05-10T14:08:01Z</time>
      </trkpt>
      <trkpt lat="48.71215" lon="7.29845">
        <ele>353.4</ele>
        <time>2020-05-10T14:08:03Z</time>
      </trkpt>
      <trkpt lat="48.71216" lon="7.29842">
        <ele>353.5</ele>
        <time>2020-05-10T14:08:05Z</time>
      </trkpt>
      <trkpt lat="48.71217" lon="7.29839">
        <ele>353.6</ele>
        <time>2020-05-10T14:08:07Z</time>
      </trkpt>
      <trkpt lat="48.71217" lon="7.29838">
        <ele>353.7</ele>
        <time>2020-05-10T14:08:08Z</time>
      </trkpt>
      <trkpt lat="48.71218" lon="7.29836">
        <ele>355.3</ele>
        <time>2020-05-10T14:08:09Z</time>
      </trkpt>
      <trkpt lat="48.71218" lon="7.29833">
        <ele>355.5</ele>
        <time>2020-05-10T14:08:11Z</time>
      </trkpt>
      <trkpt lat="48.71218" lon="7.2983">
        <ele>355.6</ele>
        <time>2020-05-10T14:08:13Z</time>
      </trkpt>
      <trkpt lat="48.71219" lon="7.29826">
        <ele>355.7</ele>
        <time>2020-05-10T14:08:15Z</time>
      </trkpt>
      <trkpt lat="48.7122" lon="7.29824">
        <ele>355.7</ele>
        <time>2020-05-10T14:08:17Z</time>
      </trkpt>
      <trkpt lat="48.7122" lon="7.29822">
        <ele>357.4</ele>
        <time>2020-05-10T14:08:18Z</time>
      </trkpt>
      <trkpt lat="48.71222" lon="7.29819">
        <ele>357.4</ele>
        <time>2020-05-10T14:08:20Z</time>
      </trkpt>
      <trkpt lat="48.71222" lon="7.29819">
        <ele>357.5</ele>
        <time>2020-05-10T14:08:21Z</time>
      </trkpt>
      <trkpt lat="48.71223" lon="7.29818">
        <ele>359.2</ele>
        <time>2020-05-10T14:08:23Z</time>
      </trkpt>
      <trkpt lat="48.71223" lon="7.29815">
        <ele>359.2</ele>
        <time>2020-05-10T14:08:25Z</time>
      </trkpt>
      <trkpt lat="48.71223" lon="7.29812">
        <ele>357.4</ele>
        <time>2020-05-10T14:08:27Z</time>
      </trkpt>
      <trkpt lat="48.71222" lon="7.29807">
        <ele>357.3</ele>
        <time>2020-05-10T14:08:29Z</time>
      </trkpt>
      <trkpt lat="48.71222" lon="7.29805">
        <ele>357.2</ele>
        <time>2020-05-10T14:08:30Z</time>
      </trkpt>
      <trkpt lat="48.71222" lon="7.29803">
        <ele>357.2</ele>
        <time>2020-05-10T14:08:32Z</time>
      </trkpt>
      <trkpt lat="48.71223" lon="7.29801">
        <ele>357.1</ele>
        <time>2020-05-10T14:08:34Z</time>
      </trkpt>
      <trkpt lat="48.71223" lon="7.29797">
        <ele>357.1</ele>
        <time>2020-05-10T14:08:36Z</time>
      </trkpt>
      <trkpt lat="48.71223" lon="7.29795">
        <ele>357</ele>
        <time>2020-05-10T14:08:37Z</time>
      </trkpt>
      <trkpt lat="48.71223" lon="7.29793">
        <ele>357</ele>
        <time>2020-05-10T14:08:38Z</time>
      </trkpt>
      <trkpt lat="48.71223" lon="7.2979">
        <ele>358.8</ele>
        <time>2020-05-10T14:08:40Z</time>
      </trkpt>
      <trkpt lat="48.71224" lon="7.29787">
        <ele>358.7</ele>
        <time>2020-05-10T14:08:42Z</time>
      </trkpt>
      <trkpt lat="48.71224" lon="7.29786">
        <ele>358.8</ele>
        <time>2020-05-10T14:08:43Z</time>
      </trkpt>
      <trkpt lat="48.71224" lon="7.29782">
        <ele>358.7</ele>
        <time>2020-05-10T14:08:45Z</time>
      </trkpt>
      <trkpt lat="48.71225" lon="7.29778">
        <ele>358.8</ele>
        <time>2020-05-10T14:08:47Z</time>
      </trkpt>
      <trkpt lat="48.71225" lon="7.29776">
        <ele>358.8</ele>
        <time>2020-05-10T14:08:48Z</time>
      </trkpt>
      <trkpt lat="48.71225" lon="7.29773">
        <ele>358.8</ele>
        <time>2020-05-10T14:08:50Z</time>
      </trkpt>
      <trkpt lat="48.71225" lon="7.2977">
        <ele>358.9</ele>
        <time>2020-05-10T14:08:52Z</time>
      </trkpt>
      <trkpt lat="48.71226" lon="7.29767">
        <ele>358.9</ele>
        <time>2020-05-10T14:08:54Z</time>
      </trkpt>
      <trkpt lat="48.71227" lon="7.29764">
        <ele>360.9</ele>
        <time>2020-05-10T14:08:56Z</time>
      </trkpt>
      <trkpt lat="48.71228" lon="7.29762">
        <ele>361.1</ele>
        <time>2020-05-10T14:08:58Z</time>
      </trkpt>
      <trkpt lat="48.71228" lon="7.2976">
        <ele>361.1</ele>
        <time>2020-05-10T14:08:59Z</time>
      </trkpt>
      <trkpt lat="48.71228" lon="7.29759">
        <ele>361.2</ele>
        <time>2020-05-10T14:09:01Z</time>
      </trkpt>
      <trkpt lat="48.71229" lon="7.29757">
        <ele>363.2</ele>
        <time>2020-05-10T14:09:02Z</time>
      </trkpt>
      <trkpt lat="48.71229" lon="7.29754">
        <ele>363.2</ele>
        <time>2020-05-10T14:09:04Z</time>
      </trkpt>
      <trkpt lat="48.71229" lon="7.29753">
        <ele>363.5</ele>
        <time>2020-05-10T14:09:05Z</time>
      </trkpt>
      <trkpt lat="48.71228" lon="7.2975">
        <ele>361.8</ele>
        <time>2020-05-10T14:09:07Z</time>
      </trkpt>
      <trkpt lat="48.71228" lon="7.29748">
        <ele>362.1</ele>
        <time>2020-05-10T14:09:08Z</time>
      </trkpt>
      <trkpt lat="48.71228" lon="7.29745">
        <ele>362.4</ele>
        <time>2020-05-10T14:09:10Z</time>
      </trkpt>
      <trkpt lat="48.71228" lon="7.29744">
        <ele>362.5</ele>
        <time>2020-05-10T14:09:11Z</time>
      </trkpt>
      <trkpt lat="48.71229" lon="7.29741">
        <ele>364.6</ele>
        <time>2020-05-10T14:09:13Z</time>
      </trkpt>
      <trkpt lat="48.71229" lon="7.29739">
        <ele>364.6</ele>
        <time>2020-05-10T14:09:14Z</time>
      </trkpt>
      <trkpt lat="48.71229" lon="7.29737">
        <ele>364.6</ele>
        <time>2020-05-10T14:09:15Z</time>
      </trkpt>
      <trkpt lat="48.7123" lon="7.29733">
        <ele>365</ele>
        <time>2020-05-10T14:09:17Z</time>
      </trkpt>
      <trkpt lat="48.71231" lon="7.29731">
        <ele>365.3</ele>
        <time>2020-05-10T14:09:18Z</time>
      </trkpt>
      <trkpt lat="48.71231" lon="7.29726">
        <ele>365.7</ele>
        <time>2020-05-10T14:09:20Z</time>
      </trkpt>
      <trkpt lat="48.71233" lon="7.29721">
        <ele>367.6</ele>
        <time>2020-05-10T14:09:22Z</time>
      </trkpt>
      <trkpt lat="48.71234" lon="7.29719">
        <ele>367.9</ele>
        <time>2020-05-10T14:09:23Z</time>
      </trkpt>
      <trkpt lat="48.71236" lon="7.29716">
        <ele>369.5</ele>
        <time>2020-05-10T14:09:25Z</time>
      </trkpt>
      <trkpt lat="48.71237" lon="7.29715">
        <ele>370.9</ele>
        <time>2020-05-10T14:09:26Z</time>
      </trkpt>
      <trkpt lat="48.71239" lon="7.29713">
        <ele>371.3</ele>
        <time>2020-05-10T14:09:28Z</time>
      </trkpt>
      <trkpt lat="48.7124" lon="7.29711">
        <ele>371.6</ele>
        <time>2020-05-10T14:09:29Z</time>
      </trkpt>
      <trkpt lat="48.7124" lon="7.29709">
        <ele>371.7</ele>
        <time>2020-05-10T14:09:31Z</time>
      </trkpt>
      <trkpt lat="48.7124" lon="7.29706">
        <ele>372.1</ele>
        <time>2020-05-10T14:09:33Z</time>
      </trkpt>
      <trkpt lat="48.7124" lon="7.29704">
        <ele>372.1</ele>
        <time>2020-05-10T14:09:35Z</time>
      </trkpt>
      <trkpt lat="48.71241" lon="7.29702">
        <ele>374</ele>
        <time>2020-05-10T14:09:37Z</time>
      </trkpt>
      <trkpt lat="48.71241" lon="7.29702">
        <ele>374</ele>
        <time>2020-05-10T14:09:38Z</time>
      </trkpt>
      <trkpt lat="48.71241" lon="7.297">
        <ele>374</ele>
        <time>2020-05-10T14:09:40Z</time>
      </trkpt>
      <trkpt lat="48.71241" lon="7.29697">
        <ele>374.5</ele>
        <time>2020-05-10T14:09:42Z</time>
      </trkpt>
      <trkpt lat="48.71241" lon="7.29696">
        <ele>374.5</ele>
        <time>2020-05-10T14:09:44Z</time>
      </trkpt>
      <trkpt lat="48.71241" lon="7.29695">
        <ele>374.5</ele>
        <time>2020-05-10T14:09:46Z</time>
      </trkpt>
      <trkpt lat="48.71241" lon="7.29694">
        <ele>375</ele>
        <time>2020-05-10T14:09:47Z</time>
      </trkpt>
      <trkpt lat="48.7124" lon="7.29691">
        <ele>375</ele>
        <time>2020-05-10T14:09:49Z</time>
      </trkpt>
      <trkpt lat="48.71241" lon="7.29689">
        <ele>375.4</ele>
        <time>2020-05-10T14:09:50Z</time>
      </trkpt>
      <trkpt lat="48.71241" lon="7.29685">
        <ele>375.9</ele>
        <time>2020-05-10T14:09:52Z</time>
      </trkpt>
      <trkpt lat="48.71241" lon="7.29683">
        <ele>375.9</ele>
        <time>2020-05-10T14:09:53Z</time>
      </trkpt>
      <trkpt lat="48.71241" lon="7.29681">
        <ele>376.4</ele>
        <time>2020-05-10T14:09:54Z</time>
      </trkpt>
      <trkpt lat="48.71241" lon="7.29678">
        <ele>376.4</ele>
        <time>2020-05-10T14:09:56Z</time>
      </trkpt>
      <trkpt lat="48.71241" lon="7.29673">
        <ele>376.8</ele>
        <time>2020-05-10T14:09:58Z</time>
      </trkpt>
      <trkpt lat="48.71241" lon="7.29671">
        <ele>377.3</ele>
        <time>2020-05-10T14:09:59Z</time>
      </trkpt>
      <trkpt lat="48.71242" lon="7.29666">
        <ele>377.8</ele>
        <time>2020-05-10T14:10:01Z</time>
      </trkpt>
      <trkpt lat="48.71242" lon="7.29663">
        <ele>378.4</ele>
        <time>2020-05-10T14:10:02Z</time>
      </trkpt>
      <trkpt lat="48.71244" lon="7.29657">
        <ele>380.4</ele>
        <time>2020-05-10T14:10:04Z</time>
      </trkpt>
      <trkpt lat="48.71245" lon="7.29656">
        <ele>380.4</ele>
        <time>2020-05-10T14:10:05Z</time>
      </trkpt>
      <trkpt lat="48.71246" lon="7.29654">
        <ele>382.5</ele>
        <time>2020-05-10T14:10:07Z</time>
      </trkpt>
      <trkpt lat="48.71247" lon="7.29652">
        <ele>382.5</ele>
        <time>2020-05-10T14:10:09Z</time>
      </trkpt>
      <trkpt lat="48.71247" lon="7.29651">
        <ele>382.5</ele>
        <time>2020-05-10T14:10:10Z</time>
      </trkpt>
      <trkpt lat="48.71247" lon="7.29651">
        <ele>383.1</ele>
        <time>2020-05-10T14:10:11Z</time>
      </trkpt>
      <trkpt lat="48.71246" lon="7.29651">
        <ele>383.1</ele>
        <time>2020-05-10T14:10:13Z</time>
      </trkpt>
      <trkpt lat="48.71246" lon="7.2965">
        <ele>383.2</ele>
        <time>2020-05-10T14:10:14Z</time>
      </trkpt>
      <trkpt lat="48.71245" lon="7.2965">
        <ele>381.7</ele>
        <time>2020-05-10T14:10:16Z</time>
      </trkpt>
      <trkpt lat="48.71245" lon="7.2965">
        <ele>381.7</ele>
        <time>2020-05-10T14:10:18Z</time>
      </trkpt>
      <trkpt lat="48.71245" lon="7.2965">
        <ele>381.7</ele>
        <time>2020-05-10T14:10:20Z</time>
      </trkpt>
      <trkpt lat="48.71245" lon="7.29649">
        <ele>381.7</ele>
        <time>2020-05-10T14:10:21Z</time>
      </trkpt>
      <trkpt lat="48.71245" lon="7.2965">
        <ele>381.8</ele>
        <time>2020-05-10T14:10:22Z</time>
      </trkpt>
      <trkpt lat="48.71245" lon="7.2965">
        <ele>381.8</ele>
        <time>2020-05-10T14:10:23Z</time>
      </trkpt>
      <trkpt lat="48.71245" lon="7.29651">
        <ele>381.2</ele>
        <time>2020-05-10T14:10:25Z</time>
      </trkpt>
      <trkpt lat="48.71244" lon="7.29651">
        <ele>381.2</ele>
        <time>2020-05-10T14:10:27Z</time>
      </trkpt>
      <trkpt lat="48.71244" lon="7.29651">
        <ele>381.3</ele>
        <time>2020-05-10T14:10:28Z</time>
      </trkpt>
      <trkpt lat="48.71244" lon="7.29651">
        <ele>381.3</ele>
        <time>2020-05-10T14:10:29Z</time>
      </trkpt>
      <trkpt lat="48.71245" lon="7.29651">
        <ele>381.9</ele>
        <time>2020-05-10T14:10:31Z</time>
      </trkpt>
      <trkpt lat="48.71245" lon="7.2965">
        <ele>381.9</ele>
        <time>2020-05-10T14:10:32Z</time>
      </trkpt>
      <trkpt lat="48.71244" lon="7.2965">
        <ele>381.9</ele>
        <time>2020-05-10T14:10:34Z</time>
      </trkpt>
      <trkpt lat="48.71243" lon="7.29647">
        <ele>381.9</ele>
        <time>2020-05-10T14:10:41Z</time>
      </trkpt>
      <trkpt lat="48.71243" lon="7.29643">
        <ele>382.5</ele>
        <time>2020-05-10T14:10:43Z</time>
      </trkpt>
      <trkpt lat="48.71241" lon="7.2964">
        <ele>381.7</ele>
        <time>2020-05-10T14:10:45Z</time>
      </trkpt>
      <trkpt lat="48.7124" lon="7.29638">
        <ele>380.9</ele>
        <time>2020-05-10T14:10:46Z</time>
      </trkpt>
      <trkpt lat="48.71239" lon="7.29631">
        <ele>381.5</ele>
        <time>2020-05-10T14:10:48Z</time>
      </trkpt>
      <trkpt lat="48.71239" lon="7.29625">
        <ele>382.6</ele>
        <time>2020-05-10T14:10:49Z</time>
      </trkpt>
      <trkpt lat="48.71239" lon="7.2962">
        <ele>383.1</ele>
        <time>2020-05-10T14:10:50Z</time>
      </trkpt>
      <trkpt lat="48.71239" lon="7.29612">
        <ele>384.2</ele>
        <time>2020-05-10T14:10:52Z</time>
      </trkpt>
      <trkpt lat="48.71239" lon="7.29603">
        <ele>385.2</ele>
        <time>2020-05-10T14:10:54Z</time>
      </trkpt>
      <trkpt lat="48.71238" lon="7.296">
        <ele>385.2</ele>
        <time>2020-05-10T14:10:55Z</time>
      </trkpt>
      <trkpt lat="48.71237" lon="7.2959">
        <ele>385.6</ele>
        <time>2020-05-10T14:10:57Z</time>
      </trkpt>
      <trkpt lat="48.71237" lon="7.29585">
        <ele>386.2</ele>
        <time>2020-05-10T14:10:58Z</time>
      </trkpt>
      <trkpt lat="48.71236" lon="7.29581">
        <ele>386.9</ele>
        <time>2020-05-10T14:10:59Z</time>
      </trkpt>
      <trkpt lat="48.71236" lon="7.29571">
        <ele>388.3</ele>
        <time>2020-05-10T14:11:01Z</time>
      </trkpt>
      <trkpt lat="48.71235" lon="7.29567">
        <ele>389</ele>
        <time>2020-05-10T14:11:02Z</time>
      </trkpt>
      <trkpt lat="48.71233" lon="7.29561">
        <ele>389.3</ele>
        <time>2020-05-10T14:11:04Z</time>
      </trkpt>
      <trkpt lat="48.71232" lon="7.29555">
        <ele>388.8</ele>
        <time>2020-05-10T14:11:05Z</time>
      </trkpt>
      <trkpt lat="48.71231" lon="7.29553">
        <ele>388.8</ele>
        <time>2020-05-10T14:11:06Z</time>
      </trkpt>
      <trkpt lat="48.7123" lon="7.29544">
        <ele>390.2</ele>
        <time>2020-05-10T14:11:08Z</time>
      </trkpt>
      <trkpt lat="48.71229" lon="7.29538">
        <ele>391.6</ele>
        <time>2020-05-10T14:11:09Z</time>
      </trkpt>
      <trkpt lat="48.71229" lon="7.29531">
        <ele>391.9</ele>
        <time>2020-05-10T14:11:11Z</time>
      </trkpt>
      <trkpt lat="48.71228" lon="7.29523">
        <ele>392.7</ele>
        <time>2020-05-10T14:11:12Z</time>
      </trkpt>
      <trkpt lat="48.71226" lon="7.29515">
        <ele>393.2</ele>
        <time>2020-05-10T14:11:14Z</time>
      </trkpt>
      <trkpt lat="48.71223" lon="7.29511">
        <ele>392.9</ele>
        <time>2020-05-10T14:11:16Z</time>
      </trkpt>
      <trkpt lat="48.7122" lon="7.29507">
        <ele>392.6</ele>
        <time>2020-05-10T14:11:17Z</time>
      </trkpt>
      <trkpt lat="48.71217" lon="7.29498">
        <ele>393</ele>
        <time>2020-05-10T14:11:19Z</time>
      </trkpt>
      <trkpt lat="48.71214" lon="7.29491">
        <ele>394</ele>
        <time>2020-05-10T14:11:21Z</time>
      </trkpt>
      <trkpt lat="48.71211" lon="7.29486">
        <ele>394.1</ele>
        <time>2020-05-10T14:11:23Z</time>
      </trkpt>
      <trkpt lat="48.71208" lon="7.29484">
        <ele>393.4</ele>
        <time>2020-05-10T14:11:25Z</time>
      </trkpt>
      <trkpt lat="48.71206" lon="7.29483">
        <ele>393.7</ele>
        <time>2020-05-10T14:11:27Z</time>
      </trkpt>
      <trkpt lat="48.71205" lon="7.29483">
        <ele>393.7</ele>
        <time>2020-05-10T14:11:28Z</time>
      </trkpt>
      <trkpt lat="48.71202" lon="7.29483">
        <ele>393</ele>
        <time>2020-05-10T14:11:29Z</time>
      </trkpt>
      <trkpt lat="48.71197" lon="7.29488">
        <ele>389.4</ele>
        <time>2020-05-10T14:11:31Z</time>
      </trkpt>
      <trkpt lat="48.71194" lon="7.2949">
        <ele>388.7</ele>
        <time>2020-05-10T14:11:32Z</time>
      </trkpt>
      <trkpt lat="48.71186" lon="7.29493">
        <ele>384.8</ele>
        <time>2020-05-10T14:11:34Z</time>
      </trkpt>
      <trkpt lat="48.7118" lon="7.29489">
        <ele>385.6</ele>
        <time>2020-05-10T14:11:36Z</time>
      </trkpt>
      <trkpt lat="48.71176" lon="7.29493">
        <ele>383.3</ele>
        <time>2020-05-10T14:11:38Z</time>
      </trkpt>
      <trkpt lat="48.71171" lon="7.29494">
        <ele>382.4</ele>
        <time>2020-05-10T14:11:39Z</time>
      </trkpt>
      <trkpt lat="48.71164" lon="7.29496">
        <ele>381.5</ele>
        <time>2020-05-10T14:11:41Z</time>
      </trkpt>
      <trkpt lat="48.7116" lon="7.29492">
        <ele>382.7</ele>
        <time>2020-05-10T14:11:43Z</time>
      </trkpt>
      <trkpt lat="48.7116" lon="7.29492">
        <ele>382.7</ele>
        <time>2020-05-10T14:11:44Z</time>
      </trkpt>
      <trkpt lat="48.71157" lon="7.29493">
        <ele>380.7</ele>
        <time>2020-05-10T14:11:46Z</time>
      </trkpt>
      <trkpt lat="48.7115" lon="7.29496">
        <ele>380.3</ele>
        <time>2020-05-10T14:11:48Z</time>
      </trkpt>
      <trkpt lat="48.71146" lon="7.29498">
        <ele>378.8</ele>
        <time>2020-05-10T14:11:49Z</time>
      </trkpt>
      <trkpt lat="48.71142" lon="7.29499">
        <ele>378.6</ele>
        <time>2020-05-10T14:11:50Z</time>
      </trkpt>
      <trkpt lat="48.71137" lon="7.29499">
        <ele>378.2</ele>
        <time>2020-05-10T14:11:51Z</time>
      </trkpt>
      <trkpt lat="48.71127" lon="7.295">
        <ele>377.7</ele>
        <time>2020-05-10T14:11:53Z</time>
      </trkpt>
      <trkpt lat="48.7112" lon="7.29499">
        <ele>377.4</ele>
        <time>2020-05-10T14:11:55Z</time>
      </trkpt>
      <trkpt lat="48.71117" lon="7.295">
        <ele>377.3</ele>
        <time>2020-05-10T14:11:56Z</time>
      </trkpt>
      <trkpt lat="48.71114" lon="7.29502">
        <ele>376.1</ele>
        <time>2020-05-10T14:11:57Z</time>
      </trkpt>
      <trkpt lat="48.71106" lon="7.29504">
        <ele>375.5</ele>
        <time>2020-05-10T14:11:59Z</time>
      </trkpt>
      <trkpt lat="48.71098" lon="7.29507">
        <ele>373.8</ele>
        <time>2020-05-10T14:12:01Z</time>
      </trkpt>
      <trkpt lat="48.71094" lon="7.29509">
        <ele>373.5</ele>
        <time>2020-05-10T14:12:02Z</time>
      </trkpt>
      <trkpt lat="48.71086" lon="7.2951">
        <ele>371.2</ele>
        <time>2020-05-10T14:12:04Z</time>
      </trkpt>
      <trkpt lat="48.7108" lon="7.29509">
        <ele>370.1</ele>
        <time>2020-05-10T14:12:05Z</time>
      </trkpt>
      <trkpt lat="48.71069" lon="7.29508">
        <ele>369.3</ele>
        <time>2020-05-10T14:12:07Z</time>
      </trkpt>
      <trkpt lat="48.7106" lon="7.29508">
        <ele>367.6</ele>
        <time>2020-05-10T14:12:09Z</time>
      </trkpt>
      <trkpt lat="48.71052" lon="7.29504">
        <ele>366.7</ele>
        <time>2020-05-10T14:12:11Z</time>
      </trkpt>
      <trkpt lat="48.71037" lon="7.29495">
        <ele>365.4</ele>
        <time>2020-05-10T14:12:16Z</time>
      </trkpt>
      <trkpt lat="48.71034" lon="7.29491">
        <ele>366.5</ele>
        <time>2020-05-10T14:12:17Z</time>
      </trkpt>
      <trkpt lat="48.71034" lon="7.29492">
        <ele>366.5</ele>
        <time>2020-05-10T14:12:19Z</time>
      </trkpt>
      <trkpt lat="48.71036" lon="7.29492">
        <ele>366.5</ele>
        <time>2020-05-10T14:12:21Z</time>
      </trkpt>
      <trkpt lat="48.71036" lon="7.29493">
        <ele>364.6</ele>
        <time>2020-05-10T14:12:23Z</time>
      </trkpt>
      <trkpt lat="48.71036" lon="7.29494">
        <ele>364.6</ele>
        <time>2020-05-10T14:12:24Z</time>
      </trkpt>
      <trkpt lat="48.71036" lon="7.29494">
        <ele>364.6</ele>
        <time>2020-05-10T14:12:26Z</time>
      </trkpt>
      <trkpt lat="48.71036" lon="7.29494">
        <ele>365.5</ele>
        <time>2020-05-10T14:12:27Z</time>
      </trkpt>
      <trkpt lat="48.71036" lon="7.29494">
        <ele>365.5</ele>
        <time>2020-05-10T14:12:28Z</time>
      </trkpt>
      <trkpt lat="48.71036" lon="7.29494">
        <ele>364.7</ele>
        <time>2020-05-10T14:12:29Z</time>
      </trkpt>
      <trkpt lat="48.71036" lon="7.29494">
        <ele>364.7</ele>
        <time>2020-05-10T14:12:30Z</time>
      </trkpt>
      <trkpt lat="48.71035" lon="7.29492">
        <ele>366.7</ele>
        <time>2020-05-10T14:12:31Z</time>
      </trkpt>
      <trkpt lat="48.71034" lon="7.29489">
        <ele>366.7</ele>
        <time>2020-05-10T14:12:32Z</time>
      </trkpt>
      <trkpt lat="48.71034" lon="7.29488">
        <ele>367.9</ele>
        <time>2020-05-10T14:12:34Z</time>
      </trkpt>
      <trkpt lat="48.71033" lon="7.29487">
        <ele>367</ele>
        <time>2020-05-10T14:12:35Z</time>
      </trkpt>
      <trkpt lat="48.71032" lon="7.29483">
        <ele>368.3</ele>
        <time>2020-05-10T14:12:37Z</time>
      </trkpt>
      <trkpt lat="48.71032" lon="7.29482">
        <ele>368.3</ele>
        <time>2020-05-10T14:12:38Z</time>
      </trkpt>
      <trkpt lat="48.71031" lon="7.29481">
        <ele>368.3</ele>
        <time>2020-05-10T14:12:39Z</time>
      </trkpt>
      <trkpt lat="48.7103" lon="7.29477">
        <ele>368.7</ele>
        <time>2020-05-10T14:12:41Z</time>
      </trkpt>
      <trkpt lat="48.71029" lon="7.29474">
        <ele>369.9</ele>
        <time>2020-05-10T14:12:43Z</time>
      </trkpt>
      <trkpt lat="48.71027" lon="7.29471">
        <ele>369</ele>
        <time>2020-05-10T14:12:45Z</time>
      </trkpt>
      <trkpt lat="48.71027" lon="7.2947">
        <ele>370.1</ele>
        <time>2020-05-10T14:12:46Z</time>
      </trkpt>
      <trkpt lat="48.71026" lon="7.29468">
        <ele>370.2</ele>
        <time>2020-05-10T14:12:47Z</time>
      </trkpt>
      <trkpt lat="48.71026" lon="7.29466">
        <ele>371.2</ele>
        <time>2020-05-10T14:12:48Z</time>
      </trkpt>
      <trkpt lat="48.71026" lon="7.29464">
        <ele>371.3</ele>
        <time>2020-05-10T14:12:49Z</time>
      </trkpt>
      <trkpt lat="48.71025" lon="7.29462">
        <ele>372.3</ele>
        <time>2020-05-10T14:12:50Z</time>
      </trkpt>
      <trkpt lat="48.71024" lon="7.2946">
        <ele>371.4</ele>
        <time>2020-05-10T14:12:52Z</time>
      </trkpt>
      <trkpt lat="48.71023" lon="7.2946">
        <ele>371.4</ele>
        <time>2020-05-10T14:12:53Z</time>
      </trkpt>
      <trkpt lat="48.71019" lon="7.29457">
        <ele>371.5</ele>
        <time>2020-05-10T14:12:55Z</time>
      </trkpt>
      <trkpt lat="48.71018" lon="7.29455">
        <ele>370.6</ele>
        <time>2020-05-10T14:12:57Z</time>
      </trkpt>
      <trkpt lat="48.71016" lon="7.29452">
        <ele>370.9</ele>
        <time>2020-05-10T14:12:59Z</time>
      </trkpt>
      <trkpt lat="48.71014" lon="7.29447">
        <ele>372</ele>
        <time>2020-05-10T14:13:01Z</time>
      </trkpt>
      <trkpt lat="48.71014" lon="7.29445">
        <ele>372.1</ele>
        <time>2020-05-10T14:13:02Z</time>
      </trkpt>
      <trkpt lat="48.71014" lon="7.29442">
        <ele>373.3</ele>
        <time>2020-05-10T14:13:03Z</time>
      </trkpt>
      <trkpt lat="48.71014" lon="7.2944">
        <ele>374.5</ele>
        <time>2020-05-10T14:13:04Z</time>
      </trkpt>
      <trkpt lat="48.71012" lon="7.29437">
        <ele>373.7</ele>
        <time>2020-05-10T14:13:06Z</time>
      </trkpt>
      <trkpt lat="48.71012" lon="7.29436">
        <ele>375</ele>
        <time>2020-05-10T14:13:07Z</time>
      </trkpt>
      <trkpt lat="48.71011" lon="7.29434">
        <ele>375</ele>
        <time>2020-05-10T14:13:08Z</time>
      </trkpt>
      <trkpt lat="48.7101" lon="7.29433">
        <ele>374.2</ele>
        <time>2020-05-10T14:13:09Z</time>
      </trkpt>
      <trkpt lat="48.71007" lon="7.29429">
        <ele>374.6</ele>
        <time>2020-05-10T14:13:11Z</time>
      </trkpt>
      <trkpt lat="48.71005" lon="7.29426">
        <ele>374.8</ele>
        <time>2020-05-10T14:13:13Z</time>
      </trkpt>
      <trkpt lat="48.71003" lon="7.29423">
        <ele>375.9</ele>
        <time>2020-05-10T14:13:15Z</time>
      </trkpt>
      <trkpt lat="48.71002" lon="7.2942">
        <ele>374.9</ele>
        <time>2020-05-10T14:13:16Z</time>
      </trkpt>
      <trkpt lat="48.71001" lon="7.29419">
        <ele>375.9</ele>
        <time>2020-05-10T14:13:17Z</time>
      </trkpt>
      <trkpt lat="48.71001" lon="7.29417">
        <ele>376</ele>
        <time>2020-05-10T14:13:18Z</time>
      </trkpt>
      <trkpt lat="48.71" lon="7.29413">
        <ele>377</ele>
        <time>2020-05-10T14:13:20Z</time>
      </trkpt>
      <trkpt lat="48.70999" lon="7.2941">
        <ele>376.8</ele>
        <time>2020-05-10T14:13:22Z</time>
      </trkpt>
      <trkpt lat="48.70998" lon="7.29407">
        <ele>376.8</ele>
        <time>2020-05-10T14:13:24Z</time>
      </trkpt>
      <trkpt lat="48.70995" lon="7.29404">
        <ele>376.6</ele>
        <time>2020-05-10T14:13:26Z</time>
      </trkpt>
      <trkpt lat="48.70994" lon="7.29403">
        <ele>376.6</ele>
        <time>2020-05-10T14:13:27Z</time>
      </trkpt>
      <trkpt lat="48.70992" lon="7.294">
        <ele>376.4</ele>
        <time>2020-05-10T14:13:29Z</time>
      </trkpt>
      <trkpt lat="48.7099" lon="7.29397">
        <ele>376.4</ele>
        <time>2020-05-10T14:13:31Z</time>
      </trkpt>
      <trkpt lat="48.70989" lon="7.29393">
        <ele>377.4</ele>
        <time>2020-05-10T14:13:33Z</time>
      </trkpt>
      <trkpt lat="48.70988" lon="7.29389">
        <ele>377.4</ele>
        <time>2020-05-10T14:13:35Z</time>
      </trkpt>
      <trkpt lat="48.70988" lon="7.29387">
        <ele>377.4</ele>
        <time>2020-05-10T14:13:36Z</time>
      </trkpt>
      <trkpt lat="48.70987" lon="7.29384">
        <ele>378.4</ele>
        <time>2020-05-10T14:13:38Z</time>
      </trkpt>
      <trkpt lat="48.70986" lon="7.2938">
        <ele>379.4</ele>
        <time>2020-05-10T14:13:40Z</time>
      </trkpt>
      <trkpt lat="48.70985" lon="7.29378">
        <ele>378.3</ele>
        <time>2020-05-10T14:13:41Z</time>
      </trkpt>
      <trkpt lat="48.70984" lon="7.29375">
        <ele>379.1</ele>
        <time>2020-05-10T14:13:43Z</time>
      </trkpt>
      <trkpt lat="48.70982" lon="7.29372">
        <ele>378.7</ele>
        <time>2020-05-10T14:13:45Z</time>
      </trkpt>
      <trkpt lat="48.70981" lon="7.29368">
        <ele>379.4</ele>
        <time>2020-05-10T14:13:47Z</time>
      </trkpt>
      <trkpt lat="48.7098" lon="7.29366">
        <ele>379.5</ele>
        <time>2020-05-10T14:13:49Z</time>
      </trkpt>
      <trkpt lat="48.7098" lon="7.29365">
        <ele>379.5</ele>
        <time>2020-05-10T14:13:50Z</time>
      </trkpt>
      <trkpt lat="48.7098" lon="7.29364">
        <ele>379.5</ele>
        <time>2020-05-10T14:13:51Z</time>
      </trkpt>
      <trkpt lat="48.70978" lon="7.29361">
        <ele>379</ele>
        <time>2020-05-10T14:13:53Z</time>
      </trkpt>
      <trkpt lat="48.70975" lon="7.29355">
        <ele>378.4</ele>
        <time>2020-05-10T14:13:55Z</time>
      </trkpt>
      <trkpt lat="48.70973" lon="7.29351">
        <ele>377.9</ele>
        <time>2020-05-10T14:13:57Z</time>
      </trkpt>
      <trkpt lat="48.70972" lon="7.29348">
        <ele>378.7</ele>
        <time>2020-05-10T14:13:58Z</time>
      </trkpt>
      <trkpt lat="48.7097" lon="7.29344">
        <ele>378.3</ele>
        <time>2020-05-10T14:14:00Z</time>
      </trkpt>
      <trkpt lat="48.7097" lon="7.29342">
        <ele>379.2</ele>
        <time>2020-05-10T14:14:01Z</time>
      </trkpt>
      <trkpt lat="48.70968" lon="7.29336">
        <ele>380</ele>
        <time>2020-05-10T14:14:03Z</time>
      </trkpt>
      <trkpt lat="48.70967" lon="7.29333">
        <ele>379.7</ele>
        <time>2020-05-10T14:14:04Z</time>
      </trkpt>
      <trkpt lat="48.70966" lon="7.2933">
        <ele>379.7</ele>
        <time>2020-05-10T14:14:06Z</time>
      </trkpt>
      <trkpt lat="48.70965" lon="7.29328">
        <ele>379.3</ele>
        <time>2020-05-10T14:14:08Z</time>
      </trkpt>
      <trkpt lat="48.70964" lon="7.29326">
        <ele>379.3</ele>
        <time>2020-05-10T14:14:09Z</time>
      </trkpt>
      <trkpt lat="48.70964" lon="7.29324">
        <ele>380</ele>
        <time>2020-05-10T14:14:10Z</time>
      </trkpt>
      <trkpt lat="48.70963" lon="7.29321">
        <ele>380.1</ele>
        <time>2020-05-10T14:14:12Z</time>
      </trkpt>
      <trkpt lat="48.70963" lon="7.29319">
        <ele>380.7</ele>
        <time>2020-05-10T14:14:13Z</time>
      </trkpt>
      <trkpt lat="48.70962" lon="7.29314">
        <ele>380.4</ele>
        <time>2020-05-10T14:14:15Z</time>
      </trkpt>
      <trkpt lat="48.70962" lon="7.29313">
        <ele>380.4</ele>
        <time>2020-05-10T14:14:16Z</time>
      </trkpt>
      <trkpt lat="48.70961" lon="7.29309">
        <ele>381.1</ele>
        <time>2020-05-10T14:14:18Z</time>
      </trkpt>
      <trkpt lat="48.7096" lon="7.29306">
        <ele>380.8</ele>
        <time>2020-05-10T14:14:20Z</time>
      </trkpt>
      <trkpt lat="48.70958" lon="7.29303">
        <ele>381.6</ele>
        <time>2020-05-10T14:14:22Z</time>
      </trkpt>
      <trkpt lat="48.70958" lon="7.29302">
        <ele>381.6</ele>
        <time>2020-05-10T14:14:23Z</time>
      </trkpt>
      <trkpt lat="48.70958" lon="7.29301">
        <ele>381.6</ele>
        <time>2020-05-10T14:14:24Z</time>
      </trkpt>
      <trkpt lat="48.70957" lon="7.293">
        <ele>381.7</ele>
        <time>2020-05-10T14:14:25Z</time>
      </trkpt>
      <trkpt lat="48.70957" lon="7.29298">
        <ele>381.5</ele>
        <time>2020-05-10T14:14:27Z</time>
      </trkpt>
      <trkpt lat="48.70957" lon="7.29296">
        <ele>382.5</ele>
        <time>2020-05-10T14:14:28Z</time>
      </trkpt>
      <trkpt lat="48.70957" lon="7.29296">
        <ele>382.5</ele>
        <time>2020-05-10T14:14:30Z</time>
      </trkpt>
      <trkpt lat="48.70957" lon="7.29295">
        <ele>382.5</ele>
        <time>2020-05-10T14:14:31Z</time>
      </trkpt>
      <trkpt lat="48.70957" lon="7.29295">
        <ele>382.4</ele>
        <time>2020-05-10T14:14:33Z</time>
      </trkpt>
      <trkpt lat="48.70957" lon="7.29294">
        <ele>382.4</ele>
        <time>2020-05-10T14:14:35Z</time>
      </trkpt>
      <trkpt lat="48.70957" lon="7.29294">
        <ele>382.4</ele>
        <time>2020-05-10T14:14:37Z</time>
      </trkpt>
      <trkpt lat="48.70957" lon="7.29293">
        <ele>382.4</ele>
        <time>2020-05-10T14:14:38Z</time>
      </trkpt>
      <trkpt lat="48.70956" lon="7.29292">
        <ele>382.4</ele>
        <time>2020-05-10T14:14:40Z</time>
      </trkpt>
      <trkpt lat="48.70956" lon="7.29292">
        <ele>382.5</ele>
        <time>2020-05-10T14:14:42Z</time>
      </trkpt>
      <trkpt lat="48.70956" lon="7.29291">
        <ele>382.5</ele>
        <time>2020-05-10T14:14:43Z</time>
      </trkpt>
      <trkpt lat="48.70955" lon="7.29289">
        <ele>383.3</ele>
        <time>2020-05-10T14:14:45Z</time>
      </trkpt>
      <trkpt lat="48.70955" lon="7.29287">
        <ele>383.3</ele>
        <time>2020-05-10T14:14:46Z</time>
      </trkpt>
      <trkpt lat="48.70954" lon="7.29285">
        <ele>384.1</ele>
        <time>2020-05-10T14:14:47Z</time>
      </trkpt>
      <trkpt lat="48.70954" lon="7.29281">
        <ele>383.9</ele>
        <time>2020-05-10T14:14:49Z</time>
      </trkpt>
      <trkpt lat="48.70953" lon="7.29278">
        <ele>384</ele>
        <time>2020-05-10T14:14:50Z</time>
      </trkpt>
      <trkpt lat="48.70953" lon="7.29276">
        <ele>384.8</ele>
        <time>2020-05-10T14:14:51Z</time>
      </trkpt>
      <trkpt lat="48.70952" lon="7.29275">
        <ele>384.8</ele>
        <time>2020-05-10T14:14:52Z</time>
      </trkpt>
      <trkpt lat="48.7095" lon="7.29271">
        <ele>384.6</ele>
        <time>2020-05-10T14:14:54Z</time>
      </trkpt>
      <trkpt lat="48.7095" lon="7.2927">
        <ele>384.6</ele>
        <time>2020-05-10T14:14:55Z</time>
      </trkpt>
      <trkpt lat="48.70948" lon="7.29266">
        <ele>384.4</ele>
        <time>2020-05-10T14:14:57Z</time>
      </trkpt>
      <trkpt lat="48.70947" lon="7.29262">
        <ele>385.3</ele>
        <time>2020-05-10T14:14:59Z</time>
      </trkpt>
      <trkpt lat="48.70946" lon="7.29258">
        <ele>386.2</ele>
        <time>2020-05-10T14:15:01Z</time>
      </trkpt>
      <trkpt lat="48.70945" lon="7.29255">
        <ele>385.9</ele>
        <time>2020-05-10T14:15:03Z</time>
      </trkpt>
      <trkpt lat="48.70943" lon="7.29253">
        <ele>385.9</ele>
        <time>2020-05-10T14:15:05Z</time>
      </trkpt>
      <trkpt lat="48.70942" lon="7.29251">
        <ele>385.6</ele>
        <time>2020-05-10T14:15:06Z</time>
      </trkpt>
      <trkpt lat="48.70941" lon="7.29247">
        <ele>386.5</ele>
        <time>2020-05-10T14:15:08Z</time>
      </trkpt>
      <trkpt lat="48.7094" lon="7.29245">
        <ele>386.5</ele>
        <time>2020-05-10T14:15:09Z</time>
      </trkpt>
      <trkpt lat="48.7094" lon="7.2924">
        <ele>386.3</ele>
        <time>2020-05-10T14:15:11Z</time>
      </trkpt>
      <trkpt lat="48.70939" lon="7.29238">
        <ele>387.2</ele>
        <time>2020-05-10T14:15:12Z</time>
      </trkpt>
      <trkpt lat="48.70937" lon="7.29233">
        <ele>387</ele>
        <time>2020-05-10T14:15:14Z</time>
      </trkpt>
      <trkpt lat="48.70931" lon="7.29224">
        <ele>386.8</ele>
        <time>2020-05-10T14:15:16Z</time>
      </trkpt>
      <trkpt lat="48.70925" lon="7.29216">
        <ele>386.5</ele>
        <time>2020-05-10T14:15:18Z</time>
      </trkpt>
      <trkpt lat="48.70923" lon="7.29214">
        <ele>386.5</ele>
        <time>2020-05-10T14:15:19Z</time>
      </trkpt>
      <trkpt lat="48.70919" lon="7.29209">
        <ele>384.6</ele>
        <time>2020-05-10T14:15:21Z</time>
      </trkpt>
      <trkpt lat="48.70918" lon="7.29207">
        <ele>385.5</ele>
        <time>2020-05-10T14:15:22Z</time>
      </trkpt>
      <trkpt lat="48.70915" lon="7.29201">
        <ele>384.9</ele>
        <time>2020-05-10T14:15:24Z</time>
      </trkpt>
      <trkpt lat="48.70914" lon="7.29197">
        <ele>384.2</ele>
        <time>2020-05-10T14:15:25Z</time>
      </trkpt>
      <trkpt lat="48.70912" lon="7.29189">
        <ele>385.8</ele>
        <time>2020-05-10T14:15:27Z</time>
      </trkpt>
      <trkpt lat="48.7091" lon="7.29186">
        <ele>385.1</ele>
        <time>2020-05-10T14:15:28Z</time>
      </trkpt>
      <trkpt lat="48.70906" lon="7.29179">
        <ele>383.9</ele>
        <time>2020-05-10T14:15:30Z</time>
      </trkpt>
      <trkpt lat="48.70902" lon="7.29171">
        <ele>383.4</ele>
        <time>2020-05-10T14:15:32Z</time>
      </trkpt>
      <trkpt lat="48.70901" lon="7.29167">
        <ele>384.2</ele>
        <time>2020-05-10T14:15:33Z</time>
      </trkpt>
      <trkpt lat="48.70898" lon="7.29163">
        <ele>383.7</ele>
        <time>2020-05-10T14:15:35Z</time>
      </trkpt>
      <trkpt lat="48.70894" lon="7.29158">
        <ele>381.7</ele>
        <time>2020-05-10T14:15:37Z</time>
      </trkpt>
      <trkpt lat="48.70893" lon="7.29157">
        <ele>382.5</ele>
        <time>2020-05-10T14:15:38Z</time>
      </trkpt>
      <trkpt lat="48.70892" lon="7.29156">
        <ele>382.5</ele>
        <time>2020-05-10T14:15:40Z</time>
      </trkpt>
      <trkpt lat="48.70892" lon="7.29156">
        <ele>382.5</ele>
        <time>2020-05-10T14:15:42Z</time>
      </trkpt>
      <trkpt lat="48.70892" lon="7.29156">
        <ele>382.5</ele>
        <time>2020-05-10T14:15:43Z</time>
      </trkpt>
      <trkpt lat="48.70892" lon="7.29156">
        <ele>382.6</ele>
        <time>2020-05-10T14:15:44Z</time>
      </trkpt>
      <trkpt lat="48.7089" lon="7.29152">
        <ele>381.7</ele>
        <time>2020-05-10T14:15:46Z</time>
      </trkpt>
      <trkpt lat="48.70889" lon="7.29151">
        <ele>381.7</ele>
        <time>2020-05-10T14:15:47Z</time>
      </trkpt>
      <trkpt lat="48.70888" lon="7.29142">
        <ele>381.4</ele>
        <time>2020-05-10T14:15:49Z</time>
      </trkpt>
      <trkpt lat="48.70885" lon="7.2913">
        <ele>381.6</ele>
        <time>2020-05-10T14:15:51Z</time>
      </trkpt>
      <trkpt lat="48.70883" lon="7.29126">
        <ele>380.6</ele>
        <time>2020-05-10T14:15:52Z</time>
      </trkpt>
      <trkpt lat="48.70881" lon="7.29121">
        <ele>381.2</ele>
        <time>2020-05-10T14:15:53Z</time>
      </trkpt>
      <trkpt lat="48.70877" lon="7.29109">
        <ele>379.4</ele>
        <time>2020-05-10T14:15:55Z</time>
      </trkpt>
      <trkpt lat="48.70875" lon="7.29097">
        <ele>380.1</ele>
        <time>2020-05-10T14:15:57Z</time>
      </trkpt>
      <trkpt lat="48.70875" lon="7.29091">
        <ele>378.6</ele>
        <time>2020-05-10T14:15:58Z</time>
      </trkpt>
      <trkpt lat="48.70874" lon="7.2908">
        <ele>378.5</ele>
        <time>2020-05-10T14:16:00Z</time>
      </trkpt>
      <trkpt lat="48.70873" lon="7.29074">
        <ele>378.2</ele>
        <time>2020-05-10T14:16:01Z</time>
      </trkpt>
      <trkpt lat="48.70874" lon="7.29066">
        <ele>377.6</ele>
        <time>2020-05-10T14:16:02Z</time>
      </trkpt>
      <trkpt lat="48.70874" lon="7.29053">
        <ele>376.5</ele>
        <time>2020-05-10T14:16:04Z</time>
      </trkpt>
      <trkpt lat="48.70874" lon="7.29047">
        <ele>376.1</ele>
        <time>2020-05-10T14:16:05Z</time>
      </trkpt>
      <trkpt lat="48.70874" lon="7.2904">
        <ele>375.1</ele>
        <time>2020-05-10T14:16:06Z</time>
      </trkpt>
      <trkpt lat="48.70875" lon="7.29034">
        <ele>376.2</ele>
        <time>2020-05-10T14:16:07Z</time>
      </trkpt>
      <trkpt lat="48.70877" lon="7.29031">
        <ele>375.7</ele>
        <time>2020-05-10T14:16:08Z</time>
      </trkpt>
      <trkpt lat="48.7088" lon="7.29021">
        <ele>376.2</ele>
        <time>2020-05-10T14:16:10Z</time>
      </trkpt>
      <trkpt lat="48.70882" lon="7.2901">
        <ele>376.4</ele>
        <time>2020-05-10T14:16:12Z</time>
      </trkpt>
      <trkpt lat="48.70883" lon="7.29006">
        <ele>375.9</ele>
        <time>2020-05-10T14:16:13Z</time>
      </trkpt>
      <trkpt lat="48.70885" lon="7.28995">
        <ele>376.6</ele>
        <time>2020-05-10T14:16:15Z</time>
      </trkpt>
      <trkpt lat="48.70889" lon="7.28984">
        <ele>378.3</ele>
        <time>2020-05-10T14:16:17Z</time>
      </trkpt>
      <trkpt lat="48.70891" lon="7.28978">
        <ele>377.5</ele>
        <time>2020-05-10T14:16:18Z</time>
      </trkpt>
      <trkpt lat="48.70893" lon="7.28973">
        <ele>377.6</ele>
        <time>2020-05-10T14:16:19Z</time>
      </trkpt>
      <trkpt lat="48.70898" lon="7.28964">
        <ele>378.8</ele>
        <time>2020-05-10T14:16:21Z</time>
      </trkpt>
      <trkpt lat="48.70901" lon="7.2896">
        <ele>379.3</ele>
        <time>2020-05-10T14:16:22Z</time>
      </trkpt>
      <trkpt lat="48.70907" lon="7.28951">
        <ele>380</ele>
        <time>2020-05-10T14:16:24Z</time>
      </trkpt>
      <trkpt lat="48.7091" lon="7.28945">
        <ele>380.3</ele>
        <time>2020-05-10T14:16:25Z</time>
      </trkpt>
      <trkpt lat="48.70919" lon="7.28921">
        <ele>378</ele>
        <time>2020-05-10T14:16:29Z</time>
      </trkpt>
      <trkpt lat="48.70921" lon="7.28913">
        <ele>377.1</ele>
        <time>2020-05-10T14:16:30Z</time>
      </trkpt>
      <trkpt lat="48.70924" lon="7.28904">
        <ele>375.9</ele>
        <time>2020-05-10T14:16:31Z</time>
      </trkpt>
      <trkpt lat="48.70927" lon="7.28897">
        <ele>375.8</ele>
        <time>2020-05-10T14:16:32Z</time>
      </trkpt>
      <trkpt lat="48.70929" lon="7.2889">
        <ele>373.3</ele>
        <time>2020-05-10T14:16:33Z</time>
      </trkpt>
      <trkpt lat="48.70935" lon="7.2888">
        <ele>374.1</ele>
        <time>2020-05-10T14:16:35Z</time>
      </trkpt>
      <trkpt lat="48.70943" lon="7.28872">
        <ele>376</ele>
        <time>2020-05-10T14:16:37Z</time>
      </trkpt>
      <trkpt lat="48.7095" lon="7.28863">
        <ele>376.7</ele>
        <time>2020-05-10T14:16:39Z</time>
      </trkpt>
      <trkpt lat="48.70953" lon="7.2886">
        <ele>376.9</ele>
        <time>2020-05-10T14:16:40Z</time>
      </trkpt>
      <trkpt lat="48.70957" lon="7.28859">
        <ele>379.2</ele>
        <time>2020-05-10T14:16:41Z</time>
      </trkpt>
      <trkpt lat="48.70963" lon="7.28852">
        <ele>379.4</ele>
        <time>2020-05-10T14:16:43Z</time>
      </trkpt>
      <trkpt lat="48.70966" lon="7.28843">
        <ele>378.5</ele>
        <time>2020-05-10T14:16:44Z</time>
      </trkpt>
      <trkpt lat="48.70971" lon="7.28831">
        <ele>378.3</ele>
        <time>2020-05-10T14:16:46Z</time>
      </trkpt>
      <trkpt lat="48.70974" lon="7.28817">
        <ele>376.2</ele>
        <time>2020-05-10T14:16:48Z</time>
      </trkpt>
      <trkpt lat="48.70973" lon="7.2881">
        <ele>375.5</ele>
        <time>2020-05-10T14:16:49Z</time>
      </trkpt>
      <trkpt lat="48.70973" lon="7.28797">
        <ele>373.5</ele>
        <time>2020-05-10T14:16:51Z</time>
      </trkpt>
      <trkpt lat="48.70975" lon="7.2879">
        <ele>373.6</ele>
        <time>2020-05-10T14:16:52Z</time>
      </trkpt>
      <trkpt lat="48.70976" lon="7.28782">
        <ele>372.4</ele>
        <time>2020-05-10T14:16:53Z</time>
      </trkpt>
      <trkpt lat="48.70979" lon="7.28767">
        <ele>371.9</ele>
        <time>2020-05-10T14:16:55Z</time>
      </trkpt>
      <trkpt lat="48.70982" lon="7.28759">
        <ele>372.2</ele>
        <time>2020-05-10T14:16:57Z</time>
      </trkpt>
      <trkpt lat="48.70982" lon="7.28755">
        <ele>371.9</ele>
        <time>2020-05-10T14:16:58Z</time>
      </trkpt>
      <trkpt lat="48.70981" lon="7.2875">
        <ele>371.3</ele>
        <time>2020-05-10T14:16:59Z</time>
      </trkpt>
      <trkpt lat="48.7098" lon="7.28742">
        <ele>371.1</ele>
        <time>2020-05-10T14:17:01Z</time>
      </trkpt>
      <trkpt lat="48.7098" lon="7.28736">
        <ele>370.6</ele>
        <time>2020-05-10T14:17:02Z</time>
      </trkpt>
      <trkpt lat="48.70981" lon="7.28731">
        <ele>370.4</ele>
        <time>2020-05-10T14:17:04Z</time>
      </trkpt>
      <trkpt lat="48.70982" lon="7.2873">
        <ele>370.4</ele>
        <time>2020-05-10T14:17:06Z</time>
      </trkpt>
      <trkpt lat="48.70982" lon="7.28729">
        <ele>370.5</ele>
        <time>2020-05-10T14:17:08Z</time>
      </trkpt>
      <trkpt lat="48.70982" lon="7.28728">
        <ele>370.5</ele>
        <time>2020-05-10T14:17:09Z</time>
      </trkpt>
      <trkpt lat="48.70983" lon="7.28727">
        <ele>371.3</ele>
        <time>2020-05-10T14:17:11Z</time>
      </trkpt>
      <trkpt lat="48.70983" lon="7.28727">
        <ele>371.3</ele>
        <time>2020-05-10T14:17:12Z</time>
      </trkpt>
      <trkpt lat="48.70983" lon="7.28726">
        <ele>371.3</ele>
        <time>2020-05-10T14:17:14Z</time>
      </trkpt>
      <trkpt lat="48.70984" lon="7.28725">
        <ele>371.4</ele>
        <time>2020-05-10T14:17:16Z</time>
      </trkpt>
      <trkpt lat="48.70984" lon="7.28724">
        <ele>371.1</ele>
        <time>2020-05-10T14:17:18Z</time>
      </trkpt>
      <trkpt lat="48.70984" lon="7.28723">
        <ele>371.1</ele>
        <time>2020-05-10T14:17:20Z</time>
      </trkpt>
      <trkpt lat="48.70985" lon="7.28722">
        <ele>371.1</ele>
        <time>2020-05-10T14:17:21Z</time>
      </trkpt>
      <trkpt lat="48.70985" lon="7.28717">
        <ele>370.9</ele>
        <time>2020-05-10T14:17:23Z</time>
      </trkpt>
      <trkpt lat="48.70985" lon="7.28712">
        <ele>370.7</ele>
        <time>2020-05-10T14:17:25Z</time>
      </trkpt>
      <trkpt lat="48.70985" lon="7.28709">
        <ele>371.5</ele>
        <time>2020-05-10T14:17:26Z</time>
      </trkpt>
      <trkpt lat="48.70984" lon="7.28703">
        <ele>370.5</ele>
        <time>2020-05-10T14:17:28Z</time>
      </trkpt>
      <trkpt lat="48.70983" lon="7.28693">
        <ele>370.6</ele>
        <time>2020-05-10T14:17:30Z</time>
      </trkpt>
      <trkpt lat="48.70982" lon="7.28688">
        <ele>369.7</ele>
        <time>2020-05-10T14:17:31Z</time>
      </trkpt>
      <trkpt lat="48.70981" lon="7.28681">
        <ele>369.8</ele>
        <time>2020-05-10T14:17:33Z</time>
      </trkpt>
      <trkpt lat="48.7098" lon="7.28675">
        <ele>370</ele>
        <time>2020-05-10T14:17:35Z</time>
      </trkpt>
      <trkpt lat="48.70979" lon="7.2867">
        <ele>369</ele>
        <time>2020-05-10T14:17:36Z</time>
      </trkpt>
      <trkpt lat="48.70977" lon="7.28665">
        <ele>369.1</ele>
        <time>2020-05-10T14:17:38Z</time>
      </trkpt>
      <trkpt lat="48.70975" lon="7.28661">
        <ele>368</ele>
        <time>2020-05-10T14:17:40Z</time>
      </trkpt>
      <trkpt lat="48.70974" lon="7.28658">
        <ele>366.9</ele>
        <time>2020-05-10T14:17:42Z</time>
      </trkpt>
      <trkpt lat="48.70974" lon="7.28655">
        <ele>366.9</ele>
        <time>2020-05-10T14:17:44Z</time>
      </trkpt>
      <trkpt lat="48.70974" lon="7.28653">
        <ele>368.1</ele>
        <time>2020-05-10T14:17:46Z</time>
      </trkpt>
      <trkpt lat="48.70973" lon="7.28651">
        <ele>366.9</ele>
        <time>2020-05-10T14:17:48Z</time>
      </trkpt>
      <trkpt lat="48.70973" lon="7.28651">
        <ele>367</ele>
        <time>2020-05-10T14:17:50Z</time>
      </trkpt>
      <trkpt lat="48.70972" lon="7.2865">
        <ele>367</ele>
        <time>2020-05-10T14:17:51Z</time>
      </trkpt>
      <trkpt lat="48.70971" lon="7.28649">
        <ele>367</ele>
        <time>2020-05-10T14:17:53Z</time>
      </trkpt>
      <trkpt lat="48.70972" lon="7.28647">
        <ele>367.1</ele>
        <time>2020-05-10T14:17:55Z</time>
      </trkpt>
      <trkpt lat="48.70971" lon="7.28646">
        <ele>367.1</ele>
        <time>2020-05-10T14:17:56Z</time>
      </trkpt>
      <trkpt lat="48.70971" lon="7.28644">
        <ele>365.9</ele>
        <time>2020-05-10T14:17:57Z</time>
      </trkpt>
      <trkpt lat="48.7097" lon="7.28636">
        <ele>366.1</ele>
        <time>2020-05-10T14:17:59Z</time>
      </trkpt>
      <trkpt lat="48.7097" lon="7.28631">
        <ele>366.3</ele>
        <time>2020-05-10T14:18:01Z</time>
      </trkpt>
      <trkpt lat="48.70971" lon="7.28627">
        <ele>366.5</ele>
        <time>2020-05-10T14:18:02Z</time>
      </trkpt>
      <trkpt lat="48.70971" lon="7.28623">
        <ele>367.9</ele>
        <time>2020-05-10T14:18:04Z</time>
      </trkpt>
      <trkpt lat="48.70972" lon="7.28619">
        <ele>368.2</ele>
        <time>2020-05-10T14:18:06Z</time>
      </trkpt>
      <trkpt lat="48.70974" lon="7.28615">
        <ele>368.5</ele>
        <time>2020-05-10T14:18:08Z</time>
      </trkpt>
      <trkpt lat="48.70974" lon="7.28615">
        <ele>368.5</ele>
        <time>2020-05-10T14:18:09Z</time>
      </trkpt>
      <trkpt lat="48.70974" lon="7.28613">
        <ele>369.7</ele>
        <time>2020-05-10T14:18:11Z</time>
      </trkpt>
      <trkpt lat="48.70973" lon="7.2861">
        <ele>368.9</ele>
        <time>2020-05-10T14:18:13Z</time>
      </trkpt>
      <trkpt lat="48.70973" lon="7.28607">
        <ele>369.3</ele>
        <time>2020-05-10T14:18:15Z</time>
      </trkpt>
      <trkpt lat="48.70973" lon="7.28605">
        <ele>369.3</ele>
        <time>2020-05-10T14:18:17Z</time>
      </trkpt>
      <trkpt lat="48.70973" lon="7.28603">
        <ele>369.7</ele>
        <time>2020-05-10T14:18:19Z</time>
      </trkpt>
      <trkpt lat="48.70974" lon="7.28601">
        <ele>369.7</ele>
        <time>2020-05-10T14:18:20Z</time>
      </trkpt>
      <trkpt lat="48.70974" lon="7.28598">
        <ele>370.2</ele>
        <time>2020-05-10T14:18:21Z</time>
      </trkpt>
      <trkpt lat="48.70974" lon="7.28596">
        <ele>371.3</ele>
        <time>2020-05-10T14:18:22Z</time>
      </trkpt>
      <trkpt lat="48.70973" lon="7.28591">
        <ele>370.8</ele>
        <time>2020-05-10T14:18:24Z</time>
      </trkpt>
      <trkpt lat="48.70973" lon="7.28591">
        <ele>371.4</ele>
        <time>2020-05-10T14:18:25Z</time>
      </trkpt>
      <trkpt lat="48.7097" lon="7.28584">
        <ele>371.1</ele>
        <time>2020-05-10T14:18:27Z</time>
      </trkpt>
      <trkpt lat="48.70969" lon="7.28581">
        <ele>371.8</ele>
        <time>2020-05-10T14:18:29Z</time>
      </trkpt>
      <trkpt lat="48.70968" lon="7.28579">
        <ele>371.8</ele>
        <time>2020-05-10T14:18:30Z</time>
      </trkpt>
      <trkpt lat="48.70967" lon="7.28576">
        <ele>371.5</ele>
        <time>2020-05-10T14:18:31Z</time>
      </trkpt>
      <trkpt lat="48.70965" lon="7.28573">
        <ele>371.2</ele>
        <time>2020-05-10T14:18:32Z</time>
      </trkpt>
      <trkpt lat="48.70965" lon="7.28572">
        <ele>371.2</ele>
        <time>2020-05-10T14:18:33Z</time>
      </trkpt>
      <trkpt lat="48.70961" lon="7.28567">
        <ele>370.8</ele>
        <time>2020-05-10T14:18:35Z</time>
      </trkpt>
      <trkpt lat="48.70959" lon="7.28565">
        <ele>370.3</ele>
        <time>2020-05-10T14:18:36Z</time>
      </trkpt>
      <trkpt lat="48.70953" lon="7.28559">
        <ele>368.9</ele>
        <time>2020-05-10T14:18:38Z</time>
      </trkpt>
      <trkpt lat="48.70948" lon="7.28553">
        <ele>367.4</ele>
        <time>2020-05-10T14:18:40Z</time>
      </trkpt>
      <trkpt lat="48.70946" lon="7.2855">
        <ele>367.1</ele>
        <time>2020-05-10T14:18:41Z</time>
      </trkpt>
      <trkpt lat="48.70945" lon="7.28549">
        <ele>367.1</ele>
        <time>2020-05-10T14:18:42Z</time>
      </trkpt>
      <trkpt lat="48.7094" lon="7.28545">
        <ele>366.9</ele>
        <time>2020-05-10T14:18:44Z</time>
      </trkpt>
      <trkpt lat="48.70936" lon="7.28542">
        <ele>365.9</ele>
        <time>2020-05-10T14:18:45Z</time>
      </trkpt>
      <trkpt lat="48.70935" lon="7.28542">
        <ele>366</ele>
        <time>2020-05-10T14:18:46Z</time>
      </trkpt>
      <trkpt lat="48.70932" lon="7.28542">
        <ele>365.1</ele>
        <time>2020-05-10T14:18:47Z</time>
      </trkpt>
      <trkpt lat="48.70926" lon="7.28539">
        <ele>364.5</ele>
        <time>2020-05-10T14:18:49Z</time>
      </trkpt>
      <trkpt lat="48.70923" lon="7.28537">
        <ele>362.7</ele>
        <time>2020-05-10T14:18:50Z</time>
      </trkpt>
      <trkpt lat="48.70921" lon="7.28537">
        <ele>362.7</ele>
        <time>2020-05-10T14:18:51Z</time>
      </trkpt>
      <trkpt lat="48.70918" lon="7.28536">
        <ele>361.8</ele>
        <time>2020-05-10T14:18:52Z</time>
      </trkpt>
      <trkpt lat="48.70913" lon="7.28533">
        <ele>361.2</ele>
        <time>2020-05-10T14:18:54Z</time>
      </trkpt>
      <trkpt lat="48.70909" lon="7.28532">
        <ele>360.5</ele>
        <time>2020-05-10T14:18:55Z</time>
      </trkpt>
      <trkpt lat="48.70908" lon="7.28531">
        <ele>359.9</ele>
        <time>2020-05-10T14:18:56Z</time>
      </trkpt>
      <trkpt lat="48.70905" lon="7.2853">
        <ele>360.5</ele>
        <time>2020-05-10T14:18:58Z</time>
      </trkpt>
      <trkpt lat="48.709" lon="7.28529">
        <ele>359.6</ele>
        <time>2020-05-10T14:19:00Z</time>
      </trkpt>
      <trkpt lat="48.70896" lon="7.28527">
        <ele>359.2</ele>
        <time>2020-05-10T14:19:02Z</time>
      </trkpt>
      <trkpt lat="48.70894" lon="7.28526">
        <ele>360.1</ele>
        <time>2020-05-10T14:19:03Z</time>
      </trkpt>
      <trkpt lat="48.7089" lon="7.28525">
        <ele>359.9</ele>
        <time>2020-05-10T14:19:05Z</time>
      </trkpt>
      <trkpt lat="48.70887" lon="7.28522">
        <ele>360.9</ele>
        <time>2020-05-10T14:19:06Z</time>
      </trkpt>
      <trkpt lat="48.70881" lon="7.2852">
        <ele>360.7</ele>
        <time>2020-05-10T14:19:08Z</time>
      </trkpt>
      <trkpt lat="48.70877" lon="7.2852">
        <ele>360.7</ele>
        <time>2020-05-10T14:19:09Z</time>
      </trkpt>
      <trkpt lat="48.70868" lon="7.28521">
        <ele>361.1</ele>
        <time>2020-05-10T14:19:11Z</time>
      </trkpt>
      <trkpt lat="48.7086" lon="7.28523">
        <ele>360.4</ele>
        <time>2020-05-10T14:19:13Z</time>
      </trkpt>
      <trkpt lat="48.70853" lon="7.28525">
        <ele>360.9</ele>
        <time>2020-05-10T14:19:15Z</time>
      </trkpt>
      <trkpt lat="48.70849" lon="7.28526">
        <ele>361.5</ele>
        <time>2020-05-10T14:19:16Z</time>
      </trkpt>
      <trkpt lat="48.70844" lon="7.28528">
        <ele>360.6</ele>
        <time>2020-05-10T14:19:17Z</time>
      </trkpt>
      <trkpt lat="48.70837" lon="7.28531">
        <ele>361.6</ele>
        <time>2020-05-10T14:19:19Z</time>
      </trkpt>
      <trkpt lat="48.70833" lon="7.28532">
        <ele>360.5</ele>
        <time>2020-05-10T14:19:20Z</time>
      </trkpt>
      <trkpt lat="48.70827" lon="7.28535">
        <ele>361</ele>
        <time>2020-05-10T14:19:22Z</time>
      </trkpt>
      <trkpt lat="48.70824" lon="7.28535">
        <ele>361.4</ele>
        <time>2020-05-10T14:19:23Z</time>
      </trkpt>
      <trkpt lat="48.70817" lon="7.28536">
        <ele>360.3</ele>
        <time>2020-05-10T14:19:25Z</time>
      </trkpt>
      <trkpt lat="48.70811" lon="7.28537">
        <ele>360.5</ele>
        <time>2020-05-10T14:19:27Z</time>
      </trkpt>
      <trkpt lat="48.70808" lon="7.28538">
        <ele>360.6</ele>
        <time>2020-05-10T14:19:28Z</time>
      </trkpt>
      <trkpt lat="48.70803" lon="7.28539">
        <ele>360.8</ele>
        <time>2020-05-10T14:19:29Z</time>
      </trkpt>
      <trkpt lat="48.70799" lon="7.2854">
        <ele>359.6</ele>
        <time>2020-05-10T14:19:30Z</time>
      </trkpt>
      <trkpt lat="48.70794" lon="7.28543">
        <ele>359.8</ele>
        <time>2020-05-10T14:19:31Z</time>
      </trkpt>
      <trkpt lat="48.70789" lon="7.28545">
        <ele>359</ele>
        <time>2020-05-10T14:19:32Z</time>
      </trkpt>
      <trkpt lat="48.70784" lon="7.28547">
        <ele>359.2</ele>
        <time>2020-05-10T14:19:34Z</time>
      </trkpt>
      <trkpt lat="48.70783" lon="7.28548">
        <ele>358.4</ele>
        <time>2020-05-10T14:19:35Z</time>
      </trkpt>
      <trkpt lat="48.70776" lon="7.28551">
        <ele>358.8</ele>
        <time>2020-05-10T14:19:37Z</time>
      </trkpt>
      <trkpt lat="48.70772" lon="7.28552">
        <ele>359.3</ele>
        <time>2020-05-10T14:19:38Z</time>
      </trkpt>
      <trkpt lat="48.7077" lon="7.28552">
        <ele>359.6</ele>
        <time>2020-05-10T14:19:39Z</time>
      </trkpt>
      <trkpt lat="48.70762" lon="7.28554">
        <ele>359</ele>
        <time>2020-05-10T14:19:41Z</time>
      </trkpt>
      <trkpt lat="48.70753" lon="7.28556">
        <ele>359.6</ele>
        <time>2020-05-10T14:19:43Z</time>
      </trkpt>
      <trkpt lat="48.70748" lon="7.28555">
        <ele>359.8</ele>
        <time>2020-05-10T14:19:44Z</time>
      </trkpt>
      <trkpt lat="48.70744" lon="7.28555">
        <ele>360</ele>
        <time>2020-05-10T14:19:45Z</time>
      </trkpt>
      <trkpt lat="48.70739" lon="7.28556">
        <ele>360</ele>
        <time>2020-05-10T14:19:47Z</time>
      </trkpt>
      <trkpt lat="48.70735" lon="7.28556">
        <ele>360</ele>
        <time>2020-05-10T14:19:49Z</time>
      </trkpt>
      <trkpt lat="48.70733" lon="7.28555">
        <ele>359.9</ele>
        <time>2020-05-10T14:19:50Z</time>
      </trkpt>
      <trkpt lat="48.70728" lon="7.28553">
        <ele>359.6</ele>
        <time>2020-05-10T14:19:52Z</time>
      </trkpt>
      <trkpt lat="48.70725" lon="7.28553">
        <ele>359.4</ele>
        <time>2020-05-10T14:19:53Z</time>
      </trkpt>
      <trkpt lat="48.70721" lon="7.28552">
        <ele>359.9</ele>
        <time>2020-05-10T14:19:54Z</time>
      </trkpt>
      <trkpt lat="48.70713" lon="7.28549">
        <ele>358.8</ele>
        <time>2020-05-10T14:19:56Z</time>
      </trkpt>
      <trkpt lat="48.7071" lon="7.28546">
        <ele>359</ele>
        <time>2020-05-10T14:19:57Z</time>
      </trkpt>
      <trkpt lat="48.70704" lon="7.28542">
        <ele>358.8</ele>
        <time>2020-05-10T14:19:59Z</time>
      </trkpt>
      <trkpt lat="48.70699" lon="7.28538">
        <ele>358.3</ele>
        <time>2020-05-10T14:20:01Z</time>
      </trkpt>
      <trkpt lat="48.70694" lon="7.28532">
        <ele>358.3</ele>
        <time>2020-05-10T14:20:03Z</time>
      </trkpt>
      <trkpt lat="48.70693" lon="7.28529">
        <ele>358.1</ele>
        <time>2020-05-10T14:20:04Z</time>
      </trkpt>
      <trkpt lat="48.70688" lon="7.28522">
        <ele>358.4</ele>
        <time>2020-05-10T14:20:06Z</time>
      </trkpt>
      <trkpt lat="48.70686" lon="7.28519">
        <ele>357.6</ele>
        <time>2020-05-10T14:20:07Z</time>
      </trkpt>
      <trkpt lat="48.70681" lon="7.28513">
        <ele>357</ele>
        <time>2020-05-10T14:20:09Z</time>
      </trkpt>
      <trkpt lat="48.7068" lon="7.2851">
        <ele>357</ele>
        <time>2020-05-10T14:20:10Z</time>
      </trkpt>
      <trkpt lat="48.70678" lon="7.28503">
        <ele>357.1</ele>
        <time>2020-05-10T14:20:12Z</time>
      </trkpt>
      <trkpt lat="48.70678" lon="7.28497">
        <ele>357.7</ele>
        <time>2020-05-10T14:20:13Z</time>
      </trkpt>
      <trkpt lat="48.70677" lon="7.2849">
        <ele>358.8</ele>
        <time>2020-05-10T14:20:15Z</time>
      </trkpt>
      <trkpt lat="48.70677" lon="7.2849">
        <ele>358.8</ele>
        <time>2020-05-10T14:20:17Z</time>
      </trkpt>
      <trkpt lat="48.70677" lon="7.28492">
        <ele>358.8</ele>
        <time>2020-05-10T14:20:19Z</time>
      </trkpt>
      <trkpt lat="48.70677" lon="7.28492">
        <ele>358.3</ele>
        <time>2020-05-10T14:20:20Z</time>
      </trkpt>
      <trkpt lat="48.70676" lon="7.28493">
        <ele>357.3</ele>
        <time>2020-05-10T14:20:22Z</time>
      </trkpt>
      <trkpt lat="48.70676" lon="7.28493">
        <ele>357.4</ele>
        <time>2020-05-10T14:20:24Z</time>
      </trkpt>
      <trkpt lat="48.70676" lon="7.28493">
        <ele>357.4</ele>
        <time>2020-05-10T14:20:25Z</time>
      </trkpt>
      <trkpt lat="48.70676" lon="7.28493">
        <ele>357.4</ele>
        <time>2020-05-10T14:20:26Z</time>
      </trkpt>
      <trkpt lat="48.70676" lon="7.28493">
        <ele>357.4</ele>
        <time>2020-05-10T14:20:28Z</time>
      </trkpt>
      <trkpt lat="48.70676" lon="7.28493">
        <ele>357.4</ele>
        <time>2020-05-10T14:20:29Z</time>
      </trkpt>
      <trkpt lat="48.70676" lon="7.28493">
        <ele>357.5</ele>
        <time>2020-05-10T14:20:31Z</time>
      </trkpt>
      <trkpt lat="48.70672" lon="7.28486">
        <ele>357.4</ele>
        <time>2020-05-10T14:20:42Z</time>
      </trkpt>
      <trkpt lat="48.70671" lon="7.28483">
        <ele>357.9</ele>
        <time>2020-05-10T14:20:43Z</time>
      </trkpt>
      <trkpt lat="48.7067" lon="7.28476">
        <ele>357.3</ele>
        <time>2020-05-10T14:20:45Z</time>
      </trkpt>
      <trkpt lat="48.70667" lon="7.28468">
        <ele>356.9</ele>
        <time>2020-05-10T14:20:47Z</time>
      </trkpt>
      <trkpt lat="48.70665" lon="7.28466">
        <ele>356.1</ele>
        <time>2020-05-10T14:20:49Z</time>
      </trkpt>
      <trkpt lat="48.70665" lon="7.28467">
        <ele>355.8</ele>
        <time>2020-05-10T14:20:50Z</time>
      </trkpt>
      <trkpt lat="48.70665" lon="7.28467">
        <ele>355.8</ele>
        <time>2020-05-10T14:20:51Z</time>
      </trkpt>
      <trkpt lat="48.70664" lon="7.28467">
        <ele>355.8</ele>
        <time>2020-05-10T14:20:52Z</time>
      </trkpt>
      <trkpt lat="48.70664" lon="7.28465">
        <ele>356.2</ele>
        <time>2020-05-10T14:20:54Z</time>
      </trkpt>
      <trkpt lat="48.70665" lon="7.28464">
        <ele>356.2</ele>
        <time>2020-05-10T14:20:55Z</time>
      </trkpt>
      <trkpt lat="48.70666" lon="7.28463">
        <ele>357.5</ele>
        <time>2020-05-10T14:20:57Z</time>
      </trkpt>
      <trkpt lat="48.70666" lon="7.28463">
        <ele>357.5</ele>
        <time>2020-05-10T14:20:58Z</time>
      </trkpt>
      <trkpt lat="48.70666" lon="7.28463">
        <ele>357.5</ele>
        <time>2020-05-10T14:21:00Z</time>
      </trkpt>
      <trkpt lat="48.70665" lon="7.28461">
        <ele>356.7</ele>
        <time>2020-05-10T14:21:02Z</time>
      </trkpt>
      <trkpt lat="48.70664" lon="7.28459">
        <ele>356.7</ele>
        <time>2020-05-10T14:21:03Z</time>
      </trkpt>
      <trkpt lat="48.70662" lon="7.2845">
        <ele>356.4</ele>
        <time>2020-05-10T14:21:05Z</time>
      </trkpt>
      <trkpt lat="48.7066" lon="7.28443">
        <ele>357.1</ele>
        <time>2020-05-10T14:21:06Z</time>
      </trkpt>
      <trkpt lat="48.70656" lon="7.28428">
        <ele>355.5</ele>
        <time>2020-05-10T14:21:08Z</time>
      </trkpt>
      <trkpt lat="48.70654" lon="7.28422">
        <ele>355.7</ele>
        <time>2020-05-10T14:21:09Z</time>
      </trkpt>
      <trkpt lat="48.70649" lon="7.28409">
        <ele>353.4</ele>
        <time>2020-05-10T14:21:11Z</time>
      </trkpt>
      <trkpt lat="48.70645" lon="7.28395">
        <ele>351.3</ele>
        <time>2020-05-10T14:21:13Z</time>
      </trkpt>
      <trkpt lat="48.70644" lon="7.28389">
        <ele>351.5</ele>
        <time>2020-05-10T14:21:14Z</time>
      </trkpt>
      <trkpt lat="48.70645" lon="7.28377">
        <ele>351.8</ele>
        <time>2020-05-10T14:21:16Z</time>
      </trkpt>
      <trkpt lat="48.70643" lon="7.28363">
        <ele>351.5</ele>
        <time>2020-05-10T14:21:18Z</time>
      </trkpt>
      <trkpt lat="48.70641" lon="7.28356">
        <ele>350.1</ele>
        <time>2020-05-10T14:21:19Z</time>
      </trkpt>
      <trkpt lat="48.70639" lon="7.28341">
        <ele>348.1</ele>
        <time>2020-05-10T14:21:21Z</time>
      </trkpt>
      <trkpt lat="48.70641" lon="7.28325">
        <ele>348.3</ele>
        <time>2020-05-10T14:21:23Z</time>
      </trkpt>
      <trkpt lat="48.70642" lon="7.28305">
        <ele>349.1</ele>
        <time>2020-05-10T14:21:25Z</time>
      </trkpt>
      <trkpt lat="48.70643" lon="7.28286">
        <ele>350.3</ele>
        <time>2020-05-10T14:21:27Z</time>
      </trkpt>
      <trkpt lat="48.70643" lon="7.28278">
        <ele>350.8</ele>
        <time>2020-05-10T14:21:28Z</time>
      </trkpt>
      <trkpt lat="48.70642" lon="7.2827">
        <ele>351.2</ele>
        <time>2020-05-10T14:21:29Z</time>
      </trkpt>
      <trkpt lat="48.70644" lon="7.28255">
        <ele>352.1</ele>
        <time>2020-05-10T14:21:31Z</time>
      </trkpt>
      <trkpt lat="48.70647" lon="7.28237">
        <ele>352.9</ele>
        <time>2020-05-10T14:21:33Z</time>
      </trkpt>
      <trkpt lat="48.70649" lon="7.28219">
        <ele>353.6</ele>
        <time>2020-05-10T14:21:35Z</time>
      </trkpt>
      <trkpt lat="48.70654" lon="7.28206">
        <ele>354</ele>
        <time>2020-05-10T14:21:37Z</time>
      </trkpt>
      <trkpt lat="48.70661" lon="7.28197">
        <ele>354.3</ele>
        <time>2020-05-10T14:21:39Z</time>
      </trkpt>
      <trkpt lat="48.70666" lon="7.28189">
        <ele>354.6</ele>
        <time>2020-05-10T14:21:41Z</time>
      </trkpt>
      <trkpt lat="48.70668" lon="7.28186">
        <ele>354.7</ele>
        <time>2020-05-10T14:21:42Z</time>
      </trkpt>
      <trkpt lat="48.70674" lon="7.2818">
        <ele>355</ele>
        <time>2020-05-10T14:21:44Z</time>
      </trkpt>
      <trkpt lat="48.70677" lon="7.28174">
        <ele>355.2</ele>
        <time>2020-05-10T14:21:46Z</time>
      </trkpt>
      <trkpt lat="48.70678" lon="7.28169">
        <ele>355.4</ele>
        <time>2020-05-10T14:21:47Z</time>
      </trkpt>
      <trkpt lat="48.7068" lon="7.2816">
        <ele>355.7</ele>
        <time>2020-05-10T14:21:49Z</time>
      </trkpt>
      <trkpt lat="48.70681" lon="7.28155">
        <ele>355.8</ele>
        <time>2020-05-10T14:21:50Z</time>
      </trkpt>
      <trkpt lat="48.70684" lon="7.28148">
        <ele>356.1</ele>
        <time>2020-05-10T14:21:52Z</time>
      </trkpt>
      <trkpt lat="48.70688" lon="7.28139">
        <ele>356.4</ele>
        <time>2020-05-10T14:21:54Z</time>
      </trkpt>
      <trkpt lat="48.70692" lon="7.28133">
        <ele>356.7</ele>
        <time>2020-05-10T14:21:56Z</time>
      </trkpt>
      <trkpt lat="48.70695" lon="7.28124">
        <ele>357</ele>
        <time>2020-05-10T14:21:58Z</time>
      </trkpt>
      <trkpt lat="48.70699" lon="7.28113">
        <ele>357.4</ele>
        <time>2020-05-10T14:22:00Z</time>
      </trkpt>
      <trkpt lat="48.707" lon="7.28109">
        <ele>357.5</ele>
        <time>2020-05-10T14:22:01Z</time>
      </trkpt>
      <trkpt lat="48.70703" lon="7.28102">
        <ele>357.9</ele>
        <time>2020-05-10T14:22:03Z</time>
      </trkpt>
      <trkpt lat="48.70706" lon="7.28098">
        <ele>358.1</ele>
        <time>2020-05-10T14:22:04Z</time>
      </trkpt>
      <trkpt lat="48.70708" lon="7.28093">
        <ele>358.4</ele>
        <time>2020-05-10T14:22:05Z</time>
      </trkpt>
      <trkpt lat="48.70713" lon="7.28086">
        <ele>358.8</ele>
        <time>2020-05-10T14:22:07Z</time>
      </trkpt>
      <trkpt lat="48.70718" lon="7.28079">
        <ele>359.2</ele>
        <time>2020-05-10T14:22:09Z</time>
      </trkpt>
      <trkpt lat="48.70722" lon="7.28072">
        <ele>359.7</ele>
        <time>2020-05-10T14:22:11Z</time>
      </trkpt>
      <trkpt lat="48.70724" lon="7.28069">
        <ele>359.8</ele>
        <time>2020-05-10T14:22:12Z</time>
      </trkpt>
      <trkpt lat="48.70729" lon="7.28062">
        <ele>360.1</ele>
        <time>2020-05-10T14:22:14Z</time>
      </trkpt>
      <trkpt lat="48.70731" lon="7.2806">
        <ele>360.3</ele>
        <time>2020-05-10T14:22:15Z</time>
      </trkpt>
      <trkpt lat="48.70736" lon="7.28053">
        <ele>360.6</ele>
        <time>2020-05-10T14:22:17Z</time>
      </trkpt>
      <trkpt lat="48.70741" lon="7.28047">
        <ele>361</ele>
        <time>2020-05-10T14:22:19Z</time>
      </trkpt>
      <trkpt lat="48.70745" lon="7.28039">
        <ele>361.3</ele>
        <time>2020-05-10T14:22:21Z</time>
      </trkpt>
      <trkpt lat="48.70747" lon="7.28034">
        <ele>361.5</ele>
        <time>2020-05-10T14:22:22Z</time>
      </trkpt>
      <trkpt lat="48.70749" lon="7.28031">
        <ele>361.6</ele>
        <time>2020-05-10T14:22:23Z</time>
      </trkpt>
      <trkpt lat="48.70753" lon="7.28024">
        <ele>361.9</ele>
        <time>2020-05-10T14:22:25Z</time>
      </trkpt>
      <trkpt lat="48.70756" lon="7.28018">
        <ele>362.1</ele>
        <time>2020-05-10T14:22:27Z</time>
      </trkpt>
      <trkpt lat="48.70759" lon="7.28014">
        <ele>362.2</ele>
        <time>2020-05-10T14:22:29Z</time>
      </trkpt>
      <trkpt lat="48.70762" lon="7.28012">
        <ele>362.3</ele>
        <time>2020-05-10T14:22:30Z</time>
      </trkpt>
      <trkpt lat="48.70766" lon="7.28005">
        <ele>362.5</ele>
        <time>2020-05-10T14:22:32Z</time>
      </trkpt>
      <trkpt lat="48.70768" lon="7.28001">
        <ele>362.6</ele>
        <time>2020-05-10T14:22:33Z</time>
      </trkpt>
      <trkpt lat="48.70771" lon="7.27992">
        <ele>363</ele>
        <time>2020-05-10T14:22:35Z</time>
      </trkpt>
      <trkpt lat="48.70774" lon="7.27986">
        <ele>363.4</ele>
        <time>2020-05-10T14:22:37Z</time>
      </trkpt>
      <trkpt lat="48.7078" lon="7.27981">
        <ele>363.9</ele>
        <time>2020-05-10T14:22:39Z</time>
      </trkpt>
      <trkpt lat="48.70782" lon="7.27979">
        <ele>364.2</ele>
        <time>2020-05-10T14:22:40Z</time>
      </trkpt>
      <trkpt lat="48.70784" lon="7.27976">
        <ele>364.4</ele>
        <time>2020-05-10T14:22:41Z</time>
      </trkpt>
      <trkpt lat="48.70789" lon="7.2797">
        <ele>364.9</ele>
        <time>2020-05-10T14:22:43Z</time>
      </trkpt>
      <trkpt lat="48.70791" lon="7.27967">
        <ele>365.1</ele>
        <time>2020-05-10T14:22:44Z</time>
      </trkpt>
      <trkpt lat="48.70795" lon="7.2796">
        <ele>365.4</ele>
        <time>2020-05-10T14:22:46Z</time>
      </trkpt>
      <trkpt lat="48.70797" lon="7.27957">
        <ele>365.6</ele>
        <time>2020-05-10T14:22:47Z</time>
      </trkpt>
      <trkpt lat="48.70801" lon="7.27949">
        <ele>365.8</ele>
        <time>2020-05-10T14:22:49Z</time>
      </trkpt>
      <trkpt lat="48.70803" lon="7.27946">
        <ele>365.9</ele>
        <time>2020-05-10T14:22:50Z</time>
      </trkpt>
      <trkpt lat="48.70805" lon="7.27938">
        <ele>366</ele>
        <time>2020-05-10T14:22:52Z</time>
      </trkpt>
      <trkpt lat="48.7081" lon="7.27931">
        <ele>366.1</ele>
        <time>2020-05-10T14:22:54Z</time>
      </trkpt>
      <trkpt lat="48.70811" lon="7.27927">
        <ele>366.1</ele>
        <time>2020-05-10T14:22:55Z</time>
      </trkpt>
      <trkpt lat="48.70811" lon="7.27925">
        <ele>366.1</ele>
        <time>2020-05-10T14:22:56Z</time>
      </trkpt>
      <trkpt lat="48.70813" lon="7.27917">
        <ele>366.1</ele>
        <time>2020-05-10T14:22:58Z</time>
      </trkpt>
      <trkpt lat="48.70816" lon="7.27909">
        <ele>366.1</ele>
        <time>2020-05-10T14:23:00Z</time>
      </trkpt>
      <trkpt lat="48.70818" lon="7.27904">
        <ele>366.1</ele>
        <time>2020-05-10T14:23:01Z</time>
      </trkpt>
      <trkpt lat="48.70822" lon="7.27895">
        <ele>366.3</ele>
        <time>2020-05-10T14:23:03Z</time>
      </trkpt>
      <trkpt lat="48.70823" lon="7.27891">
        <ele>366.3</ele>
        <time>2020-05-10T14:23:04Z</time>
      </trkpt>
      <trkpt lat="48.70825" lon="7.27882">
        <ele>366.5</ele>
        <time>2020-05-10T14:23:06Z</time>
      </trkpt>
      <trkpt lat="48.70827" lon="7.27873">
        <ele>366.7</ele>
        <time>2020-05-10T14:23:08Z</time>
      </trkpt>
      <trkpt lat="48.70828" lon="7.27864">
        <ele>367</ele>
        <time>2020-05-10T14:23:10Z</time>
      </trkpt>
      <trkpt lat="48.7083" lon="7.27856">
        <ele>367.2</ele>
        <time>2020-05-10T14:23:12Z</time>
      </trkpt>
      <trkpt lat="48.70832" lon="7.27851">
        <ele>367.4</ele>
        <time>2020-05-10T14:23:13Z</time>
      </trkpt>
      <trkpt lat="48.70833" lon="7.27847">
        <ele>367.6</ele>
        <time>2020-05-10T14:23:14Z</time>
      </trkpt>
      <trkpt lat="48.70834" lon="7.27845">
        <ele>367.7</ele>
        <time>2020-05-10T14:23:15Z</time>
      </trkpt>
      <trkpt lat="48.70836" lon="7.27839">
        <ele>368</ele>
        <time>2020-05-10T14:23:17Z</time>
      </trkpt>
      <trkpt lat="48.70838" lon="7.27833">
        <ele>368.3</ele>
        <time>2020-05-10T14:23:19Z</time>
      </trkpt>
      <trkpt lat="48.7084" lon="7.27829">
        <ele>368.5</ele>
        <time>2020-05-10T14:23:20Z</time>
      </trkpt>
      <trkpt lat="48.70841" lon="7.27828">
        <ele>368.6</ele>
        <time>2020-05-10T14:23:21Z</time>
      </trkpt>
      <trkpt lat="48.70843" lon="7.2782">
        <ele>369</ele>
        <time>2020-05-10T14:23:23Z</time>
      </trkpt>
      <trkpt lat="48.70844" lon="7.27815">
        <ele>369.3</ele>
        <time>2020-05-10T14:23:24Z</time>
      </trkpt>
      <trkpt lat="48.70845" lon="7.27808">
        <ele>369.6</ele>
        <time>2020-05-10T14:23:26Z</time>
      </trkpt>
      <trkpt lat="48.70848" lon="7.27801">
        <ele>370</ele>
        <time>2020-05-10T14:23:28Z</time>
      </trkpt>
      <trkpt lat="48.7085" lon="7.27794">
        <ele>370.4</ele>
        <time>2020-05-10T14:23:30Z</time>
      </trkpt>
      <trkpt lat="48.70851" lon="7.27789">
        <ele>370.7</ele>
        <time>2020-05-10T14:23:31Z</time>
      </trkpt>
      <trkpt lat="48.70851" lon="7.27785">
        <ele>370.9</ele>
        <time>2020-05-10T14:23:32Z</time>
      </trkpt>
      <trkpt lat="48.70851" lon="7.27779">
        <ele>371.2</ele>
        <time>2020-05-10T14:23:34Z</time>
      </trkpt>
      <trkpt lat="48.70854" lon="7.27773">
        <ele>371.5</ele>
        <time>2020-05-10T14:23:36Z</time>
      </trkpt>
      <trkpt lat="48.70855" lon="7.27771">
        <ele>371.6</ele>
        <time>2020-05-10T14:23:37Z</time>
      </trkpt>
      <trkpt lat="48.70857" lon="7.27764">
        <ele>371.9</ele>
        <time>2020-05-10T14:23:39Z</time>
      </trkpt>
      <trkpt lat="48.70859" lon="7.27756">
        <ele>372.3</ele>
        <time>2020-05-10T14:23:41Z</time>
      </trkpt>
      <trkpt lat="48.7086" lon="7.27751">
        <ele>372.5</ele>
        <time>2020-05-10T14:23:42Z</time>
      </trkpt>
      <trkpt lat="48.70861" lon="7.27749">
        <ele>372.6</ele>
        <time>2020-05-10T14:23:43Z</time>
      </trkpt>
      <trkpt lat="48.70862" lon="7.27745">
        <ele>372.8</ele>
        <time>2020-05-10T14:23:44Z</time>
      </trkpt>
      <trkpt lat="48.70867" lon="7.27738">
        <ele>373.3</ele>
        <time>2020-05-10T14:23:46Z</time>
      </trkpt>
      <trkpt lat="48.70871" lon="7.27731">
        <ele>373.8</ele>
        <time>2020-05-10T14:23:48Z</time>
      </trkpt>
      <trkpt lat="48.70875" lon="7.27723">
        <ele>374.3</ele>
        <time>2020-05-10T14:23:50Z</time>
      </trkpt>
      <trkpt lat="48.70877" lon="7.2772">
        <ele>374.6</ele>
        <time>2020-05-10T14:23:51Z</time>
      </trkpt>
      <trkpt lat="48.70881" lon="7.27714">
        <ele>375.1</ele>
        <time>2020-05-10T14:23:53Z</time>
      </trkpt>
      <trkpt lat="48.70884" lon="7.27705">
        <ele>375.8</ele>
        <time>2020-05-10T14:23:55Z</time>
      </trkpt>
      <trkpt lat="48.70886" lon="7.27698">
        <ele>376.3</ele>
        <time>2020-05-10T14:23:57Z</time>
      </trkpt>
      <trkpt lat="48.70888" lon="7.27688">
        <ele>376.8</ele>
        <time>2020-05-10T14:23:59Z</time>
      </trkpt>
      <trkpt lat="48.70892" lon="7.2768">
        <ele>377.3</ele>
        <time>2020-05-10T14:24:01Z</time>
      </trkpt>
      <trkpt lat="48.70894" lon="7.27676">
        <ele>377.5</ele>
        <time>2020-05-10T14:24:02Z</time>
      </trkpt>
      <trkpt lat="48.70895" lon="7.27672">
        <ele>377.6</ele>
        <time>2020-05-10T14:24:03Z</time>
      </trkpt>
      <trkpt lat="48.70897" lon="7.27669">
        <ele>377.8</ele>
        <time>2020-05-10T14:24:04Z</time>
      </trkpt>
      <trkpt lat="48.70901" lon="7.27661">
        <ele>378.1</ele>
        <time>2020-05-10T14:24:06Z</time>
      </trkpt>
      <trkpt lat="48.70903" lon="7.27657">
        <ele>378.3</ele>
        <time>2020-05-10T14:24:07Z</time>
      </trkpt>
      <trkpt lat="48.70905" lon="7.27652">
        <ele>378.5</ele>
        <time>2020-05-10T14:24:08Z</time>
      </trkpt>
      <trkpt lat="48.70906" lon="7.27643">
        <ele>378.7</ele>
        <time>2020-05-10T14:24:10Z</time>
      </trkpt>
      <trkpt lat="48.70907" lon="7.27638">
        <ele>378.8</ele>
        <time>2020-05-10T14:24:11Z</time>
      </trkpt>
      <trkpt lat="48.70907" lon="7.27637">
        <ele>378.9</ele>
        <time>2020-05-10T14:24:12Z</time>
      </trkpt>
      <trkpt lat="48.7091" lon="7.2763">
        <ele>379</ele>
        <time>2020-05-10T14:24:14Z</time>
      </trkpt>
      <trkpt lat="48.70913" lon="7.27624">
        <ele>379.2</ele>
        <time>2020-05-10T14:24:16Z</time>
      </trkpt>
      <trkpt lat="48.70914" lon="7.27619">
        <ele>379.3</ele>
        <time>2020-05-10T14:24:17Z</time>
      </trkpt>
      <trkpt lat="48.70916" lon="7.27614">
        <ele>379.5</ele>
        <time>2020-05-10T14:24:18Z</time>
      </trkpt>
      <trkpt lat="48.70916" lon="7.27612">
        <ele>379.6</ele>
        <time>2020-05-10T14:24:19Z</time>
      </trkpt>
      <trkpt lat="48.70919" lon="7.27604">
        <ele>380</ele>
        <time>2020-05-10T14:24:21Z</time>
      </trkpt>
      <trkpt lat="48.70922" lon="7.27598">
        <ele>380.3</ele>
        <time>2020-05-10T14:24:23Z</time>
      </trkpt>
      <trkpt lat="48.70922" lon="7.27595">
        <ele>380.5</ele>
        <time>2020-05-10T14:24:24Z</time>
      </trkpt>
      <trkpt lat="48.70925" lon="7.27587">
        <ele>380.9</ele>
        <time>2020-05-10T14:24:26Z</time>
      </trkpt>
      <trkpt lat="48.70926" lon="7.27583">
        <ele>381.1</ele>
        <time>2020-05-10T14:24:27Z</time>
      </trkpt>
      <trkpt lat="48.70929" lon="7.27576">
        <ele>381.5</ele>
        <time>2020-05-10T14:24:29Z</time>
      </trkpt>
      <trkpt lat="48.7093" lon="7.27572">
        <ele>381.7</ele>
        <time>2020-05-10T14:24:30Z</time>
      </trkpt>
      <trkpt lat="48.70932" lon="7.27567">
        <ele>382</ele>
        <time>2020-05-10T14:24:32Z</time>
      </trkpt>
      <trkpt lat="48.70934" lon="7.27562">
        <ele>382.3</ele>
        <time>2020-05-10T14:24:33Z</time>
      </trkpt>
      <trkpt lat="48.70935" lon="7.27559">
        <ele>382.5</ele>
        <time>2020-05-10T14:24:34Z</time>
      </trkpt>
      <trkpt lat="48.70937" lon="7.27552">
        <ele>382.9</ele>
        <time>2020-05-10T14:24:36Z</time>
      </trkpt>
      <trkpt lat="48.70939" lon="7.27548">
        <ele>383.1</ele>
        <time>2020-05-10T14:24:37Z</time>
      </trkpt>
      <trkpt lat="48.70942" lon="7.2754">
        <ele>383.6</ele>
        <time>2020-05-10T14:24:39Z</time>
      </trkpt>
      <trkpt lat="48.70943" lon="7.27537">
        <ele>383.8</ele>
        <time>2020-05-10T14:24:40Z</time>
      </trkpt>
      <trkpt lat="48.70944" lon="7.27533">
        <ele>384</ele>
        <time>2020-05-10T14:24:41Z</time>
      </trkpt>
      <trkpt lat="48.70948" lon="7.27526">
        <ele>384.4</ele>
        <time>2020-05-10T14:24:43Z</time>
      </trkpt>
      <trkpt lat="48.70951" lon="7.27521">
        <ele>384.8</ele>
        <time>2020-05-10T14:24:45Z</time>
      </trkpt>
      <trkpt lat="48.70952" lon="7.27518">
        <ele>385</ele>
        <time>2020-05-10T14:24:46Z</time>
      </trkpt>
      <trkpt lat="48.70955" lon="7.27515">
        <ele>385.4</ele>
        <time>2020-05-10T14:24:48Z</time>
      </trkpt>
      <trkpt lat="48.70956" lon="7.27513">
        <ele>385.6</ele>
        <time>2020-05-10T14:24:49Z</time>
      </trkpt>
      <trkpt lat="48.70959" lon="7.27508">
        <ele>386.1</ele>
        <time>2020-05-10T14:24:51Z</time>
      </trkpt>
      <trkpt lat="48.7096" lon="7.27507">
        <ele>386.3</ele>
        <time>2020-05-10T14:24:52Z</time>
      </trkpt>
      <trkpt lat="48.70964" lon="7.27503">
        <ele>386.8</ele>
        <time>2020-05-10T14:24:54Z</time>
      </trkpt>
      <trkpt lat="48.70967" lon="7.27499">
        <ele>387.4</ele>
        <time>2020-05-10T14:24:56Z</time>
      </trkpt>
      <trkpt lat="48.70968" lon="7.27496">
        <ele>387.7</ele>
        <time>2020-05-10T14:24:57Z</time>
      </trkpt>
      <trkpt lat="48.7097" lon="7.27492">
        <ele>388.1</ele>
        <time>2020-05-10T14:24:59Z</time>
      </trkpt>
      <trkpt lat="48.7097" lon="7.2749">
        <ele>388.3</ele>
        <time>2020-05-10T14:25:00Z</time>
      </trkpt>
      <trkpt lat="48.70972" lon="7.27484">
        <ele>388.8</ele>
        <time>2020-05-10T14:25:02Z</time>
      </trkpt>
      <trkpt lat="48.70973" lon="7.27481">
        <ele>389.1</ele>
        <time>2020-05-10T14:25:03Z</time>
      </trkpt>
      <trkpt lat="48.70975" lon="7.27476">
        <ele>389.5</ele>
        <time>2020-05-10T14:25:05Z</time>
      </trkpt>
      <trkpt lat="48.70977" lon="7.27471">
        <ele>389.9</ele>
        <time>2020-05-10T14:25:07Z</time>
      </trkpt>
      <trkpt lat="48.70979" lon="7.27467">
        <ele>390.1</ele>
        <time>2020-05-10T14:25:08Z</time>
      </trkpt>
      <trkpt lat="48.7098" lon="7.27465">
        <ele>390.2</ele>
        <time>2020-05-10T14:25:09Z</time>
      </trkpt>
      <trkpt lat="48.70982" lon="7.27461">
        <ele>390.5</ele>
        <time>2020-05-10T14:25:11Z</time>
      </trkpt>
      <trkpt lat="48.70983" lon="7.27459">
        <ele>390.6</ele>
        <time>2020-05-10T14:25:12Z</time>
      </trkpt>
      <trkpt lat="48.70985" lon="7.27454">
        <ele>390.9</ele>
        <time>2020-05-10T14:25:14Z</time>
      </trkpt>
      <trkpt lat="48.70987" lon="7.2745">
        <ele>391.2</ele>
        <time>2020-05-10T14:25:15Z</time>
      </trkpt>
      <trkpt lat="48.70988" lon="7.27449">
        <ele>391.3</ele>
        <time>2020-05-10T14:25:16Z</time>
      </trkpt>
      <trkpt lat="48.70989" lon="7.27443">
        <ele>391.6</ele>
        <time>2020-05-10T14:25:18Z</time>
      </trkpt>
      <trkpt lat="48.7099" lon="7.27436">
        <ele>392</ele>
        <time>2020-05-10T14:25:20Z</time>
      </trkpt>
      <trkpt lat="48.70992" lon="7.27433">
        <ele>392.2</ele>
        <time>2020-05-10T14:25:21Z</time>
      </trkpt>
      <trkpt lat="48.70994" lon="7.27427">
        <ele>392.6</ele>
        <time>2020-05-10T14:25:23Z</time>
      </trkpt>
      <trkpt lat="48.70995" lon="7.27425">
        <ele>392.7</ele>
        <time>2020-05-10T14:25:24Z</time>
      </trkpt>
      <trkpt lat="48.70996" lon="7.27423">
        <ele>392.9</ele>
        <time>2020-05-10T14:25:25Z</time>
      </trkpt>
      <trkpt lat="48.70997" lon="7.2742">
        <ele>393</ele>
        <time>2020-05-10T14:25:26Z</time>
      </trkpt>
      <trkpt lat="48.70998" lon="7.27419">
        <ele>393.1</ele>
        <time>2020-05-10T14:25:27Z</time>
      </trkpt>
      <trkpt lat="48.71001" lon="7.27415">
        <ele>393.4</ele>
        <time>2020-05-10T14:25:29Z</time>
      </trkpt>
      <trkpt lat="48.71003" lon="7.27409">
        <ele>393.7</ele>
        <time>2020-05-10T14:25:31Z</time>
      </trkpt>
      <trkpt lat="48.71003" lon="7.27407">
        <ele>393.8</ele>
        <time>2020-05-10T14:25:32Z</time>
      </trkpt>
      <trkpt lat="48.71004" lon="7.27401">
        <ele>394.1</ele>
        <time>2020-05-10T14:25:34Z</time>
      </trkpt>
      <trkpt lat="48.71004" lon="7.27399">
        <ele>394.2</ele>
        <time>2020-05-10T14:25:35Z</time>
      </trkpt>
      <trkpt lat="48.71005" lon="7.27394">
        <ele>394.5</ele>
        <time>2020-05-10T14:25:37Z</time>
      </trkpt>
      <trkpt lat="48.71007" lon="7.27391">
        <ele>394.6</ele>
        <time>2020-05-10T14:25:38Z</time>
      </trkpt>
      <trkpt lat="48.71009" lon="7.27386">
        <ele>394.9</ele>
        <time>2020-05-10T14:25:40Z</time>
      </trkpt>
      <trkpt lat="48.71011" lon="7.27381">
        <ele>395.3</ele>
        <time>2020-05-10T14:25:42Z</time>
      </trkpt>
      <trkpt lat="48.71012" lon="7.27377">
        <ele>395.5</ele>
        <time>2020-05-10T14:25:43Z</time>
      </trkpt>
      <trkpt lat="48.71013" lon="7.27376">
        <ele>395.6</ele>
        <time>2020-05-10T14:25:44Z</time>
      </trkpt>
      <trkpt lat="48.71014" lon="7.2737">
        <ele>396.1</ele>
        <time>2020-05-10T14:25:46Z</time>
      </trkpt>
      <trkpt lat="48.71016" lon="7.27367">
        <ele>396.3</ele>
        <time>2020-05-10T14:25:47Z</time>
      </trkpt>
      <trkpt lat="48.71017" lon="7.2736">
        <ele>396.9</ele>
        <time>2020-05-10T14:25:49Z</time>
      </trkpt>
      <trkpt lat="48.71018" lon="7.27356">
        <ele>397.3</ele>
        <time>2020-05-10T14:25:50Z</time>
      </trkpt>
      <trkpt lat="48.71019" lon="7.27353">
        <ele>397.6</ele>
        <time>2020-05-10T14:25:51Z</time>
      </trkpt>
      <trkpt lat="48.7102" lon="7.27346">
        <ele>398.2</ele>
        <time>2020-05-10T14:25:53Z</time>
      </trkpt>
      <trkpt lat="48.71022" lon="7.27341">
        <ele>398.7</ele>
        <time>2020-05-10T14:25:54Z</time>
      </trkpt>
      <trkpt lat="48.71022" lon="7.27339">
        <ele>398.8</ele>
        <time>2020-05-10T14:25:55Z</time>
      </trkpt>
      <trkpt lat="48.71023" lon="7.27336">
        <ele>399.2</ele>
        <time>2020-05-10T14:25:57Z</time>
      </trkpt>
      <trkpt lat="48.71024" lon="7.27334">
        <ele>399.4</ele>
        <time>2020-05-10T14:25:58Z</time>
      </trkpt>
      <trkpt lat="48.71027" lon="7.27328">
        <ele>400</ele>
        <time>2020-05-10T14:26:00Z</time>
      </trkpt>
      <trkpt lat="48.71029" lon="7.27321">
        <ele>400.5</ele>
        <time>2020-05-10T14:26:02Z</time>
      </trkpt>
      <trkpt lat="48.71031" lon="7.27316">
        <ele>401</ele>
        <time>2020-05-10T14:26:03Z</time>
      </trkpt>
      <trkpt lat="48.71031" lon="7.27314">
        <ele>401.2</ele>
        <time>2020-05-10T14:26:04Z</time>
      </trkpt>
      <trkpt lat="48.71033" lon="7.27311">
        <ele>401.4</ele>
        <time>2020-05-10T14:26:05Z</time>
      </trkpt>
      <trkpt lat="48.71035" lon="7.27306">
        <ele>402</ele>
        <time>2020-05-10T14:26:07Z</time>
      </trkpt>
      <trkpt lat="48.71037" lon="7.27302">
        <ele>402.3</ele>
        <time>2020-05-10T14:26:08Z</time>
      </trkpt>
      <trkpt lat="48.71038" lon="7.27299">
        <ele>402.6</ele>
        <time>2020-05-10T14:26:09Z</time>
      </trkpt>
      <trkpt lat="48.7104" lon="7.27293">
        <ele>403.1</ele>
        <time>2020-05-10T14:26:11Z</time>
      </trkpt>
      <trkpt lat="48.71041" lon="7.2729">
        <ele>403.4</ele>
        <time>2020-05-10T14:26:12Z</time>
      </trkpt>
      <trkpt lat="48.71042" lon="7.27282">
        <ele>404</ele>
        <time>2020-05-10T14:26:14Z</time>
      </trkpt>
      <trkpt lat="48.71044" lon="7.27276">
        <ele>404.6</ele>
        <time>2020-05-10T14:26:16Z</time>
      </trkpt>
      <trkpt lat="48.71045" lon="7.27273">
        <ele>404.9</ele>
        <time>2020-05-10T14:26:17Z</time>
      </trkpt>
      <trkpt lat="48.71048" lon="7.27268">
        <ele>405.5</ele>
        <time>2020-05-10T14:26:19Z</time>
      </trkpt>
      <trkpt lat="48.71049" lon="7.27263">
        <ele>406</ele>
        <time>2020-05-10T14:26:20Z</time>
      </trkpt>
      <trkpt lat="48.7105" lon="7.27261">
        <ele>406.1</ele>
        <time>2020-05-10T14:26:21Z</time>
      </trkpt>
      <trkpt lat="48.71054" lon="7.27256">
        <ele>406.7</ele>
        <time>2020-05-10T14:26:23Z</time>
      </trkpt>
      <trkpt lat="48.71056" lon="7.27253">
        <ele>407</ele>
        <time>2020-05-10T14:26:24Z</time>
      </trkpt>
      <trkpt lat="48.71058" lon="7.27251">
        <ele>407.1</ele>
        <time>2020-05-10T14:26:25Z</time>
      </trkpt>
      <trkpt lat="48.7106" lon="7.27247">
        <ele>407.4</ele>
        <time>2020-05-10T14:26:27Z</time>
      </trkpt>
      <trkpt lat="48.71062" lon="7.27244">
        <ele>407.5</ele>
        <time>2020-05-10T14:26:28Z</time>
      </trkpt>
      <trkpt lat="48.71064" lon="7.27239">
        <ele>407.6</ele>
        <time>2020-05-10T14:26:30Z</time>
      </trkpt>
      <trkpt lat="48.71066" lon="7.27236">
        <ele>407.6</ele>
        <time>2020-05-10T14:26:31Z</time>
      </trkpt>
      <trkpt lat="48.71068" lon="7.2723">
        <ele>407.6</ele>
        <time>2020-05-10T14:26:33Z</time>
      </trkpt>
      <trkpt lat="48.71068" lon="7.27227">
        <ele>407.8</ele>
        <time>2020-05-10T14:26:34Z</time>
      </trkpt>
      <trkpt lat="48.7107" lon="7.27223">
        <ele>408.1</ele>
        <time>2020-05-10T14:26:36Z</time>
      </trkpt>
      <trkpt lat="48.7107" lon="7.2722">
        <ele>408.3</ele>
        <time>2020-05-10T14:26:37Z</time>
      </trkpt>
      <trkpt lat="48.71072" lon="7.27216">
        <ele>408.7</ele>
        <time>2020-05-10T14:26:39Z</time>
      </trkpt>
      <trkpt lat="48.71075" lon="7.27213">
        <ele>409.1</ele>
        <time>2020-05-10T14:26:41Z</time>
      </trkpt>
      <trkpt lat="48.71076" lon="7.27209">
        <ele>409.5</ele>
        <time>2020-05-10T14:26:42Z</time>
      </trkpt>
      <trkpt lat="48.71077" lon="7.27207">
        <ele>409.7</ele>
        <time>2020-05-10T14:26:43Z</time>
      </trkpt>
      <trkpt lat="48.71078" lon="7.27199">
        <ele>410.4</ele>
        <time>2020-05-10T14:26:45Z</time>
      </trkpt>
      <trkpt lat="48.71079" lon="7.27191">
        <ele>411.2</ele>
        <time>2020-05-10T14:26:47Z</time>
      </trkpt>
      <trkpt lat="48.71081" lon="7.27184">
        <ele>411.9</ele>
        <time>2020-05-10T14:26:49Z</time>
      </trkpt>
      <trkpt lat="48.71083" lon="7.27181">
        <ele>412.3</ele>
        <time>2020-05-10T14:26:50Z</time>
      </trkpt>
      <trkpt lat="48.71086" lon="7.27176">
        <ele>412.9</ele>
        <time>2020-05-10T14:26:52Z</time>
      </trkpt>
      <trkpt lat="48.71089" lon="7.2717">
        <ele>413.5</ele>
        <time>2020-05-10T14:26:54Z</time>
      </trkpt>
      <trkpt lat="48.71092" lon="7.27167">
        <ele>414.1</ele>
        <time>2020-05-10T14:26:56Z</time>
      </trkpt>
      <trkpt lat="48.71094" lon="7.27163">
        <ele>414.5</ele>
        <time>2020-05-10T14:26:57Z</time>
      </trkpt>
      <trkpt lat="48.71095" lon="7.27162">
        <ele>414.7</ele>
        <time>2020-05-10T14:26:58Z</time>
      </trkpt>
      <trkpt lat="48.71098" lon="7.27156">
        <ele>415.4</ele>
        <time>2020-05-10T14:27:00Z</time>
      </trkpt>
      <trkpt lat="48.71101" lon="7.27152">
        <ele>415.9</ele>
        <time>2020-05-10T14:27:01Z</time>
      </trkpt>
      <trkpt lat="48.71101" lon="7.2715">
        <ele>416.1</ele>
        <time>2020-05-10T14:27:02Z</time>
      </trkpt>
      <trkpt lat="48.71103" lon="7.27145">
        <ele>416.7</ele>
        <time>2020-05-10T14:27:04Z</time>
      </trkpt>
      <trkpt lat="48.71103" lon="7.27141">
        <ele>416.7</ele>
        <time>2020-05-10T14:27:06Z</time>
      </trkpt>
      <trkpt lat="48.71102" lon="7.27142">
        <ele>416.7</ele>
        <time>2020-05-10T14:27:08Z</time>
      </trkpt>
      <trkpt lat="48.71104" lon="7.27144">
        <ele>416.7</ele>
        <time>2020-05-10T14:27:12Z</time>
      </trkpt>
      <trkpt lat="48.71104" lon="7.27144">
        <ele>416.8</ele>
        <time>2020-05-10T14:27:13Z</time>
      </trkpt>
      <trkpt lat="48.71104" lon="7.27144">
        <ele>416.8</ele>
        <time>2020-05-10T14:27:14Z</time>
      </trkpt>
      <trkpt lat="48.71104" lon="7.27144">
        <ele>416.8</ele>
        <time>2020-05-10T14:27:16Z</time>
      </trkpt>
      <trkpt lat="48.71104" lon="7.27144">
        <ele>416.8</ele>
        <time>2020-05-10T14:27:17Z</time>
      </trkpt>
      <trkpt lat="48.71104" lon="7.27144">
        <ele>416.8</ele>
        <time>2020-05-10T14:27:19Z</time>
      </trkpt>
      <trkpt lat="48.71104" lon="7.27144">
        <ele>416.8</ele>
        <time>2020-05-10T14:27:21Z</time>
      </trkpt>
      <trkpt lat="48.71103" lon="7.27142">
        <ele>416.2</ele>
        <time>2020-05-10T14:27:23Z</time>
      </trkpt>
      <trkpt lat="48.71103" lon="7.27141">
        <ele>416.2</ele>
        <time>2020-05-10T14:27:24Z</time>
      </trkpt>
      <trkpt lat="48.711" lon="7.27135">
        <ele>415.9</ele>
        <time>2020-05-10T14:27:26Z</time>
      </trkpt>
      <trkpt lat="48.71099" lon="7.27128">
        <ele>416.1</ele>
        <time>2020-05-10T14:27:28Z</time>
      </trkpt>
      <trkpt lat="48.71098" lon="7.27126">
        <ele>415.6</ele>
        <time>2020-05-10T14:27:29Z</time>
      </trkpt>
      <trkpt lat="48.71096" lon="7.27121">
        <ele>415.8</ele>
        <time>2020-05-10T14:27:31Z</time>
      </trkpt>
      <trkpt lat="48.71095" lon="7.27118">
        <ele>415.4</ele>
        <time>2020-05-10T14:27:32Z</time>
      </trkpt>
      <trkpt lat="48.71094" lon="7.27111">
        <ele>415.6</ele>
        <time>2020-05-10T14:27:34Z</time>
      </trkpt>
      <trkpt lat="48.71093" lon="7.27109">
        <ele>415.1</ele>
        <time>2020-05-10T14:27:35Z</time>
      </trkpt>
      <trkpt lat="48.71091" lon="7.27108">
        <ele>415.1</ele>
        <time>2020-05-10T14:27:36Z</time>
      </trkpt>
      <trkpt lat="48.71088" lon="7.27103">
        <ele>414.7</ele>
        <time>2020-05-10T14:27:38Z</time>
      </trkpt>
      <trkpt lat="48.71085" lon="7.27096">
        <ele>414.7</ele>
        <time>2020-05-10T14:27:40Z</time>
      </trkpt>
      <trkpt lat="48.71083" lon="7.27091">
        <ele>414.3</ele>
        <time>2020-05-10T14:27:42Z</time>
      </trkpt>
      <trkpt lat="48.71082" lon="7.27088">
        <ele>414</ele>
        <time>2020-05-10T14:27:43Z</time>
      </trkpt>
      <trkpt lat="48.7108" lon="7.27082">
        <ele>414.3</ele>
        <time>2020-05-10T14:27:45Z</time>
      </trkpt>
      <trkpt lat="48.7108" lon="7.27076">
        <ele>414.9</ele>
        <time>2020-05-10T14:27:47Z</time>
      </trkpt>
      <trkpt lat="48.7108" lon="7.27072">
        <ele>414.9</ele>
        <time>2020-05-10T14:27:48Z</time>
      </trkpt>
      <trkpt lat="48.71079" lon="7.27067">
        <ele>415.5</ele>
        <time>2020-05-10T14:27:50Z</time>
      </trkpt>
      <trkpt lat="48.71078" lon="7.27065">
        <ele>414.9</ele>
        <time>2020-05-10T14:27:51Z</time>
      </trkpt>
      <trkpt lat="48.71077" lon="7.27062">
        <ele>415.2</ele>
        <time>2020-05-10T14:27:53Z</time>
      </trkpt>
      <trkpt lat="48.71075" lon="7.27057">
        <ele>415</ele>
        <time>2020-05-10T14:27:55Z</time>
      </trkpt>
      <trkpt lat="48.71074" lon="7.27052">
        <ele>415.4</ele>
        <time>2020-05-10T14:27:56Z</time>
      </trkpt>
      <trkpt lat="48.71074" lon="7.2705">
        <ele>415.4</ele>
        <time>2020-05-10T14:27:57Z</time>
      </trkpt>
      <trkpt lat="48.71073" lon="7.27045">
        <ele>416.2</ele>
        <time>2020-05-10T14:27:59Z</time>
      </trkpt>
      <trkpt lat="48.71073" lon="7.27043">
        <ele>415.6</ele>
        <time>2020-05-10T14:28:00Z</time>
      </trkpt>
      <trkpt lat="48.71072" lon="7.27037">
        <ele>416.4</ele>
        <time>2020-05-10T14:28:02Z</time>
      </trkpt>
      <trkpt lat="48.71071" lon="7.27034">
        <ele>416.4</ele>
        <time>2020-05-10T14:28:03Z</time>
      </trkpt>
      <trkpt lat="48.7107" lon="7.27029">
        <ele>416.2</ele>
        <time>2020-05-10T14:28:05Z</time>
      </trkpt>
      <trkpt lat="48.71069" lon="7.27026">
        <ele>416.7</ele>
        <time>2020-05-10T14:28:06Z</time>
      </trkpt>
      <trkpt lat="48.71069" lon="7.27024">
        <ele>417.2</ele>
        <time>2020-05-10T14:28:07Z</time>
      </trkpt>
      <trkpt lat="48.71068" lon="7.27023">
        <ele>417.2</ele>
        <time>2020-05-10T14:28:08Z</time>
      </trkpt>
      <trkpt lat="48.71067" lon="7.27018">
        <ele>417.7</ele>
        <time>2020-05-10T14:28:10Z</time>
      </trkpt>
      <trkpt lat="48.71066" lon="7.27011">
        <ele>418.4</ele>
        <time>2020-05-10T14:28:12Z</time>
      </trkpt>
      <trkpt lat="48.71064" lon="7.27005">
        <ele>418.6</ele>
        <time>2020-05-10T14:28:14Z</time>
      </trkpt>
      <trkpt lat="48.71062" lon="7.27">
        <ele>418.7</ele>
        <time>2020-05-10T14:28:16Z</time>
      </trkpt>
      <trkpt lat="48.7106" lon="7.26995">
        <ele>420</ele>
        <time>2020-05-10T14:28:18Z</time>
      </trkpt>
      <trkpt lat="48.71059" lon="7.26991">
        <ele>419.6</ele>
        <time>2020-05-10T14:28:19Z</time>
      </trkpt>
      <trkpt lat="48.71057" lon="7.26984">
        <ele>420.8</ele>
        <time>2020-05-10T14:28:21Z</time>
      </trkpt>
      <trkpt lat="48.71056" lon="7.26983">
        <ele>420.8</ele>
        <time>2020-05-10T14:28:22Z</time>
      </trkpt>
      <trkpt lat="48.71055" lon="7.2698">
        <ele>420.9</ele>
        <time>2020-05-10T14:28:23Z</time>
      </trkpt>
      <trkpt lat="48.71054" lon="7.26977">
        <ele>421.6</ele>
        <time>2020-05-10T14:28:24Z</time>
      </trkpt>
      <trkpt lat="48.71051" lon="7.26972">
        <ele>421.7</ele>
        <time>2020-05-10T14:28:26Z</time>
      </trkpt>
      <trkpt lat="48.71048" lon="7.26968">
        <ele>421.9</ele>
        <time>2020-05-10T14:28:28Z</time>
      </trkpt>
      <trkpt lat="48.71047" lon="7.26966">
        <ele>421.6</ele>
        <time>2020-05-10T14:28:29Z</time>
      </trkpt>
      <trkpt lat="48.71046" lon="7.26964">
        <ele>422.2</ele>
        <time>2020-05-10T14:28:30Z</time>
      </trkpt>
      <trkpt lat="48.71045" lon="7.26962">
        <ele>422.2</ele>
        <time>2020-05-10T14:28:31Z</time>
      </trkpt>
      <trkpt lat="48.71045" lon="7.26958">
        <ele>422.4</ele>
        <time>2020-05-10T14:28:33Z</time>
      </trkpt>
      <trkpt lat="48.71045" lon="7.26957">
        <ele>422.7</ele>
        <time>2020-05-10T14:28:35Z</time>
      </trkpt>
      <trkpt lat="48.71046" lon="7.26957">
        <ele>422.7</ele>
        <time>2020-05-10T14:28:37Z</time>
      </trkpt>
      <trkpt lat="48.71047" lon="7.26958">
        <ele>422.8</ele>
        <time>2020-05-10T14:28:39Z</time>
      </trkpt>
      <trkpt lat="48.71047" lon="7.26958">
        <ele>422.8</ele>
        <time>2020-05-10T14:28:40Z</time>
      </trkpt>
      <trkpt lat="48.71047" lon="7.26958">
        <ele>422.8</ele>
        <time>2020-05-10T14:28:41Z</time>
      </trkpt>
      <trkpt lat="48.71046" lon="7.26958">
        <ele>422.8</ele>
        <time>2020-05-10T14:28:43Z</time>
      </trkpt>
      <trkpt lat="48.71044" lon="7.26955">
        <ele>423</ele>
        <time>2020-05-10T14:28:45Z</time>
      </trkpt>
      <trkpt lat="48.71043" lon="7.26954">
        <ele>423</ele>
        <time>2020-05-10T14:28:46Z</time>
      </trkpt>
      <trkpt lat="48.7104" lon="7.26949">
        <ele>423.2</ele>
        <time>2020-05-10T14:28:48Z</time>
      </trkpt>
      <trkpt lat="48.71038" lon="7.26947">
        <ele>423.4</ele>
        <time>2020-05-10T14:28:49Z</time>
      </trkpt>
      <trkpt lat="48.71037" lon="7.26946">
        <ele>423.4</ele>
        <time>2020-05-10T14:28:50Z</time>
      </trkpt>
      <trkpt lat="48.71035" lon="7.26944">
        <ele>423.2</ele>
        <time>2020-05-10T14:28:52Z</time>
      </trkpt>
      <trkpt lat="48.71031" lon="7.26939">
        <ele>423.4</ele>
        <time>2020-05-10T14:28:54Z</time>
      </trkpt>
      <trkpt lat="48.71028" lon="7.26936">
        <ele>423.6</ele>
        <time>2020-05-10T14:28:55Z</time>
      </trkpt>
      <trkpt lat="48.71027" lon="7.26936">
        <ele>423.5</ele>
        <time>2020-05-10T14:28:56Z</time>
      </trkpt>
      <trkpt lat="48.71025" lon="7.26934">
        <ele>423.9</ele>
        <time>2020-05-10T14:28:57Z</time>
      </trkpt>
      <trkpt lat="48.7102" lon="7.26931">
        <ele>423.8</ele>
        <time>2020-05-10T14:28:59Z</time>
      </trkpt>
      <trkpt lat="48.71019" lon="7.26931">
        <ele>423.8</ele>
        <time>2020-05-10T14:29:00Z</time>
      </trkpt>
      <trkpt lat="48.71018" lon="7.26931">
        <ele>423.8</ele>
        <time>2020-05-10T14:29:01Z</time>
      </trkpt>
      <trkpt lat="48.71015" lon="7.26932">
        <ele>423.9</ele>
        <time>2020-05-10T14:29:03Z</time>
      </trkpt>
      <trkpt lat="48.71013" lon="7.26932">
        <ele>423.9</ele>
        <time>2020-05-10T14:29:04Z</time>
      </trkpt>
      <trkpt lat="48.71008" lon="7.26936">
        <ele>423.7</ele>
        <time>2020-05-10T14:29:06Z</time>
      </trkpt>
      <trkpt lat="48.71005" lon="7.26938">
        <ele>423.9</ele>
        <time>2020-05-10T14:29:07Z</time>
      </trkpt>
      <trkpt lat="48.71004" lon="7.26938">
        <ele>424.1</ele>
        <time>2020-05-10T14:29:08Z</time>
      </trkpt>
      <trkpt lat="48.71004" lon="7.26939">
        <ele>424.1</ele>
        <time>2020-05-10T14:29:09Z</time>
      </trkpt>
      <trkpt lat="48.71002" lon="7.26942">
        <ele>424</ele>
        <time>2020-05-10T14:29:11Z</time>
      </trkpt>
      <trkpt lat="48.70999" lon="7.26947">
        <ele>423.9</ele>
        <time>2020-05-10T14:29:13Z</time>
      </trkpt>
      <trkpt lat="48.70996" lon="7.26952">
        <ele>423.3</ele>
        <time>2020-05-10T14:29:15Z</time>
      </trkpt>
      <trkpt lat="48.70995" lon="7.26953">
        <ele>423.3</ele>
        <time>2020-05-10T14:29:16Z</time>
      </trkpt>
      <trkpt lat="48.70994" lon="7.26955">
        <ele>423.3</ele>
        <time>2020-05-10T14:29:17Z</time>
      </trkpt>
      <trkpt lat="48.70993" lon="7.26959">
        <ele>423.1</ele>
        <time>2020-05-10T14:29:18Z</time>
      </trkpt>
      <trkpt lat="48.7099" lon="7.26966">
        <ele>422.4</ele>
        <time>2020-05-10T14:29:20Z</time>
      </trkpt>
      <trkpt lat="48.70989" lon="7.26969">
        <ele>422.4</ele>
        <time>2020-05-10T14:29:21Z</time>
      </trkpt>
      <trkpt lat="48.70986" lon="7.26975">
        <ele>421.6</ele>
        <time>2020-05-10T14:29:23Z</time>
      </trkpt>
      <trkpt lat="48.70984" lon="7.26979">
        <ele>421.4</ele>
        <time>2020-05-10T14:29:24Z</time>
      </trkpt>
      <trkpt lat="48.70982" lon="7.26982">
        <ele>421.2</ele>
        <time>2020-05-10T14:29:25Z</time>
      </trkpt>
      <trkpt lat="48.70976" lon="7.26987">
        <ele>421.3</ele>
        <time>2020-05-10T14:29:27Z</time>
      </trkpt>
      <trkpt lat="48.70973" lon="7.26991">
        <ele>421.2</ele>
        <time>2020-05-10T14:29:28Z</time>
      </trkpt>
      <trkpt lat="48.70971" lon="7.26993">
        <ele>421.2</ele>
        <time>2020-05-10T14:29:29Z</time>
      </trkpt>
      <trkpt lat="48.70966" lon="7.27">
        <ele>420.9</ele>
        <time>2020-05-10T14:29:31Z</time>
      </trkpt>
      <trkpt lat="48.70963" lon="7.27004">
        <ele>420.8</ele>
        <time>2020-05-10T14:29:32Z</time>
      </trkpt>
      <trkpt lat="48.70959" lon="7.27011">
        <ele>421.2</ele>
        <time>2020-05-10T14:29:34Z</time>
      </trkpt>
      <trkpt lat="48.70956" lon="7.27015">
        <ele>421.2</ele>
        <time>2020-05-10T14:29:35Z</time>
      </trkpt>
      <trkpt lat="48.70953" lon="7.27021">
        <ele>420.4</ele>
        <time>2020-05-10T14:29:37Z</time>
      </trkpt>
      <trkpt lat="48.70952" lon="7.27025">
        <ele>419.7</ele>
        <time>2020-05-10T14:29:38Z</time>
      </trkpt>
      <trkpt lat="48.70951" lon="7.2703">
        <ele>419.7</ele>
        <time>2020-05-10T14:29:39Z</time>
      </trkpt>
      <trkpt lat="48.70948" lon="7.27035">
        <ele>419.8</ele>
        <time>2020-05-10T14:29:41Z</time>
      </trkpt>
      <trkpt lat="48.70945" lon="7.2704">
        <ele>419.9</ele>
        <time>2020-05-10T14:29:42Z</time>
      </trkpt>
      <trkpt lat="48.70941" lon="7.27046">
        <ele>420</ele>
        <time>2020-05-10T14:29:44Z</time>
      </trkpt>
      <trkpt lat="48.70938" lon="7.27048">
        <ele>420.1</ele>
        <time>2020-05-10T14:29:45Z</time>
      </trkpt>
      <trkpt lat="48.70933" lon="7.27053">
        <ele>420.8</ele>
        <time>2020-05-10T14:29:47Z</time>
      </trkpt>
      <trkpt lat="48.70931" lon="7.27056">
        <ele>420.6</ele>
        <time>2020-05-10T14:29:48Z</time>
      </trkpt>
      <trkpt lat="48.70929" lon="7.27059">
        <ele>419.9</ele>
        <time>2020-05-10T14:29:49Z</time>
      </trkpt>
      <trkpt lat="48.70925" lon="7.27065">
        <ele>420.2</ele>
        <time>2020-05-10T14:29:51Z</time>
      </trkpt>
      <trkpt lat="48.70922" lon="7.27069">
        <ele>420</ele>
        <time>2020-05-10T14:29:52Z</time>
      </trkpt>
      <trkpt lat="48.70918" lon="7.27076">
        <ele>419.7</ele>
        <time>2020-05-10T14:29:54Z</time>
      </trkpt>
      <trkpt lat="48.70915" lon="7.27079">
        <ele>419.3</ele>
        <time>2020-05-10T14:29:55Z</time>
      </trkpt>
      <trkpt lat="48.7091" lon="7.27087">
        <ele>418.3</ele>
        <time>2020-05-10T14:29:57Z</time>
      </trkpt>
      <trkpt lat="48.70906" lon="7.27092">
        <ele>418.2</ele>
        <time>2020-05-10T14:29:59Z</time>
      </trkpt>
      <trkpt lat="48.70902" lon="7.27099">
        <ele>416.5</ele>
        <time>2020-05-10T14:30:01Z</time>
      </trkpt>
      <trkpt lat="48.709" lon="7.27103">
        <ele>416</ele>
        <time>2020-05-10T14:30:02Z</time>
      </trkpt>
      <trkpt lat="48.70896" lon="7.2711">
        <ele>414.6</ele>
        <time>2020-05-10T14:30:04Z</time>
      </trkpt>
      <trkpt lat="48.70891" lon="7.27118">
        <ele>414.8</ele>
        <time>2020-05-10T14:30:06Z</time>
      </trkpt>
      <trkpt lat="48.70887" lon="7.27125">
        <ele>413.5</ele>
        <time>2020-05-10T14:30:08Z</time>
      </trkpt>
      <trkpt lat="48.70886" lon="7.27128">
        <ele>413.1</ele>
        <time>2020-05-10T14:30:09Z</time>
      </trkpt>
      <trkpt lat="48.70881" lon="7.27134">
        <ele>412.6</ele>
        <time>2020-05-10T14:30:11Z</time>
      </trkpt>
      <trkpt lat="48.70875" lon="7.27138">
        <ele>412.6</ele>
        <time>2020-05-10T14:30:13Z</time>
      </trkpt>
      <trkpt lat="48.70872" lon="7.27138">
        <ele>413.2</ele>
        <time>2020-05-10T14:30:14Z</time>
      </trkpt>
      <trkpt lat="48.7087" lon="7.27139">
        <ele>413.7</ele>
        <time>2020-05-10T14:30:15Z</time>
      </trkpt>
      <trkpt lat="48.70863" lon="7.27143">
        <ele>414.7</ele>
        <time>2020-05-10T14:30:17Z</time>
      </trkpt>
      <trkpt lat="48.70857" lon="7.27149">
        <ele>415.1</ele>
        <time>2020-05-10T14:30:19Z</time>
      </trkpt>
      <trkpt lat="48.70852" lon="7.27154">
        <ele>414.3</ele>
        <time>2020-05-10T14:30:21Z</time>
      </trkpt>
      <trkpt lat="48.70849" lon="7.27155">
        <ele>415</ele>
        <time>2020-05-10T14:30:22Z</time>
      </trkpt>
      <trkpt lat="48.70841" lon="7.27161">
        <ele>415.5</ele>
        <time>2020-05-10T14:30:25Z</time>
      </trkpt>
      <trkpt lat="48.70838" lon="7.27162">
        <ele>415.2</ele>
        <time>2020-05-10T14:30:26Z</time>
      </trkpt>
      <trkpt lat="48.70833" lon="7.27165">
        <ele>416.9</ele>
        <time>2020-05-10T14:30:28Z</time>
      </trkpt>
      <trkpt lat="48.7083" lon="7.27167">
        <ele>416.7</ele>
        <time>2020-05-10T14:30:29Z</time>
      </trkpt>
      <trkpt lat="48.70825" lon="7.2717">
        <ele>418.5</ele>
        <time>2020-05-10T14:30:31Z</time>
      </trkpt>
      <trkpt lat="48.7082" lon="7.27173">
        <ele>419</ele>
        <time>2020-05-10T14:30:33Z</time>
      </trkpt>
      <trkpt lat="48.70818" lon="7.27175">
        <ele>418.7</ele>
        <time>2020-05-10T14:30:34Z</time>
      </trkpt>
      <trkpt lat="48.70813" lon="7.27179">
        <ele>419.5</ele>
        <time>2020-05-10T14:30:36Z</time>
      </trkpt>
      <trkpt lat="48.70809" lon="7.27181">
        <ele>420.2</ele>
        <time>2020-05-10T14:30:37Z</time>
      </trkpt>
      <trkpt lat="48.70807" lon="7.27182">
        <ele>420.2</ele>
        <time>2020-05-10T14:30:38Z</time>
      </trkpt>
      <trkpt lat="48.70804" lon="7.27183">
        <ele>421.1</ele>
        <time>2020-05-10T14:30:39Z</time>
      </trkpt>
      <trkpt lat="48.70802" lon="7.27184">
        <ele>420.8</ele>
        <time>2020-05-10T14:30:40Z</time>
      </trkpt>
      <trkpt lat="48.70797" lon="7.27186">
        <ele>422.4</ele>
        <time>2020-05-10T14:30:42Z</time>
      </trkpt>
      <trkpt lat="48.70791" lon="7.27189">
        <ele>422.6</ele>
        <time>2020-05-10T14:30:44Z</time>
      </trkpt>
      <trkpt lat="48.70787" lon="7.27192">
        <ele>424</ele>
        <time>2020-05-10T14:30:46Z</time>
      </trkpt>
      <trkpt lat="48.70781" lon="7.27196">
        <ele>424.1</ele>
        <time>2020-05-10T14:30:48Z</time>
      </trkpt>
      <trkpt lat="48.70778" lon="7.27199">
        <ele>423.4</ele>
        <time>2020-05-10T14:30:49Z</time>
      </trkpt>
      <trkpt lat="48.70776" lon="7.272">
        <ele>423.4</ele>
        <time>2020-05-10T14:30:50Z</time>
      </trkpt>
      <trkpt lat="48.70771" lon="7.27205">
        <ele>422.1</ele>
        <time>2020-05-10T14:30:52Z</time>
      </trkpt>
      <trkpt lat="48.70768" lon="7.27208">
        <ele>422.7</ele>
        <time>2020-05-10T14:30:53Z</time>
      </trkpt>
      <trkpt lat="48.70768" lon="7.27209">
        <ele>422.7</ele>
        <time>2020-05-10T14:30:54Z</time>
      </trkpt>
      <trkpt lat="48.70762" lon="7.27211">
        <ele>422.3</ele>
        <time>2020-05-10T14:30:56Z</time>
      </trkpt>
      <trkpt lat="48.70758" lon="7.27213">
        <ele>423.1</ele>
        <time>2020-05-10T14:30:58Z</time>
      </trkpt>
      <trkpt lat="48.70751" lon="7.27212">
        <ele>423.7</ele>
        <time>2020-05-10T14:31:00Z</time>
      </trkpt>
      <trkpt lat="48.70746" lon="7.27209">
        <ele>425.5</ele>
        <time>2020-05-10T14:31:02Z</time>
      </trkpt>
      <trkpt lat="48.70742" lon="7.27207">
        <ele>425.6</ele>
        <time>2020-05-10T14:31:03Z</time>
      </trkpt>
      <trkpt lat="48.70736" lon="7.27203">
        <ele>427</ele>
        <time>2020-05-10T14:31:05Z</time>
      </trkpt>
      <trkpt lat="48.70734" lon="7.27202">
        <ele>427</ele>
        <time>2020-05-10T14:31:06Z</time>
      </trkpt>
      <trkpt lat="48.70727" lon="7.27199">
        <ele>428.1</ele>
        <time>2020-05-10T14:31:08Z</time>
      </trkpt>
      <trkpt lat="48.70725" lon="7.27198">
        <ele>427.9</ele>
        <time>2020-05-10T14:31:09Z</time>
      </trkpt>
      <trkpt lat="48.70719" lon="7.27196">
        <ele>429.1</ele>
        <time>2020-05-10T14:31:11Z</time>
      </trkpt>
      <trkpt lat="48.70714" lon="7.27192">
        <ele>430</ele>
        <time>2020-05-10T14:31:13Z</time>
      </trkpt>
      <trkpt lat="48.7071" lon="7.2719">
        <ele>429.4</ele>
        <time>2020-05-10T14:31:14Z</time>
      </trkpt>
      <trkpt lat="48.70707" lon="7.27189">
        <ele>429.1</ele>
        <time>2020-05-10T14:31:15Z</time>
      </trkpt>
      <trkpt lat="48.70701" lon="7.27184">
        <ele>429.8</ele>
        <time>2020-05-10T14:31:17Z</time>
      </trkpt>
      <trkpt lat="48.70696" lon="7.2718">
        <ele>430.4</ele>
        <time>2020-05-10T14:31:19Z</time>
      </trkpt>
      <trkpt lat="48.7069" lon="7.27179">
        <ele>430.8</ele>
        <time>2020-05-10T14:31:21Z</time>
      </trkpt>
      <trkpt lat="48.70685" lon="7.27178">
        <ele>430</ele>
        <time>2020-05-10T14:31:23Z</time>
      </trkpt>
      <trkpt lat="48.7068" lon="7.27177">
        <ele>429.6</ele>
        <time>2020-05-10T14:31:25Z</time>
      </trkpt>
      <trkpt lat="48.70677" lon="7.27175">
        <ele>429.2</ele>
        <time>2020-05-10T14:31:26Z</time>
      </trkpt>
      <trkpt lat="48.70671" lon="7.27172">
        <ele>429</ele>
        <time>2020-05-10T14:31:28Z</time>
      </trkpt>
      <trkpt lat="48.70668" lon="7.2717">
        <ele>429.7</ele>
        <time>2020-05-10T14:31:29Z</time>
      </trkpt>
      <trkpt lat="48.70662" lon="7.27167">
        <ele>428.6</ele>
        <time>2020-05-10T14:31:31Z</time>
      </trkpt>
      <trkpt lat="48.70657" lon="7.27164">
        <ele>429.2</ele>
        <time>2020-05-10T14:31:33Z</time>
      </trkpt>
      <trkpt lat="48.70655" lon="7.27163">
        <ele>428.6</ele>
        <time>2020-05-10T14:31:34Z</time>
      </trkpt>
      <trkpt lat="48.70649" lon="7.27161">
        <ele>428.7</ele>
        <time>2020-05-10T14:31:36Z</time>
      </trkpt>
      <trkpt lat="48.70644" lon="7.2716">
        <ele>427.7</ele>
        <time>2020-05-10T14:31:38Z</time>
      </trkpt>
      <trkpt lat="48.70642" lon="7.2716">
        <ele>427.1</ele>
        <time>2020-05-10T14:31:39Z</time>
      </trkpt>
      <trkpt lat="48.70636" lon="7.27159">
        <ele>426</ele>
        <time>2020-05-10T14:31:41Z</time>
      </trkpt>
      <trkpt lat="48.70633" lon="7.27155">
        <ele>426.7</ele>
        <time>2020-05-10T14:31:42Z</time>
      </trkpt>
      <trkpt lat="48.70632" lon="7.27153">
        <ele>428</ele>
        <time>2020-05-10T14:31:43Z</time>
      </trkpt>
      <trkpt lat="48.70628" lon="7.27148">
        <ele>428.4</ele>
        <time>2020-05-10T14:31:45Z</time>
      </trkpt>
      <trkpt lat="48.70625" lon="7.27146">
        <ele>427.9</ele>
        <time>2020-05-10T14:31:46Z</time>
      </trkpt>
      <trkpt lat="48.70623" lon="7.27144">
        <ele>429.3</ele>
        <time>2020-05-10T14:31:47Z</time>
      </trkpt>
      <trkpt lat="48.70617" lon="7.2714">
        <ele>429.6</ele>
        <time>2020-05-10T14:31:49Z</time>
      </trkpt>
      <trkpt lat="48.70613" lon="7.27136">
        <ele>428.5</ele>
        <time>2020-05-10T14:31:51Z</time>
      </trkpt>
      <trkpt lat="48.70609" lon="7.2713">
        <ele>430.4</ele>
        <time>2020-05-10T14:31:53Z</time>
      </trkpt>
      <trkpt lat="48.70605" lon="7.27125">
        <ele>430.3</ele>
        <time>2020-05-10T14:31:55Z</time>
      </trkpt>
      <trkpt lat="48.70601" lon="7.2712">
        <ele>430.8</ele>
        <time>2020-05-10T14:31:57Z</time>
      </trkpt>
      <trkpt lat="48.70598" lon="7.27117">
        <ele>431.3</ele>
        <time>2020-05-10T14:31:58Z</time>
      </trkpt>
      <trkpt lat="48.70597" lon="7.27116">
        <ele>430.8</ele>
        <time>2020-05-10T14:31:59Z</time>
      </trkpt>
      <trkpt lat="48.70591" lon="7.27113">
        <ele>430.9</ele>
        <time>2020-05-10T14:32:01Z</time>
      </trkpt>
      <trkpt lat="48.70587" lon="7.27109">
        <ele>431.6</ele>
        <time>2020-05-10T14:32:03Z</time>
      </trkpt>
      <trkpt lat="48.70582" lon="7.27105">
        <ele>431.9</ele>
        <time>2020-05-10T14:32:05Z</time>
      </trkpt>
      <trkpt lat="48.7058" lon="7.271">
        <ele>432.7</ele>
        <time>2020-05-10T14:32:07Z</time>
      </trkpt>
      <trkpt lat="48.7058" lon="7.27099">
        <ele>432.7</ele>
        <time>2020-05-10T14:32:08Z</time>
      </trkpt>
      <trkpt lat="48.7058" lon="7.27098">
        <ele>434.2</ele>
        <time>2020-05-10T14:32:09Z</time>
      </trkpt>
      <trkpt lat="48.70581" lon="7.27095">
        <ele>434.2</ele>
        <time>2020-05-10T14:32:11Z</time>
      </trkpt>
      <trkpt lat="48.70582" lon="7.27093">
        <ele>435.2</ele>
        <time>2020-05-10T14:32:12Z</time>
      </trkpt>
      <trkpt lat="48.70582" lon="7.27091">
        <ele>435.2</ele>
        <time>2020-05-10T14:32:14Z</time>
      </trkpt>
      <trkpt lat="48.70583" lon="7.2709">
        <ele>435.6</ele>
        <time>2020-05-10T14:32:15Z</time>
      </trkpt>
      <trkpt lat="48.70585" lon="7.27089">
        <ele>436.6</ele>
        <time>2020-05-10T14:32:17Z</time>
      </trkpt>
      <trkpt lat="48.70585" lon="7.27087">
        <ele>436.6</ele>
        <time>2020-05-10T14:32:19Z</time>
      </trkpt>
      <trkpt lat="48.70586" lon="7.27087">
        <ele>436.9</ele>
        <time>2020-05-10T14:32:20Z</time>
      </trkpt>
      <trkpt lat="48.70588" lon="7.27088">
        <ele>436.9</ele>
        <time>2020-05-10T14:32:21Z</time>
      </trkpt>
      <trkpt lat="48.70589" lon="7.27088">
        <ele>436.9</ele>
        <time>2020-05-10T14:32:23Z</time>
      </trkpt>
      <trkpt lat="48.7059" lon="7.27088">
        <ele>437.3</ele>
        <time>2020-05-10T14:32:24Z</time>
      </trkpt>
      <trkpt lat="48.70591" lon="7.27089">
        <ele>437.3</ele>
        <time>2020-05-10T14:32:25Z</time>
      </trkpt>
      <trkpt lat="48.70592" lon="7.27089">
        <ele>437.6</ele>
        <time>2020-05-10T14:32:26Z</time>
      </trkpt>
      <trkpt lat="48.70595" lon="7.27092">
        <ele>437.1</ele>
        <time>2020-05-10T14:32:28Z</time>
      </trkpt>
      <trkpt lat="48.70596" lon="7.27093">
        <ele>437.1</ele>
        <time>2020-05-10T14:32:29Z</time>
      </trkpt>
      <trkpt lat="48.706" lon="7.27095">
        <ele>436.6</ele>
        <time>2020-05-10T14:32:31Z</time>
      </trkpt>
      <trkpt lat="48.70601" lon="7.27096">
        <ele>437.1</ele>
        <time>2020-05-10T14:32:32Z</time>
      </trkpt>
      <trkpt lat="48.70604" lon="7.27097">
        <ele>437.6</ele>
        <time>2020-05-10T14:32:34Z</time>
      </trkpt>
      <trkpt lat="48.70607" lon="7.27098">
        <ele>437.2</ele>
        <time>2020-05-10T14:32:35Z</time>
      </trkpt>
      <trkpt lat="48.70608" lon="7.27098">
        <ele>437.2</ele>
        <time>2020-05-10T14:32:36Z</time>
      </trkpt>
      <trkpt lat="48.70609" lon="7.27098">
        <ele>437.7</ele>
        <time>2020-05-10T14:32:37Z</time>
      </trkpt>
      <trkpt lat="48.70614" lon="7.271">
        <ele>438.3</ele>
        <time>2020-05-10T14:32:39Z</time>
      </trkpt>
      <trkpt lat="48.70619" lon="7.27102">
        <ele>439.5</ele>
        <time>2020-05-10T14:32:41Z</time>
      </trkpt>
      <trkpt lat="48.70624" lon="7.27103">
        <ele>439.6</ele>
        <time>2020-05-10T14:32:43Z</time>
      </trkpt>
      <trkpt lat="48.70629" lon="7.27105">
        <ele>440.7</ele>
        <time>2020-05-10T14:32:45Z</time>
      </trkpt>
      <trkpt lat="48.70632" lon="7.27107">
        <ele>440.1</ele>
        <time>2020-05-10T14:32:46Z</time>
      </trkpt>
      <trkpt lat="48.70633" lon="7.27107">
        <ele>440.1</ele>
        <time>2020-05-10T14:32:47Z</time>
      </trkpt>
      <trkpt lat="48.70637" lon="7.27108">
        <ele>440.7</ele>
        <time>2020-05-10T14:32:49Z</time>
      </trkpt>
      <trkpt lat="48.70639" lon="7.27109">
        <ele>441.3</ele>
        <time>2020-05-10T14:32:50Z</time>
      </trkpt>
      <trkpt lat="48.70643" lon="7.2711">
        <ele>441.8</ele>
        <time>2020-05-10T14:32:52Z</time>
      </trkpt>
      <trkpt lat="48.70645" lon="7.2711">
        <ele>442.3</ele>
        <time>2020-05-10T14:32:53Z</time>
      </trkpt>
      <trkpt lat="48.7065" lon="7.27109">
        <ele>443.2</ele>
        <time>2020-05-10T14:32:55Z</time>
      </trkpt>
      <trkpt lat="48.70653" lon="7.27108">
        <ele>443.6</ele>
        <time>2020-05-10T14:32:56Z</time>
      </trkpt>
      <trkpt lat="48.70654" lon="7.27108">
        <ele>444</ele>
        <time>2020-05-10T14:32:57Z</time>
      </trkpt>
      <trkpt lat="48.70659" lon="7.27109">
        <ele>444.5</ele>
        <time>2020-05-10T14:32:59Z</time>
      </trkpt>
      <trkpt lat="48.70663" lon="7.2711">
        <ele>445.3</ele>
        <time>2020-05-10T14:33:01Z</time>
      </trkpt>
      <trkpt lat="48.70664" lon="7.27111">
        <ele>444.2</ele>
        <time>2020-05-10T14:33:02Z</time>
      </trkpt>
      <trkpt lat="48.70667" lon="7.27112">
        <ele>444.6</ele>
        <time>2020-05-10T14:33:04Z</time>
      </trkpt>
      <trkpt lat="48.70668" lon="7.27112">
        <ele>444.6</ele>
        <time>2020-05-10T14:33:05Z</time>
      </trkpt>
      <trkpt lat="48.70672" lon="7.27113">
        <ele>445.4</ele>
        <time>2020-05-10T14:33:07Z</time>
      </trkpt>
      <trkpt lat="48.70678" lon="7.27116">
        <ele>445.3</ele>
        <time>2020-05-10T14:33:09Z</time>
      </trkpt>
      <trkpt lat="48.7068" lon="7.27116">
        <ele>445.7</ele>
        <time>2020-05-10T14:33:10Z</time>
      </trkpt>
      <trkpt lat="48.70682" lon="7.27117">
        <ele>445.7</ele>
        <time>2020-05-10T14:33:12Z</time>
      </trkpt>
      <trkpt lat="48.70684" lon="7.27119">
        <ele>446</ele>
        <time>2020-05-10T14:33:13Z</time>
      </trkpt>
      <trkpt lat="48.70685" lon="7.27119">
        <ele>445.2</ele>
        <time>2020-05-10T14:33:14Z</time>
      </trkpt>
      <trkpt lat="48.70686" lon="7.2712">
        <ele>445.6</ele>
        <time>2020-05-10T14:33:15Z</time>
      </trkpt>
      <trkpt lat="48.7069" lon="7.2712">
        <ele>445.9</ele>
        <time>2020-05-10T14:33:17Z</time>
      </trkpt>
      <trkpt lat="48.70694" lon="7.2712">
        <ele>446.6</ele>
        <time>2020-05-10T14:33:18Z</time>
      </trkpt>
      <trkpt lat="48.70695" lon="7.27119">
        <ele>447.4</ele>
        <time>2020-05-10T14:33:19Z</time>
      </trkpt>
      <trkpt lat="48.70698" lon="7.27118">
        <ele>447.7</ele>
        <time>2020-05-10T14:33:21Z</time>
      </trkpt>
      <trkpt lat="48.70699" lon="7.27118">
        <ele>447.7</ele>
        <time>2020-05-10T14:33:22Z</time>
      </trkpt>
      <trkpt lat="48.70701" lon="7.27117">
        <ele>447.9</ele>
        <time>2020-05-10T14:33:23Z</time>
      </trkpt>
      <trkpt lat="48.70705" lon="7.27116">
        <ele>448.1</ele>
        <time>2020-05-10T14:33:25Z</time>
      </trkpt>
      <trkpt lat="48.70709" lon="7.27115">
        <ele>448.3</ele>
        <time>2020-05-10T14:33:26Z</time>
      </trkpt>
      <trkpt lat="48.7071" lon="7.27114">
        <ele>449</ele>
        <time>2020-05-10T14:33:27Z</time>
      </trkpt>
      <trkpt lat="48.70714" lon="7.27111">
        <ele>449.1</ele>
        <time>2020-05-10T14:33:29Z</time>
      </trkpt>
      <trkpt lat="48.70716" lon="7.2711">
        <ele>449.8</ele>
        <time>2020-05-10T14:33:30Z</time>
      </trkpt>
      <trkpt lat="48.70718" lon="7.27108">
        <ele>449.7</ele>
        <time>2020-05-10T14:33:32Z</time>
      </trkpt>
      <trkpt lat="48.7072" lon="7.27104">
        <ele>450.3</ele>
        <time>2020-05-10T14:33:34Z</time>
      </trkpt>
      <trkpt lat="48.7072" lon="7.27099">
        <ele>450.9</ele>
        <time>2020-05-10T14:33:36Z</time>
      </trkpt>
      <trkpt lat="48.70721" lon="7.27095">
        <ele>451.6</ele>
        <time>2020-05-10T14:33:37Z</time>
      </trkpt>
    </trkseg>
  </trk>
</gpx>